<?xml version="1.0" encoding="UTF-8" standalone="no" ?>
<gpx xmlns="http://www.topografix.com/GPX/1/1" xmlns:xsi="http://www.w3.org/2001/XMLSchema-instance" xsi:schemaLocation="http://www.topografix.com/GPX/1/1 http://www.topografix.com/GPX/1/1/gpx.xsd" version="1.1" creator="VisuGPX - https://www.visugpx.com">
  <metadata>
    <name>dozule_16,3</name>
    <desc><![CDATA[
A tourner dans le sens horaire pour pique niquer sur les 2 tables près de la chapelle de Clermont]]></desc>
  </metadata>
  <trk>
    <name><![CDATA[dozule_16,3]]></name>
    <desc><![CDATA[A tourner dans le sens horaire pour pique niquer sur les 2 tables près de la chapelle de Clermont]]></desc>
    <extensions>
      <line xmlns="http://www.topografix.com/GPX/gpx_style/0/2">
        <width>3</width>
      </line>
    </extensions>
    <trkseg>
      <trkpt lat="49.22914" lon="-0.0404">
        <ele>30.2</ele>
        <time>2015-09-03T07:19:41.000Z</time>
      </trkpt>
      <trkpt lat="49.22914" lon="-0.04039">
        <ele>30.2</ele>
        <time>2015-09-03T07:19:42.000Z</time>
      </trkpt>
      <trkpt lat="49.22906" lon="-0.04047">
        <ele>30.2</ele>
        <time>2015-09-03T07:21:45.000Z</time>
      </trkpt>
      <trkpt lat="49.22897" lon="-0.04049">
        <ele>30.2</ele>
        <time>2015-09-03T07:21:57.000Z</time>
      </trkpt>
      <trkpt lat="49.22888" lon="-0.04056">
        <ele>30.6</ele>
        <time>2015-09-03T07:22:06.000Z</time>
      </trkpt>
      <trkpt lat="49.22881" lon="-0.04065">
        <ele>31</ele>
        <time>2015-09-03T07:22:15.000Z</time>
      </trkpt>
      <trkpt lat="49.22873" lon="-0.04073">
        <ele>31.4</ele>
        <time>2015-09-03T07:22:24.000Z</time>
      </trkpt>
      <trkpt lat="49.22864" lon="-0.04081">
        <ele>31.5</ele>
        <time>2015-09-03T07:22:33.000Z</time>
      </trkpt>
      <trkpt lat="49.22856" lon="-0.04089">
        <ele>31.8</ele>
        <time>2015-09-03T07:22:41.000Z</time>
      </trkpt>
      <trkpt lat="49.22848" lon="-0.04099">
        <ele>32.2</ele>
        <time>2015-09-03T07:22:50.000Z</time>
      </trkpt>
      <trkpt lat="49.22841" lon="-0.04107">
        <ele>32.4</ele>
        <time>2015-09-03T07:22:58.000Z</time>
      </trkpt>
      <trkpt lat="49.22833" lon="-0.04115">
        <ele>32.8</ele>
        <time>2015-09-03T07:23:05.000Z</time>
      </trkpt>
      <trkpt lat="49.22826" lon="-0.04125">
        <ele>33.3</ele>
        <time>2015-09-03T07:23:13.000Z</time>
      </trkpt>
      <trkpt lat="49.22819" lon="-0.04134">
        <ele>33.5</ele>
        <time>2015-09-03T07:23:21.000Z</time>
      </trkpt>
      <trkpt lat="49.22811" lon="-0.04143">
        <ele>33.6</ele>
        <time>2015-09-03T07:23:30.000Z</time>
      </trkpt>
      <trkpt lat="49.22803" lon="-0.04152">
        <ele>33.9</ele>
        <time>2015-09-03T07:23:38.000Z</time>
      </trkpt>
      <trkpt lat="49.22795" lon="-0.04159">
        <ele>34.1</ele>
        <time>2015-09-03T07:23:46.000Z</time>
      </trkpt>
      <trkpt lat="49.22788" lon="-0.04169">
        <ele>33.9</ele>
        <time>2015-09-03T07:23:54.000Z</time>
      </trkpt>
      <trkpt lat="49.22781" lon="-0.04179">
        <ele>33.8</ele>
        <time>2015-09-03T07:24:02.000Z</time>
      </trkpt>
      <trkpt lat="49.22775" lon="-0.0419">
        <ele>33.6</ele>
        <time>2015-09-03T07:24:10.000Z</time>
      </trkpt>
      <trkpt lat="49.2277" lon="-0.04202">
        <ele>33.3</ele>
        <time>2015-09-03T07:24:18.000Z</time>
      </trkpt>
      <trkpt lat="49.22764" lon="-0.04213">
        <ele>32.8</ele>
        <time>2015-09-03T07:24:25.000Z</time>
      </trkpt>
      <trkpt lat="49.22758" lon="-0.04225">
        <ele>32.4</ele>
        <time>2015-09-03T07:24:33.000Z</time>
      </trkpt>
      <trkpt lat="49.22753" lon="-0.04237">
        <ele>32.3</ele>
        <time>2015-09-03T07:24:41.000Z</time>
      </trkpt>
      <trkpt lat="49.22746" lon="-0.04246">
        <ele>32.4</ele>
        <time>2015-09-03T07:24:49.000Z</time>
      </trkpt>
      <trkpt lat="49.22737" lon="-0.04249">
        <ele>32.2</ele>
        <time>2015-09-03T07:24:57.000Z</time>
      </trkpt>
      <trkpt lat="49.22728" lon="-0.04245">
        <ele>31.8</ele>
        <time>2015-09-03T07:25:07.000Z</time>
      </trkpt>
      <trkpt lat="49.2272" lon="-0.04238">
        <ele>31.7</ele>
        <time>2015-09-03T07:25:17.000Z</time>
      </trkpt>
      <trkpt lat="49.22711" lon="-0.04235">
        <ele>31.8</ele>
        <time>2015-09-03T07:25:27.000Z</time>
      </trkpt>
      <trkpt lat="49.22702" lon="-0.04231">
        <ele>32.1</ele>
        <time>2015-09-03T07:25:38.000Z</time>
      </trkpt>
      <trkpt lat="49.22694" lon="-0.04225">
        <ele>32.9</ele>
        <time>2015-09-03T07:25:46.000Z</time>
      </trkpt>
      <trkpt lat="49.22686" lon="-0.04217">
        <ele>33.5</ele>
        <time>2015-09-03T07:25:54.000Z</time>
      </trkpt>
      <trkpt lat="49.22679" lon="-0.04206">
        <ele>34.1</ele>
        <time>2015-09-03T07:26:01.000Z</time>
      </trkpt>
      <trkpt lat="49.22672" lon="-0.04196">
        <ele>34.4</ele>
        <time>2015-09-03T07:26:07.000Z</time>
      </trkpt>
      <trkpt lat="49.22666" lon="-0.04184">
        <ele>34.6</ele>
        <time>2015-09-03T07:26:14.000Z</time>
      </trkpt>
      <trkpt lat="49.22661" lon="-0.04172">
        <ele>34.9</ele>
        <time>2015-09-03T07:26:22.000Z</time>
      </trkpt>
      <trkpt lat="49.22655" lon="-0.04161">
        <ele>35.4</ele>
        <time>2015-09-03T07:26:31.000Z</time>
      </trkpt>
      <trkpt lat="49.2265" lon="-0.04149">
        <ele>35.7</ele>
        <time>2015-09-03T07:26:40.000Z</time>
      </trkpt>
      <trkpt lat="49.22644" lon="-0.04138">
        <ele>35.9</ele>
        <time>2015-09-03T07:26:48.000Z</time>
      </trkpt>
      <trkpt lat="49.22638" lon="-0.04126">
        <ele>36.3</ele>
        <time>2015-09-03T07:26:55.000Z</time>
      </trkpt>
      <trkpt lat="49.22632" lon="-0.04115">
        <ele>36.7</ele>
        <time>2015-09-03T07:27:02.000Z</time>
      </trkpt>
      <trkpt lat="49.22625" lon="-0.04105">
        <ele>37.1</ele>
        <time>2015-09-03T07:27:09.000Z</time>
      </trkpt>
      <trkpt lat="49.22618" lon="-0.04097">
        <ele>37.5</ele>
        <time>2015-09-03T07:27:15.000Z</time>
      </trkpt>
      <trkpt lat="49.22612" lon="-0.04086">
        <ele>38</ele>
        <time>2015-09-03T07:27:23.000Z</time>
      </trkpt>
      <trkpt lat="49.22606" lon="-0.04075">
        <ele>38.6</ele>
        <time>2015-09-03T07:27:32.000Z</time>
      </trkpt>
      <trkpt lat="49.22602" lon="-0.04062">
        <ele>39</ele>
        <time>2015-09-03T07:27:41.000Z</time>
      </trkpt>
      <trkpt lat="49.22598" lon="-0.04049">
        <ele>39.6</ele>
        <time>2015-09-03T07:27:51.000Z</time>
      </trkpt>
      <trkpt lat="49.22592" lon="-0.04036">
        <ele>40.1</ele>
        <time>2015-09-03T07:28:00.000Z</time>
      </trkpt>
      <trkpt lat="49.22587" lon="-0.04023">
        <ele>40.7</ele>
        <time>2015-09-03T07:28:08.000Z</time>
      </trkpt>
      <trkpt lat="49.22581" lon="-0.04012">
        <ele>41.2</ele>
        <time>2015-09-03T07:28:15.000Z</time>
      </trkpt>
      <trkpt lat="49.22575" lon="-0.04002">
        <ele>41.7</ele>
        <time>2015-09-03T07:28:23.000Z</time>
      </trkpt>
      <trkpt lat="49.22568" lon="-0.03991">
        <ele>42.7</ele>
        <time>2015-09-03T07:28:32.000Z</time>
      </trkpt>
      <trkpt lat="49.22561" lon="-0.0398">
        <ele>43.3</ele>
        <time>2015-09-03T07:28:41.000Z</time>
      </trkpt>
      <trkpt lat="49.22554" lon="-0.03969">
        <ele>43.7</ele>
        <time>2015-09-03T07:28:49.000Z</time>
      </trkpt>
      <trkpt lat="49.22548" lon="-0.03959">
        <ele>44.5</ele>
        <time>2015-09-03T07:29:00.000Z</time>
      </trkpt>
      <trkpt lat="49.22541" lon="-0.03948">
        <ele>44.9</ele>
        <time>2015-09-03T07:29:10.000Z</time>
      </trkpt>
      <trkpt lat="49.22535" lon="-0.03937">
        <ele>45.2</ele>
        <time>2015-09-03T07:29:19.000Z</time>
      </trkpt>
      <trkpt lat="49.22535" lon="-0.03922">
        <ele>45.8</ele>
        <time>2015-09-03T07:29:30.000Z</time>
      </trkpt>
      <trkpt lat="49.22541" lon="-0.03911">
        <ele>46.9</ele>
        <time>2015-09-03T07:29:45.000Z</time>
      </trkpt>
      <trkpt lat="49.22544" lon="-0.03898">
        <ele>48</ele>
        <time>2015-09-03T07:29:54.000Z</time>
      </trkpt>
      <trkpt lat="49.22551" lon="-0.03889">
        <ele>49.8</ele>
        <time>2015-09-03T07:30:04.000Z</time>
      </trkpt>
      <trkpt lat="49.22559" lon="-0.0388">
        <ele>51.1</ele>
        <time>2015-09-03T07:30:14.000Z</time>
      </trkpt>
      <trkpt lat="49.22565" lon="-0.03868">
        <ele>52.2</ele>
        <time>2015-09-03T07:30:23.000Z</time>
      </trkpt>
      <trkpt lat="49.2257" lon="-0.03855">
        <ele>53.3</ele>
        <time>2015-09-03T07:30:32.000Z</time>
      </trkpt>
      <trkpt lat="49.22572" lon="-0.0384">
        <ele>54.1</ele>
        <time>2015-09-03T07:30:41.000Z</time>
      </trkpt>
      <trkpt lat="49.22574" lon="-0.03827">
        <ele>54.6</ele>
        <time>2015-09-03T07:30:50.000Z</time>
      </trkpt>
      <trkpt lat="49.22578" lon="-0.03814">
        <ele>54.8</ele>
        <time>2015-09-03T07:30:58.000Z</time>
      </trkpt>
      <trkpt lat="49.2258" lon="-0.03801">
        <ele>55.2</ele>
        <time>2015-09-03T07:31:06.000Z</time>
      </trkpt>
      <trkpt lat="49.22585" lon="-0.03788">
        <ele>55.2</ele>
        <time>2015-09-03T07:31:15.000Z</time>
      </trkpt>
      <trkpt lat="49.22589" lon="-0.03774">
        <ele>55</ele>
        <time>2015-09-03T07:31:22.000Z</time>
      </trkpt>
      <trkpt lat="49.2259" lon="-0.03759">
        <ele>54.4</ele>
        <time>2015-09-03T07:31:30.000Z</time>
      </trkpt>
      <trkpt lat="49.22591" lon="-0.03745">
        <ele>54</ele>
        <time>2015-09-03T07:31:38.000Z</time>
      </trkpt>
      <trkpt lat="49.22595" lon="-0.03732">
        <ele>53.4</ele>
        <time>2015-09-03T07:31:46.000Z</time>
      </trkpt>
      <trkpt lat="49.22599" lon="-0.03718">
        <ele>52.7</ele>
        <time>2015-09-03T07:31:53.000Z</time>
      </trkpt>
      <trkpt lat="49.22603" lon="-0.03704">
        <ele>52.1</ele>
        <time>2015-09-03T07:32:00.000Z</time>
      </trkpt>
      <trkpt lat="49.22608" lon="-0.0369">
        <ele>51.2</ele>
        <time>2015-09-03T07:32:08.000Z</time>
      </trkpt>
      <trkpt lat="49.22612" lon="-0.03677">
        <ele>49.9</ele>
        <time>2015-09-03T07:32:17.000Z</time>
      </trkpt>
      <trkpt lat="49.22618" lon="-0.03665">
        <ele>48.8</ele>
        <time>2015-09-03T07:32:25.000Z</time>
      </trkpt>
      <trkpt lat="49.22623" lon="-0.03654">
        <ele>47.7</ele>
        <time>2015-09-03T07:32:32.000Z</time>
      </trkpt>
      <trkpt lat="49.2263" lon="-0.03645">
        <ele>46.7</ele>
        <time>2015-09-03T07:32:40.000Z</time>
      </trkpt>
      <trkpt lat="49.22634" lon="-0.03632">
        <ele>45.8</ele>
        <time>2015-09-03T07:32:47.000Z</time>
      </trkpt>
      <trkpt lat="49.22636" lon="-0.03617">
        <ele>44.8</ele>
        <time>2015-09-03T07:32:55.000Z</time>
      </trkpt>
      <trkpt lat="49.22638" lon="-0.03602">
        <ele>43.8</ele>
        <time>2015-09-03T07:33:03.000Z</time>
      </trkpt>
      <trkpt lat="49.22638" lon="-0.03587">
        <ele>42.7</ele>
        <time>2015-09-03T07:33:11.000Z</time>
      </trkpt>
      <trkpt lat="49.22638" lon="-0.03573">
        <ele>41.8</ele>
        <time>2015-09-03T07:33:19.000Z</time>
      </trkpt>
      <trkpt lat="49.2264" lon="-0.03558">
        <ele>40.9</ele>
        <time>2015-09-03T07:33:27.000Z</time>
      </trkpt>
      <trkpt lat="49.22643" lon="-0.03545">
        <ele>40.3</ele>
        <time>2015-09-03T07:33:34.000Z</time>
      </trkpt>
      <trkpt lat="49.22646" lon="-0.03532">
        <ele>39.8</ele>
        <time>2015-09-03T07:33:40.000Z</time>
      </trkpt>
      <trkpt lat="49.22643" lon="-0.03517">
        <ele>39.4</ele>
        <time>2015-09-03T07:33:47.000Z</time>
      </trkpt>
      <trkpt lat="49.22637" lon="-0.03507">
        <ele>38.8</ele>
        <time>2015-09-03T07:33:54.000Z</time>
      </trkpt>
      <trkpt lat="49.22633" lon="-0.03493">
        <ele>38.3</ele>
        <time>2015-09-03T07:34:03.000Z</time>
      </trkpt>
      <trkpt lat="49.2263" lon="-0.0348">
        <ele>37.2</ele>
        <time>2015-09-03T07:34:13.000Z</time>
      </trkpt>
      <trkpt lat="49.22624" lon="-0.03467">
        <ele>36</ele>
        <time>2015-09-03T07:34:23.000Z</time>
      </trkpt>
      <trkpt lat="49.22621" lon="-0.03454">
        <ele>35.1</ele>
        <time>2015-09-03T07:34:30.000Z</time>
      </trkpt>
      <trkpt lat="49.2262" lon="-0.0344">
        <ele>34.6</ele>
        <time>2015-09-03T07:34:37.000Z</time>
      </trkpt>
      <trkpt lat="49.22619" lon="-0.03426">
        <ele>33.9</ele>
        <time>2015-09-03T07:34:45.000Z</time>
      </trkpt>
      <trkpt lat="49.22621" lon="-0.03411">
        <ele>33.6</ele>
        <time>2015-09-03T07:34:51.000Z</time>
      </trkpt>
      <trkpt lat="49.22621" lon="-0.03396">
        <ele>32.9</ele>
        <time>2015-09-03T07:35:00.000Z</time>
      </trkpt>
      <trkpt lat="49.22621" lon="-0.03382">
        <ele>32.1</ele>
        <time>2015-09-03T07:35:08.000Z</time>
      </trkpt>
      <trkpt lat="49.22622" lon="-0.03367">
        <ele>31.5</ele>
        <time>2015-09-03T07:35:17.000Z</time>
      </trkpt>
      <trkpt lat="49.22624" lon="-0.03353">
        <ele>30.9</ele>
        <time>2015-09-03T07:35:26.000Z</time>
      </trkpt>
      <trkpt lat="49.22622" lon="-0.03338">
        <ele>30.1</ele>
        <time>2015-09-03T07:35:34.000Z</time>
      </trkpt>
      <trkpt lat="49.22621" lon="-0.03324">
        <ele>29.4</ele>
        <time>2015-09-03T07:35:42.000Z</time>
      </trkpt>
      <trkpt lat="49.22618" lon="-0.03311">
        <ele>28.8</ele>
        <time>2015-09-03T07:35:49.000Z</time>
      </trkpt>
      <trkpt lat="49.22616" lon="-0.03297">
        <ele>28.2</ele>
        <time>2015-09-03T07:35:58.000Z</time>
      </trkpt>
      <trkpt lat="49.22613" lon="-0.03283">
        <ele>27.5</ele>
        <time>2015-09-03T07:36:06.000Z</time>
      </trkpt>
      <trkpt lat="49.2261" lon="-0.0327">
        <ele>27.2</ele>
        <time>2015-09-03T07:36:13.000Z</time>
      </trkpt>
      <trkpt lat="49.2261" lon="-0.03255">
        <ele>26.8</ele>
        <time>2015-09-03T07:36:20.000Z</time>
      </trkpt>
      <trkpt lat="49.22609" lon="-0.0324">
        <ele>26.3</ele>
        <time>2015-09-03T07:36:28.000Z</time>
      </trkpt>
      <trkpt lat="49.22608" lon="-0.03226">
        <ele>26.7</ele>
        <time>2015-09-03T07:36:35.000Z</time>
      </trkpt>
      <trkpt lat="49.22605" lon="-0.03213">
        <ele>27.1</ele>
        <time>2015-09-03T07:36:43.000Z</time>
      </trkpt>
      <trkpt lat="49.22602" lon="-0.032">
        <ele>27.5</ele>
        <time>2015-09-03T07:36:52.000Z</time>
      </trkpt>
      <trkpt lat="49.22604" lon="-0.03186">
        <ele>27.9</ele>
        <time>2015-09-03T07:37:02.000Z</time>
      </trkpt>
      <trkpt lat="49.22605" lon="-0.0317">
        <ele>28</ele>
        <time>2015-09-03T07:37:11.000Z</time>
      </trkpt>
      <trkpt lat="49.22602" lon="-0.03157">
        <ele>28.1</ele>
        <time>2015-09-03T07:37:20.000Z</time>
      </trkpt>
      <trkpt lat="49.22598" lon="-0.03144">
        <ele>28.4</ele>
        <time>2015-09-03T07:37:28.000Z</time>
      </trkpt>
      <trkpt lat="49.22594" lon="-0.0313">
        <ele>28.5</ele>
        <time>2015-09-03T07:37:36.000Z</time>
      </trkpt>
      <trkpt lat="49.22591" lon="-0.03116">
        <ele>28.5</ele>
        <time>2015-09-03T07:37:44.000Z</time>
      </trkpt>
      <trkpt lat="49.22589" lon="-0.03102">
        <ele>28.6</ele>
        <time>2015-09-03T07:37:52.000Z</time>
      </trkpt>
      <trkpt lat="49.22586" lon="-0.03087">
        <ele>28.6</ele>
        <time>2015-09-03T07:38:01.000Z</time>
      </trkpt>
      <trkpt lat="49.22582" lon="-0.03075">
        <ele>28.8</ele>
        <time>2015-09-03T07:38:08.000Z</time>
      </trkpt>
      <trkpt lat="49.22577" lon="-0.03063">
        <ele>29</ele>
        <time>2015-09-03T07:38:16.000Z</time>
      </trkpt>
      <trkpt lat="49.22571" lon="-0.03052">
        <ele>28.9</ele>
        <time>2015-09-03T07:38:25.000Z</time>
      </trkpt>
      <trkpt lat="49.22563" lon="-0.03043">
        <ele>28.8</ele>
        <time>2015-09-03T07:38:33.000Z</time>
      </trkpt>
      <trkpt lat="49.22557" lon="-0.03031">
        <ele>29.1</ele>
        <time>2015-09-03T07:38:41.000Z</time>
      </trkpt>
      <trkpt lat="49.22548" lon="-0.03022">
        <ele>29.3</ele>
        <time>2015-09-03T07:38:49.000Z</time>
      </trkpt>
      <trkpt lat="49.22541" lon="-0.03012">
        <ele>29.7</ele>
        <time>2015-09-03T07:38:56.000Z</time>
      </trkpt>
      <trkpt lat="49.22535" lon="-0.03003">
        <ele>29.9</ele>
        <time>2015-09-03T07:39:04.000Z</time>
      </trkpt>
      <trkpt lat="49.22533" lon="-0.02989">
        <ele>30.1</ele>
        <time>2015-09-03T07:39:14.000Z</time>
      </trkpt>
      <trkpt lat="49.22539" lon="-0.02978">
        <ele>30.1</ele>
        <time>2015-09-03T07:39:24.000Z</time>
      </trkpt>
      <trkpt lat="49.22545" lon="-0.02967">
        <ele>29.9</ele>
        <time>2015-09-03T07:39:33.000Z</time>
      </trkpt>
      <trkpt lat="49.22551" lon="-0.02956">
        <ele>29.6</ele>
        <time>2015-09-03T07:39:41.000Z</time>
      </trkpt>
      <trkpt lat="49.22555" lon="-0.02943">
        <ele>29.2</ele>
        <time>2015-09-03T07:39:49.000Z</time>
      </trkpt>
      <trkpt lat="49.2256" lon="-0.0293">
        <ele>29</ele>
        <time>2015-09-03T07:39:56.000Z</time>
      </trkpt>
      <trkpt lat="49.22564" lon="-0.02915">
        <ele>28.8</ele>
        <time>2015-09-03T07:40:03.000Z</time>
      </trkpt>
      <trkpt lat="49.22567" lon="-0.02902">
        <ele>28.8</ele>
        <time>2015-09-03T07:40:11.000Z</time>
      </trkpt>
      <trkpt lat="49.22568" lon="-0.02887">
        <ele>29.2</ele>
        <time>2015-09-03T07:40:20.000Z</time>
      </trkpt>
      <trkpt lat="49.22569" lon="-0.02872">
        <ele>29.6</ele>
        <time>2015-09-03T07:40:29.000Z</time>
      </trkpt>
      <trkpt lat="49.2257" lon="-0.02856">
        <ele>30</ele>
        <time>2015-09-03T07:40:37.000Z</time>
      </trkpt>
      <trkpt lat="49.2257" lon="-0.02842">
        <ele>30.7</ele>
        <time>2015-09-03T07:40:46.000Z</time>
      </trkpt>
      <trkpt lat="49.22566" lon="-0.02828">
        <ele>31.6</ele>
        <time>2015-09-03T07:40:56.000Z</time>
      </trkpt>
      <trkpt lat="49.22562" lon="-0.02814">
        <ele>32.4</ele>
        <time>2015-09-03T07:41:05.000Z</time>
      </trkpt>
      <trkpt lat="49.22559" lon="-0.02801">
        <ele>33.1</ele>
        <time>2015-09-03T07:41:14.000Z</time>
      </trkpt>
      <trkpt lat="49.22553" lon="-0.02789">
        <ele>33.7</ele>
        <time>2015-09-03T07:41:24.000Z</time>
      </trkpt>
      <trkpt lat="49.22549" lon="-0.02777">
        <ele>34.9</ele>
        <time>2015-09-03T07:41:37.000Z</time>
      </trkpt>
      <trkpt lat="49.22552" lon="-0.02763">
        <ele>35.8</ele>
        <time>2015-09-03T07:41:48.000Z</time>
      </trkpt>
      <trkpt lat="49.22557" lon="-0.0275">
        <ele>37.1</ele>
        <time>2015-09-03T07:41:57.000Z</time>
      </trkpt>
      <trkpt lat="49.22559" lon="-0.02735">
        <ele>38.6</ele>
        <time>2015-09-03T07:42:07.000Z</time>
      </trkpt>
      <trkpt lat="49.22564" lon="-0.02722">
        <ele>40</ele>
        <time>2015-09-03T07:42:19.000Z</time>
      </trkpt>
      <trkpt lat="49.22567" lon="-0.02708">
        <ele>41.2</ele>
        <time>2015-09-03T07:42:30.000Z</time>
      </trkpt>
      <trkpt lat="49.22571" lon="-0.02695">
        <ele>42.3</ele>
        <time>2015-09-03T07:42:42.000Z</time>
      </trkpt>
      <trkpt lat="49.22575" lon="-0.02682">
        <ele>43.9</ele>
        <time>2015-09-03T07:42:54.000Z</time>
      </trkpt>
      <trkpt lat="49.2258" lon="-0.02669">
        <ele>45.1</ele>
        <time>2015-09-03T07:43:04.000Z</time>
      </trkpt>
      <trkpt lat="49.22585" lon="-0.02656">
        <ele>46</ele>
        <time>2015-09-03T07:43:14.000Z</time>
      </trkpt>
      <trkpt lat="49.22591" lon="-0.02644">
        <ele>46.8</ele>
        <time>2015-09-03T07:43:24.000Z</time>
      </trkpt>
      <trkpt lat="49.22595" lon="-0.02631">
        <ele>47.9</ele>
        <time>2015-09-03T07:43:33.000Z</time>
      </trkpt>
      <trkpt lat="49.22599" lon="-0.02618">
        <ele>49.1</ele>
        <time>2015-09-03T07:43:44.000Z</time>
      </trkpt>
      <trkpt lat="49.22604" lon="-0.02606">
        <ele>50</ele>
        <time>2015-09-03T07:43:56.000Z</time>
      </trkpt>
      <trkpt lat="49.22609" lon="-0.02594">
        <ele>51.8</ele>
        <time>2015-09-03T07:44:06.000Z</time>
      </trkpt>
      <trkpt lat="49.22615" lon="-0.02582">
        <ele>52.6</ele>
        <time>2015-09-03T07:44:14.000Z</time>
      </trkpt>
      <trkpt lat="49.2262" lon="-0.02571">
        <ele>53</ele>
        <time>2015-09-03T07:44:23.000Z</time>
      </trkpt>
      <trkpt lat="49.22624" lon="-0.02557">
        <ele>53.9</ele>
        <time>2015-09-03T07:44:33.000Z</time>
      </trkpt>
      <trkpt lat="49.22627" lon="-0.02543">
        <ele>54.9</ele>
        <time>2015-09-03T07:44:46.000Z</time>
      </trkpt>
      <trkpt lat="49.22631" lon="-0.0253">
        <ele>55.8</ele>
        <time>2015-09-03T07:44:55.000Z</time>
      </trkpt>
      <trkpt lat="49.22636" lon="-0.02519">
        <ele>56.5</ele>
        <time>2015-09-03T07:45:04.000Z</time>
      </trkpt>
      <trkpt lat="49.22642" lon="-0.02506">
        <ele>57.6</ele>
        <time>2015-09-03T07:45:14.000Z</time>
      </trkpt>
      <trkpt lat="49.22648" lon="-0.02494">
        <ele>58.8</ele>
        <time>2015-09-03T07:45:26.000Z</time>
      </trkpt>
      <trkpt lat="49.22653" lon="-0.02483">
        <ele>59.7</ele>
        <time>2015-09-03T07:45:35.000Z</time>
      </trkpt>
      <trkpt lat="49.22659" lon="-0.02471">
        <ele>61.2</ele>
        <time>2015-09-03T07:45:47.000Z</time>
      </trkpt>
      <trkpt lat="49.22662" lon="-0.02457">
        <ele>62.8</ele>
        <time>2015-09-03T07:45:58.000Z</time>
      </trkpt>
      <trkpt lat="49.22667" lon="-0.02444">
        <ele>63.9</ele>
        <time>2015-09-03T07:46:10.000Z</time>
      </trkpt>
      <trkpt lat="49.22672" lon="-0.02431">
        <ele>65.2</ele>
        <time>2015-09-03T07:46:22.000Z</time>
      </trkpt>
      <trkpt lat="49.22676" lon="-0.02419">
        <ele>66.6</ele>
        <time>2015-09-03T07:46:32.000Z</time>
      </trkpt>
      <trkpt lat="49.22681" lon="-0.02406">
        <ele>68.3</ele>
        <time>2015-09-03T07:46:43.000Z</time>
      </trkpt>
      <trkpt lat="49.22685" lon="-0.02393">
        <ele>69.5</ele>
        <time>2015-09-03T07:46:53.000Z</time>
      </trkpt>
      <trkpt lat="49.22689" lon="-0.0238">
        <ele>71.1</ele>
        <time>2015-09-03T07:47:03.000Z</time>
      </trkpt>
      <trkpt lat="49.22692" lon="-0.02366">
        <ele>72.8</ele>
        <time>2015-09-03T07:47:16.000Z</time>
      </trkpt>
      <trkpt lat="49.22696" lon="-0.02353">
        <ele>74.4</ele>
        <time>2015-09-03T07:47:27.000Z</time>
      </trkpt>
      <trkpt lat="49.227" lon="-0.02339">
        <ele>75.9</ele>
        <time>2015-09-03T07:47:39.000Z</time>
      </trkpt>
      <trkpt lat="49.22706" lon="-0.02328">
        <ele>77.5</ele>
        <time>2015-09-03T07:47:52.000Z</time>
      </trkpt>
      <trkpt lat="49.2271" lon="-0.02315">
        <ele>79.9</ele>
        <time>2015-09-03T07:48:06.000Z</time>
      </trkpt>
      <trkpt lat="49.22716" lon="-0.02304">
        <ele>81.7</ele>
        <time>2015-09-03T07:48:19.000Z</time>
      </trkpt>
      <trkpt lat="49.22722" lon="-0.02291">
        <ele>83.4</ele>
        <time>2015-09-03T07:48:34.000Z</time>
      </trkpt>
      <trkpt lat="49.22727" lon="-0.02279">
        <ele>84.7</ele>
        <time>2015-09-03T07:48:44.000Z</time>
      </trkpt>
      <trkpt lat="49.22731" lon="-0.02266">
        <ele>86.1</ele>
        <time>2015-09-03T07:48:56.000Z</time>
      </trkpt>
      <trkpt lat="49.22734" lon="-0.02253">
        <ele>87.9</ele>
        <time>2015-09-03T07:49:09.000Z</time>
      </trkpt>
      <trkpt lat="49.22739" lon="-0.02241">
        <ele>88.9</ele>
        <time>2015-09-03T07:49:20.000Z</time>
      </trkpt>
      <trkpt lat="49.22745" lon="-0.0223">
        <ele>90.3</ele>
        <time>2015-09-03T07:49:33.000Z</time>
      </trkpt>
      <trkpt lat="49.22752" lon="-0.0222">
        <ele>90.8</ele>
        <time>2015-09-03T07:49:41.000Z</time>
      </trkpt>
      <trkpt lat="49.22758" lon="-0.02209">
        <ele>91.8</ele>
        <time>2015-09-03T07:49:53.000Z</time>
      </trkpt>
      <trkpt lat="49.22764" lon="-0.02199">
        <ele>92.7</ele>
        <time>2015-09-03T07:50:03.000Z</time>
      </trkpt>
      <trkpt lat="49.22771" lon="-0.02188">
        <ele>93.4</ele>
        <time>2015-09-03T07:50:13.000Z</time>
      </trkpt>
      <trkpt lat="49.22778" lon="-0.02179">
        <ele>94.4</ele>
        <time>2015-09-03T07:50:25.000Z</time>
      </trkpt>
      <trkpt lat="49.22786" lon="-0.02171">
        <ele>95</ele>
        <time>2015-09-03T07:50:39.000Z</time>
      </trkpt>
      <trkpt lat="49.22792" lon="-0.0216">
        <ele>95.5</ele>
        <time>2015-09-03T07:50:52.000Z</time>
      </trkpt>
      <trkpt lat="49.22801" lon="-0.02159">
        <ele>96.7</ele>
        <time>2015-09-03T07:51:23.000Z</time>
      </trkpt>
      <trkpt lat="49.22804" lon="-0.02173">
        <ele>96.7</ele>
        <time>2015-09-03T07:51:45.000Z</time>
      </trkpt>
      <trkpt lat="49.22808" lon="-0.02185">
        <ele>95.8</ele>
        <time>2015-09-03T07:52:18.000Z</time>
      </trkpt>
      <trkpt lat="49.2281" lon="-0.02199">
        <ele>95.4</ele>
        <time>2015-09-03T07:52:27.000Z</time>
      </trkpt>
      <trkpt lat="49.22813" lon="-0.02212">
        <ele>94.9</ele>
        <time>2015-09-03T07:52:35.000Z</time>
      </trkpt>
      <trkpt lat="49.22814" lon="-0.02226">
        <ele>94.4</ele>
        <time>2015-09-03T07:52:42.000Z</time>
      </trkpt>
      <trkpt lat="49.22818" lon="-0.02241">
        <ele>93.5</ele>
        <time>2015-09-03T07:52:51.000Z</time>
      </trkpt>
      <trkpt lat="49.22824" lon="-0.02253">
        <ele>92.6</ele>
        <time>2015-09-03T07:52:58.000Z</time>
      </trkpt>
      <trkpt lat="49.2283" lon="-0.02266">
        <ele>91.9</ele>
        <time>2015-09-03T07:53:06.000Z</time>
      </trkpt>
      <trkpt lat="49.22834" lon="-0.0228">
        <ele>91.2</ele>
        <time>2015-09-03T07:53:14.000Z</time>
      </trkpt>
      <trkpt lat="49.22837" lon="-0.02294">
        <ele>90.5</ele>
        <time>2015-09-03T07:53:22.000Z</time>
      </trkpt>
      <trkpt lat="49.2284" lon="-0.02309">
        <ele>89.8</ele>
        <time>2015-09-03T07:53:31.000Z</time>
      </trkpt>
      <trkpt lat="49.22842" lon="-0.02322">
        <ele>88.8</ele>
        <time>2015-09-03T07:53:40.000Z</time>
      </trkpt>
      <trkpt lat="49.22844" lon="-0.02337">
        <ele>87.6</ele>
        <time>2015-09-03T07:53:49.000Z</time>
      </trkpt>
      <trkpt lat="49.22844" lon="-0.02352">
        <ele>86.3</ele>
        <time>2015-09-03T07:53:58.000Z</time>
      </trkpt>
      <trkpt lat="49.22843" lon="-0.02367">
        <ele>85.1</ele>
        <time>2015-09-03T07:54:07.000Z</time>
      </trkpt>
      <trkpt lat="49.22842" lon="-0.02382">
        <ele>84.4</ele>
        <time>2015-09-03T07:54:14.000Z</time>
      </trkpt>
      <trkpt lat="49.22841" lon="-0.02397">
        <ele>82.7</ele>
        <time>2015-09-03T07:54:22.000Z</time>
      </trkpt>
      <trkpt lat="49.22841" lon="-0.02412">
        <ele>81.5</ele>
        <time>2015-09-03T07:54:30.000Z</time>
      </trkpt>
      <trkpt lat="49.2284" lon="-0.02426">
        <ele>80.5</ele>
        <time>2015-09-03T07:54:38.000Z</time>
      </trkpt>
      <trkpt lat="49.22842" lon="-0.02441">
        <ele>79.6</ele>
        <time>2015-09-03T07:54:46.000Z</time>
      </trkpt>
      <trkpt lat="49.22844" lon="-0.02457">
        <ele>78.4</ele>
        <time>2015-09-03T07:54:55.000Z</time>
      </trkpt>
      <trkpt lat="49.22845" lon="-0.02471">
        <ele>77.7</ele>
        <time>2015-09-03T07:55:01.000Z</time>
      </trkpt>
      <trkpt lat="49.22847" lon="-0.02485">
        <ele>76.6</ele>
        <time>2015-09-03T07:55:09.000Z</time>
      </trkpt>
      <trkpt lat="49.22851" lon="-0.02498">
        <ele>75.6</ele>
        <time>2015-09-03T07:55:17.000Z</time>
      </trkpt>
      <trkpt lat="49.22854" lon="-0.02512">
        <ele>75</ele>
        <time>2015-09-03T07:55:24.000Z</time>
      </trkpt>
      <trkpt lat="49.22859" lon="-0.02525">
        <ele>73.8</ele>
        <time>2015-09-03T07:55:31.000Z</time>
      </trkpt>
      <trkpt lat="49.22863" lon="-0.02539">
        <ele>73.1</ele>
        <time>2015-09-03T07:55:37.000Z</time>
      </trkpt>
      <trkpt lat="49.22868" lon="-0.02553">
        <ele>72.5</ele>
        <time>2015-09-03T07:55:44.000Z</time>
      </trkpt>
      <trkpt lat="49.22871" lon="-0.02568">
        <ele>72</ele>
        <time>2015-09-03T07:55:51.000Z</time>
      </trkpt>
      <trkpt lat="49.22875" lon="-0.02582">
        <ele>71.4</ele>
        <time>2015-09-03T07:55:58.000Z</time>
      </trkpt>
      <trkpt lat="49.22879" lon="-0.02594">
        <ele>70.8</ele>
        <time>2015-09-03T07:56:05.000Z</time>
      </trkpt>
      <trkpt lat="49.22884" lon="-0.02606">
        <ele>70.4</ele>
        <time>2015-09-03T07:56:11.000Z</time>
      </trkpt>
      <trkpt lat="49.22889" lon="-0.02619">
        <ele>69.8</ele>
        <time>2015-09-03T07:56:18.000Z</time>
      </trkpt>
      <trkpt lat="49.22894" lon="-0.02633">
        <ele>69.2</ele>
        <time>2015-09-03T07:56:25.000Z</time>
      </trkpt>
      <trkpt lat="49.22898" lon="-0.02647">
        <ele>68.5</ele>
        <time>2015-09-03T07:56:32.000Z</time>
      </trkpt>
      <trkpt lat="49.22902" lon="-0.02659">
        <ele>67.9</ele>
        <time>2015-09-03T07:56:39.000Z</time>
      </trkpt>
      <trkpt lat="49.22909" lon="-0.0267">
        <ele>67.2</ele>
        <time>2015-09-03T07:56:46.000Z</time>
      </trkpt>
      <trkpt lat="49.22915" lon="-0.02682">
        <ele>66.5</ele>
        <time>2015-09-03T07:56:56.000Z</time>
      </trkpt>
      <trkpt lat="49.22922" lon="-0.02691">
        <ele>66.1</ele>
        <time>2015-09-03T07:57:05.000Z</time>
      </trkpt>
      <trkpt lat="49.22931" lon="-0.02697">
        <ele>65.7</ele>
        <time>2015-09-03T07:57:14.000Z</time>
      </trkpt>
      <trkpt lat="49.2294" lon="-0.02704">
        <ele>64.8</ele>
        <time>2015-09-03T07:57:23.000Z</time>
      </trkpt>
      <trkpt lat="49.22948" lon="-0.0271">
        <ele>64.1</ele>
        <time>2015-09-03T07:57:31.000Z</time>
      </trkpt>
      <trkpt lat="49.22955" lon="-0.0272">
        <ele>63.2</ele>
        <time>2015-09-03T07:57:41.000Z</time>
      </trkpt>
      <trkpt lat="49.22961" lon="-0.02732">
        <ele>62.1</ele>
        <time>2015-09-03T07:57:49.000Z</time>
      </trkpt>
      <trkpt lat="49.22966" lon="-0.02745">
        <ele>61.2</ele>
        <time>2015-09-03T07:57:57.000Z</time>
      </trkpt>
      <trkpt lat="49.2297" lon="-0.02759">
        <ele>60.1</ele>
        <time>2015-09-03T07:58:04.000Z</time>
      </trkpt>
      <trkpt lat="49.22971" lon="-0.02774">
        <ele>58.8</ele>
        <time>2015-09-03T07:58:12.000Z</time>
      </trkpt>
      <trkpt lat="49.22971" lon="-0.02789">
        <ele>57.8</ele>
        <time>2015-09-03T07:58:20.000Z</time>
      </trkpt>
      <trkpt lat="49.22968" lon="-0.02802">
        <ele>57.1</ele>
        <time>2015-09-03T07:58:28.000Z</time>
      </trkpt>
      <trkpt lat="49.22964" lon="-0.02815">
        <ele>56.5</ele>
        <time>2015-09-03T07:58:36.000Z</time>
      </trkpt>
      <trkpt lat="49.22963" lon="-0.0283">
        <ele>55.3</ele>
        <time>2015-09-03T07:58:45.000Z</time>
      </trkpt>
      <trkpt lat="49.22959" lon="-0.02843">
        <ele>54.5</ele>
        <time>2015-09-03T07:58:54.000Z</time>
      </trkpt>
      <trkpt lat="49.22953" lon="-0.02855">
        <ele>54</ele>
        <time>2015-09-03T07:59:02.000Z</time>
      </trkpt>
      <trkpt lat="49.2295" lon="-0.02868">
        <ele>52.6</ele>
        <time>2015-09-03T07:59:11.000Z</time>
      </trkpt>
      <trkpt lat="49.22948" lon="-0.02883">
        <ele>51.4</ele>
        <time>2015-09-03T07:59:19.000Z</time>
      </trkpt>
      <trkpt lat="49.22945" lon="-0.02896">
        <ele>50.7</ele>
        <time>2015-09-03T07:59:26.000Z</time>
      </trkpt>
      <trkpt lat="49.22947" lon="-0.0291">
        <ele>47.5</ele>
        <time>2015-09-03T08:00:31.000Z</time>
      </trkpt>
      <trkpt lat="49.22956" lon="-0.02906">
        <ele>47.5</ele>
        <time>2015-09-03T08:00:42.000Z</time>
      </trkpt>
      <trkpt lat="49.22964" lon="-0.029">
        <ele>47.9</ele>
        <time>2015-09-03T08:00:56.000Z</time>
      </trkpt>
      <trkpt lat="49.22969" lon="-0.02888">
        <ele>48.2</ele>
        <time>2015-09-03T08:01:09.000Z</time>
      </trkpt>
      <trkpt lat="49.22978" lon="-0.02884">
        <ele>48.9</ele>
        <time>2015-09-03T08:01:24.000Z</time>
      </trkpt>
      <trkpt lat="49.22987" lon="-0.0288">
        <ele>50.1</ele>
        <time>2015-09-03T08:01:34.000Z</time>
      </trkpt>
      <trkpt lat="49.22996" lon="-0.02875">
        <ele>50.7</ele>
        <time>2015-09-03T08:01:42.000Z</time>
      </trkpt>
      <trkpt lat="49.23003" lon="-0.02867">
        <ele>51.8</ele>
        <time>2015-09-03T08:01:52.000Z</time>
      </trkpt>
      <trkpt lat="49.23011" lon="-0.02858">
        <ele>53.3</ele>
        <time>2015-09-03T08:02:04.000Z</time>
      </trkpt>
      <trkpt lat="49.23018" lon="-0.02848">
        <ele>54.3</ele>
        <time>2015-09-03T08:02:17.000Z</time>
      </trkpt>
      <trkpt lat="49.23026" lon="-0.02842">
        <ele>54.7</ele>
        <time>2015-09-03T08:02:26.000Z</time>
      </trkpt>
      <trkpt lat="49.23033" lon="-0.02834">
        <ele>55.3</ele>
        <time>2015-09-03T08:02:40.000Z</time>
      </trkpt>
      <trkpt lat="49.23041" lon="-0.02824">
        <ele>55.6</ele>
        <time>2015-09-03T08:02:51.000Z</time>
      </trkpt>
      <trkpt lat="49.23048" lon="-0.02816">
        <ele>56.7</ele>
        <time>2015-09-03T08:03:07.000Z</time>
      </trkpt>
      <trkpt lat="49.23057" lon="-0.02811">
        <ele>57.2</ele>
        <time>2015-09-03T08:03:21.000Z</time>
      </trkpt>
      <trkpt lat="49.23066" lon="-0.02806">
        <ele>58.5</ele>
        <time>2015-09-03T08:03:36.000Z</time>
      </trkpt>
      <trkpt lat="49.23073" lon="-0.02797">
        <ele>59.4</ele>
        <time>2015-09-03T08:03:47.000Z</time>
      </trkpt>
      <trkpt lat="49.23081" lon="-0.02789">
        <ele>60.2</ele>
        <time>2015-09-03T08:03:58.000Z</time>
      </trkpt>
      <trkpt lat="49.2309" lon="-0.02784">
        <ele>60.8</ele>
        <time>2015-09-03T08:04:09.000Z</time>
      </trkpt>
      <trkpt lat="49.23098" lon="-0.02781">
        <ele>61.2</ele>
        <time>2015-09-03T08:04:20.000Z</time>
      </trkpt>
      <trkpt lat="49.23108" lon="-0.0278">
        <ele>61.6</ele>
        <time>2015-09-03T08:04:32.000Z</time>
      </trkpt>
      <trkpt lat="49.23117" lon="-0.02783">
        <ele>61.7</ele>
        <time>2015-09-03T08:04:40.000Z</time>
      </trkpt>
      <trkpt lat="49.23127" lon="-0.02785">
        <ele>61.6</ele>
        <time>2015-09-03T08:04:50.000Z</time>
      </trkpt>
      <trkpt lat="49.23136" lon="-0.02785">
        <ele>61.5</ele>
        <time>2015-09-03T08:05:01.000Z</time>
      </trkpt>
      <trkpt lat="49.23146" lon="-0.02785">
        <ele>61.3</ele>
        <time>2015-09-03T08:05:10.000Z</time>
      </trkpt>
      <trkpt lat="49.23155" lon="-0.02787">
        <ele>61.2</ele>
        <time>2015-09-03T08:05:19.000Z</time>
      </trkpt>
      <trkpt lat="49.23165" lon="-0.02787">
        <ele>61.5</ele>
        <time>2015-09-03T08:05:28.000Z</time>
      </trkpt>
      <trkpt lat="49.23174" lon="-0.02791">
        <ele>61.8</ele>
        <time>2015-09-03T08:05:37.000Z</time>
      </trkpt>
      <trkpt lat="49.23184" lon="-0.02793">
        <ele>61.8</ele>
        <time>2015-09-03T08:05:45.000Z</time>
      </trkpt>
      <trkpt lat="49.23193" lon="-0.02789">
        <ele>62.1</ele>
        <time>2015-09-03T08:05:57.000Z</time>
      </trkpt>
      <trkpt lat="49.23203" lon="-0.02786">
        <ele>61.9</ele>
        <time>2015-09-03T08:06:09.000Z</time>
      </trkpt>
      <trkpt lat="49.23212" lon="-0.02785">
        <ele>62</ele>
        <time>2015-09-03T08:06:20.000Z</time>
      </trkpt>
      <trkpt lat="49.23222" lon="-0.02784">
        <ele>62.2</ele>
        <time>2015-09-03T08:06:28.000Z</time>
      </trkpt>
      <trkpt lat="49.23231" lon="-0.02784">
        <ele>62.3</ele>
        <time>2015-09-03T08:06:37.000Z</time>
      </trkpt>
      <trkpt lat="49.2324" lon="-0.02784">
        <ele>62.1</ele>
        <time>2015-09-03T08:06:46.000Z</time>
      </trkpt>
      <trkpt lat="49.2325" lon="-0.02781">
        <ele>61.7</ele>
        <time>2015-09-03T08:06:55.000Z</time>
      </trkpt>
      <trkpt lat="49.23259" lon="-0.02777">
        <ele>62.3</ele>
        <time>2015-09-03T08:07:03.000Z</time>
      </trkpt>
      <trkpt lat="49.23268" lon="-0.02773">
        <ele>62.9</ele>
        <time>2015-09-03T08:07:14.000Z</time>
      </trkpt>
      <trkpt lat="49.23276" lon="-0.02765">
        <ele>63.4</ele>
        <time>2015-09-03T08:07:27.000Z</time>
      </trkpt>
      <trkpt lat="49.23286" lon="-0.02761">
        <ele>63.9</ele>
        <time>2015-09-03T08:07:36.000Z</time>
      </trkpt>
      <trkpt lat="49.23296" lon="-0.02756">
        <ele>64.3</ele>
        <time>2015-09-03T08:07:47.000Z</time>
      </trkpt>
      <trkpt lat="49.23305" lon="-0.02752">
        <ele>64.4</ele>
        <time>2015-09-03T08:07:56.000Z</time>
      </trkpt>
      <trkpt lat="49.23314" lon="-0.0275">
        <ele>64.5</ele>
        <time>2015-09-03T08:08:05.000Z</time>
      </trkpt>
      <trkpt lat="49.23323" lon="-0.02747">
        <ele>64.6</ele>
        <time>2015-09-03T08:08:13.000Z</time>
      </trkpt>
      <trkpt lat="49.23333" lon="-0.02748">
        <ele>64.8</ele>
        <time>2015-09-03T08:08:22.000Z</time>
      </trkpt>
      <trkpt lat="49.23343" lon="-0.02747">
        <ele>65.1</ele>
        <time>2015-09-03T08:08:31.000Z</time>
      </trkpt>
      <trkpt lat="49.2335" lon="-0.02737">
        <ele>65.5</ele>
        <time>2015-09-03T08:08:41.000Z</time>
      </trkpt>
      <trkpt lat="49.23348" lon="-0.02722">
        <ele>65.7</ele>
        <time>2015-09-03T08:08:50.000Z</time>
      </trkpt>
      <trkpt lat="49.23346" lon="-0.02708">
        <ele>66.7</ele>
        <time>2015-09-03T08:09:00.000Z</time>
      </trkpt>
      <trkpt lat="49.23348" lon="-0.02693">
        <ele>68</ele>
        <time>2015-09-03T08:09:13.000Z</time>
      </trkpt>
      <trkpt lat="49.23346" lon="-0.02678">
        <ele>69.3</ele>
        <time>2015-09-03T08:09:24.000Z</time>
      </trkpt>
      <trkpt lat="49.23347" lon="-0.02663">
        <ele>70.7</ele>
        <time>2015-09-03T08:09:35.000Z</time>
      </trkpt>
      <trkpt lat="49.23344" lon="-0.0265">
        <ele>72.6</ele>
        <time>2015-09-03T08:09:47.000Z</time>
      </trkpt>
      <trkpt lat="49.2334" lon="-0.02636">
        <ele>75</ele>
        <time>2015-09-03T08:10:03.000Z</time>
      </trkpt>
      <trkpt lat="49.23332" lon="-0.02627">
        <ele>77.2</ele>
        <time>2015-09-03T08:10:16.000Z</time>
      </trkpt>
      <trkpt lat="49.23325" lon="-0.02617">
        <ele>78.6</ele>
        <time>2015-09-03T08:10:25.000Z</time>
      </trkpt>
      <trkpt lat="49.23319" lon="-0.02606">
        <ele>81</ele>
        <time>2015-09-03T08:10:39.000Z</time>
      </trkpt>
      <trkpt lat="49.23311" lon="-0.02598">
        <ele>82.2</ele>
        <time>2015-09-03T08:10:47.000Z</time>
      </trkpt>
      <trkpt lat="49.23305" lon="-0.02588">
        <ele>84</ele>
        <time>2015-09-03T08:11:00.000Z</time>
      </trkpt>
      <trkpt lat="49.23299" lon="-0.02577">
        <ele>85.6</ele>
        <time>2015-09-03T08:11:11.000Z</time>
      </trkpt>
      <trkpt lat="49.23293" lon="-0.02564">
        <ele>87</ele>
        <time>2015-09-03T08:11:19.000Z</time>
      </trkpt>
      <trkpt lat="49.23285" lon="-0.02555">
        <ele>88.6</ele>
        <time>2015-09-03T08:11:30.000Z</time>
      </trkpt>
      <trkpt lat="49.2328" lon="-0.02543">
        <ele>89.9</ele>
        <time>2015-09-03T08:11:39.000Z</time>
      </trkpt>
      <trkpt lat="49.23271" lon="-0.02539">
        <ele>92.3</ele>
        <time>2015-09-03T08:11:55.000Z</time>
      </trkpt>
      <trkpt lat="49.23264" lon="-0.02529">
        <ele>93</ele>
        <time>2015-09-03T08:12:11.000Z</time>
      </trkpt>
      <trkpt lat="49.23257" lon="-0.02518">
        <ele>94</ele>
        <time>2015-09-03T08:12:21.000Z</time>
      </trkpt>
      <trkpt lat="49.23251" lon="-0.02506">
        <ele>95.3</ele>
        <time>2015-09-03T08:12:31.000Z</time>
      </trkpt>
      <trkpt lat="49.23245" lon="-0.02495">
        <ele>96.2</ele>
        <time>2015-09-03T08:12:42.000Z</time>
      </trkpt>
      <trkpt lat="49.2324" lon="-0.02484">
        <ele>97.6</ele>
        <time>2015-09-03T08:12:54.000Z</time>
      </trkpt>
      <trkpt lat="49.23235" lon="-0.02472">
        <ele>99.1</ele>
        <time>2015-09-03T08:13:08.000Z</time>
      </trkpt>
      <trkpt lat="49.23232" lon="-0.02457">
        <ele>100.3</ele>
        <time>2015-09-03T08:13:19.000Z</time>
      </trkpt>
      <trkpt lat="49.23229" lon="-0.02442">
        <ele>100.9</ele>
        <time>2015-09-03T08:13:28.000Z</time>
      </trkpt>
      <trkpt lat="49.23224" lon="-0.02431">
        <ele>101.3</ele>
        <time>2015-09-03T08:13:35.000Z</time>
      </trkpt>
      <trkpt lat="49.23218" lon="-0.02418">
        <ele>101.7</ele>
        <time>2015-09-03T08:13:44.000Z</time>
      </trkpt>
      <trkpt lat="49.23213" lon="-0.02405">
        <ele>102.3</ele>
        <time>2015-09-03T08:13:54.000Z</time>
      </trkpt>
      <trkpt lat="49.23208" lon="-0.02391">
        <ele>103.2</ele>
        <time>2015-09-03T08:14:04.000Z</time>
      </trkpt>
      <trkpt lat="49.23205" lon="-0.02376">
        <ele>103.6</ele>
        <time>2015-09-03T08:14:14.000Z</time>
      </trkpt>
      <trkpt lat="49.23205" lon="-0.02362">
        <ele>104.7</ele>
        <time>2015-09-03T08:14:26.000Z</time>
      </trkpt>
      <trkpt lat="49.23198" lon="-0.02352">
        <ele>105.2</ele>
        <time>2015-09-03T08:14:36.000Z</time>
      </trkpt>
      <trkpt lat="49.2319" lon="-0.02342">
        <ele>105.6</ele>
        <time>2015-09-03T08:14:49.000Z</time>
      </trkpt>
      <trkpt lat="49.23184" lon="-0.02331">
        <ele>106</ele>
        <time>2015-09-03T08:14:58.000Z</time>
      </trkpt>
      <trkpt lat="49.23179" lon="-0.02319">
        <ele>106.3</ele>
        <time>2015-09-03T08:15:08.000Z</time>
      </trkpt>
      <trkpt lat="49.23175" lon="-0.02304">
        <ele>106.1</ele>
        <time>2015-09-03T08:15:17.000Z</time>
      </trkpt>
      <trkpt lat="49.2317" lon="-0.02293">
        <ele>106.7</ele>
        <time>2015-09-03T08:15:24.000Z</time>
      </trkpt>
      <trkpt lat="49.23165" lon="-0.02281">
        <ele>107.1</ele>
        <time>2015-09-03T08:15:33.000Z</time>
      </trkpt>
      <trkpt lat="49.23159" lon="-0.02269">
        <ele>107.3</ele>
        <time>2015-09-03T08:15:44.000Z</time>
      </trkpt>
      <trkpt lat="49.23153" lon="-0.02257">
        <ele>107.8</ele>
        <time>2015-09-03T08:15:55.000Z</time>
      </trkpt>
      <trkpt lat="49.23146" lon="-0.02248">
        <ele>107.8</ele>
        <time>2015-09-03T08:16:01.000Z</time>
      </trkpt>
      <trkpt lat="49.23139" lon="-0.02239">
        <ele>107.5</ele>
        <time>2015-09-03T08:16:10.000Z</time>
      </trkpt>
      <trkpt lat="49.23137" lon="-0.02224">
        <ele>107.7</ele>
        <time>2015-09-03T08:16:19.000Z</time>
      </trkpt>
      <trkpt lat="49.23131" lon="-0.02213">
        <ele>107.8</ele>
        <time>2015-09-03T08:16:26.000Z</time>
      </trkpt>
      <trkpt lat="49.23125" lon="-0.022">
        <ele>108.2</ele>
        <time>2015-09-03T08:16:33.000Z</time>
      </trkpt>
      <trkpt lat="49.23119" lon="-0.0219">
        <ele>108.5</ele>
        <time>2015-09-03T08:16:41.000Z</time>
      </trkpt>
      <trkpt lat="49.23117" lon="-0.02175">
        <ele>108.4</ele>
        <time>2015-09-03T08:16:51.000Z</time>
      </trkpt>
      <trkpt lat="49.23121" lon="-0.02162">
        <ele>107.7</ele>
        <time>2015-09-03T08:17:05.000Z</time>
      </trkpt>
      <trkpt lat="49.23114" lon="-0.02151">
        <ele>106.9</ele>
        <time>2015-09-03T08:17:29.000Z</time>
      </trkpt>
      <trkpt lat="49.23109" lon="-0.0214">
        <ele>107.4</ele>
        <time>2015-09-03T08:17:41.000Z</time>
      </trkpt>
      <trkpt lat="49.23104" lon="-0.02128">
        <ele>108</ele>
        <time>2015-09-03T08:17:50.000Z</time>
      </trkpt>
      <trkpt lat="49.23101" lon="-0.02114">
        <ele>108.6</ele>
        <time>2015-09-03T08:17:59.000Z</time>
      </trkpt>
      <trkpt lat="49.23092" lon="-0.02104">
        <ele>109.3</ele>
        <time>2015-09-03T08:18:07.000Z</time>
      </trkpt>
      <trkpt lat="49.23086" lon="-0.02094">
        <ele>109.8</ele>
        <time>2015-09-03T08:18:16.000Z</time>
      </trkpt>
      <trkpt lat="49.23081" lon="-0.02083">
        <ele>110.7</ele>
        <time>2015-09-03T08:18:25.000Z</time>
      </trkpt>
      <trkpt lat="49.23075" lon="-0.02071">
        <ele>111.7</ele>
        <time>2015-09-03T08:18:34.000Z</time>
      </trkpt>
      <trkpt lat="49.23069" lon="-0.0206">
        <ele>112.1</ele>
        <time>2015-09-03T08:18:41.000Z</time>
      </trkpt>
      <trkpt lat="49.23062" lon="-0.02047">
        <ele>112.2</ele>
        <time>2015-09-03T08:18:50.000Z</time>
      </trkpt>
      <trkpt lat="49.23056" lon="-0.02036">
        <ele>112.3</ele>
        <time>2015-09-03T08:18:57.000Z</time>
      </trkpt>
      <trkpt lat="49.2305" lon="-0.02024">
        <ele>112.8</ele>
        <time>2015-09-03T08:19:05.000Z</time>
      </trkpt>
      <trkpt lat="49.23045" lon="-0.02012">
        <ele>113</ele>
        <time>2015-09-03T08:19:12.000Z</time>
      </trkpt>
      <trkpt lat="49.2304" lon="-0.02">
        <ele>113.1</ele>
        <time>2015-09-03T08:19:19.000Z</time>
      </trkpt>
      <trkpt lat="49.23034" lon="-0.01989">
        <ele>113.2</ele>
        <time>2015-09-03T08:19:28.000Z</time>
      </trkpt>
      <trkpt lat="49.23029" lon="-0.01975">
        <ele>113.4</ele>
        <time>2015-09-03T08:19:37.000Z</time>
      </trkpt>
      <trkpt lat="49.23026" lon="-0.01962">
        <ele>113.9</ele>
        <time>2015-09-03T08:19:46.000Z</time>
      </trkpt>
      <trkpt lat="49.23021" lon="-0.01949">
        <ele>114.2</ele>
        <time>2015-09-03T08:19:56.000Z</time>
      </trkpt>
      <trkpt lat="49.23018" lon="-0.01934">
        <ele>114.4</ele>
        <time>2015-09-03T08:20:06.000Z</time>
      </trkpt>
      <trkpt lat="49.23012" lon="-0.01923">
        <ele>114.4</ele>
        <time>2015-09-03T08:20:14.000Z</time>
      </trkpt>
      <trkpt lat="49.23007" lon="-0.01909">
        <ele>114.8</ele>
        <time>2015-09-03T08:20:22.000Z</time>
      </trkpt>
      <trkpt lat="49.23004" lon="-0.01895">
        <ele>114.9</ele>
        <time>2015-09-03T08:20:30.000Z</time>
      </trkpt>
      <trkpt lat="49.22998" lon="-0.01883">
        <ele>115.1</ele>
        <time>2015-09-03T08:20:36.000Z</time>
      </trkpt>
      <trkpt lat="49.22993" lon="-0.01871">
        <ele>115.3</ele>
        <time>2015-09-03T08:20:44.000Z</time>
      </trkpt>
      <trkpt lat="49.22988" lon="-0.01857">
        <ele>115.4</ele>
        <time>2015-09-03T08:20:52.000Z</time>
      </trkpt>
      <trkpt lat="49.2298" lon="-0.01845">
        <ele>115.5</ele>
        <time>2015-09-03T08:20:59.000Z</time>
      </trkpt>
      <trkpt lat="49.22981" lon="-0.0183">
        <ele>115.5</ele>
        <time>2015-09-03T08:21:08.000Z</time>
      </trkpt>
      <trkpt lat="49.22989" lon="-0.01821">
        <ele>115.6</ele>
        <time>2015-09-03T08:21:16.000Z</time>
      </trkpt>
      <trkpt lat="49.22996" lon="-0.01813">
        <ele>115.6</ele>
        <time>2015-09-03T08:21:23.000Z</time>
      </trkpt>
      <trkpt lat="49.23005" lon="-0.01808">
        <ele>115.6</ele>
        <time>2015-09-03T08:21:29.000Z</time>
      </trkpt>
      <trkpt lat="49.23013" lon="-0.01801">
        <ele>115.6</ele>
        <time>2015-09-03T08:21:35.000Z</time>
      </trkpt>
      <trkpt lat="49.23021" lon="-0.01793">
        <ele>115.8</ele>
        <time>2015-09-03T08:21:42.000Z</time>
      </trkpt>
      <trkpt lat="49.23029" lon="-0.01783">
        <ele>116.1</ele>
        <time>2015-09-03T08:21:53.000Z</time>
      </trkpt>
      <trkpt lat="49.23035" lon="-0.01773">
        <ele>116.1</ele>
        <time>2015-09-03T08:22:02.000Z</time>
      </trkpt>
      <trkpt lat="49.23044" lon="-0.01766">
        <ele>116.2</ele>
        <time>2015-09-03T08:22:09.000Z</time>
      </trkpt>
      <trkpt lat="49.23051" lon="-0.01758">
        <ele>116</ele>
        <time>2015-09-03T08:22:18.000Z</time>
      </trkpt>
      <trkpt lat="49.23059" lon="-0.01748">
        <ele>115.9</ele>
        <time>2015-09-03T08:22:27.000Z</time>
      </trkpt>
      <trkpt lat="49.23066" lon="-0.0174">
        <ele>115.8</ele>
        <time>2015-09-03T08:22:34.000Z</time>
      </trkpt>
      <trkpt lat="49.23074" lon="-0.0173">
        <ele>115.8</ele>
        <time>2015-09-03T08:22:41.000Z</time>
      </trkpt>
      <trkpt lat="49.23081" lon="-0.0172">
        <ele>115.7</ele>
        <time>2015-09-03T08:22:49.000Z</time>
      </trkpt>
      <trkpt lat="49.23088" lon="-0.0171">
        <ele>115.8</ele>
        <time>2015-09-03T08:22:58.000Z</time>
      </trkpt>
      <trkpt lat="49.23096" lon="-0.01701">
        <ele>115.6</ele>
        <time>2015-09-03T08:23:06.000Z</time>
      </trkpt>
      <trkpt lat="49.23102" lon="-0.01691">
        <ele>115.6</ele>
        <time>2015-09-03T08:23:16.000Z</time>
      </trkpt>
      <trkpt lat="49.23106" lon="-0.01678">
        <ele>115.6</ele>
        <time>2015-09-03T08:23:24.000Z</time>
      </trkpt>
      <trkpt lat="49.23107" lon="-0.01664">
        <ele>115.8</ele>
        <time>2015-09-03T08:23:33.000Z</time>
      </trkpt>
      <trkpt lat="49.23112" lon="-0.01651">
        <ele>115.7</ele>
        <time>2015-09-03T08:23:44.000Z</time>
      </trkpt>
      <trkpt lat="49.23119" lon="-0.01642">
        <ele>115.5</ele>
        <time>2015-09-03T08:23:53.000Z</time>
      </trkpt>
      <trkpt lat="49.23127" lon="-0.01633">
        <ele>115.4</ele>
        <time>2015-09-03T08:24:03.000Z</time>
      </trkpt>
      <trkpt lat="49.23135" lon="-0.01625">
        <ele>115</ele>
        <time>2015-09-03T08:24:10.000Z</time>
      </trkpt>
      <trkpt lat="49.23142" lon="-0.01615">
        <ele>114.7</ele>
        <time>2015-09-03T08:24:18.000Z</time>
      </trkpt>
      <trkpt lat="49.23145" lon="-0.01601">
        <ele>114.4</ele>
        <time>2015-09-03T08:24:28.000Z</time>
      </trkpt>
      <trkpt lat="49.23152" lon="-0.01591">
        <ele>114.3</ele>
        <time>2015-09-03T08:24:36.000Z</time>
      </trkpt>
      <trkpt lat="49.23159" lon="-0.01581">
        <ele>114.2</ele>
        <time>2015-09-03T08:24:43.000Z</time>
      </trkpt>
      <trkpt lat="49.23166" lon="-0.01572">
        <ele>114.1</ele>
        <time>2015-09-03T08:24:50.000Z</time>
      </trkpt>
      <trkpt lat="49.23174" lon="-0.01562">
        <ele>113.7</ele>
        <time>2015-09-03T08:24:59.000Z</time>
      </trkpt>
      <trkpt lat="49.23182" lon="-0.01551">
        <ele>113.3</ele>
        <time>2015-09-03T08:25:08.000Z</time>
      </trkpt>
      <trkpt lat="49.2319" lon="-0.01544">
        <ele>112.5</ele>
        <time>2015-09-03T08:25:18.000Z</time>
      </trkpt>
      <trkpt lat="49.23199" lon="-0.01536">
        <ele>112</ele>
        <time>2015-09-03T08:25:25.000Z</time>
      </trkpt>
      <trkpt lat="49.23206" lon="-0.01526">
        <ele>111.5</ele>
        <time>2015-09-03T08:25:32.000Z</time>
      </trkpt>
      <trkpt lat="49.23214" lon="-0.0152">
        <ele>110.9</ele>
        <time>2015-09-03T08:25:38.000Z</time>
      </trkpt>
      <trkpt lat="49.23223" lon="-0.01514">
        <ele>110.3</ele>
        <time>2015-09-03T08:25:44.000Z</time>
      </trkpt>
      <trkpt lat="49.23231" lon="-0.01509">
        <ele>109.9</ele>
        <time>2015-09-03T08:25:49.000Z</time>
      </trkpt>
      <trkpt lat="49.23238" lon="-0.01499">
        <ele>109.4</ele>
        <time>2015-09-03T08:25:57.000Z</time>
      </trkpt>
      <trkpt lat="49.23238" lon="-0.01486">
        <ele>108.7</ele>
        <time>2015-09-03T08:26:07.000Z</time>
      </trkpt>
      <trkpt lat="49.23238" lon="-0.01471">
        <ele>107.5</ele>
        <time>2015-09-03T08:26:15.000Z</time>
      </trkpt>
      <trkpt lat="49.23232" lon="-0.01461">
        <ele>106.3</ele>
        <time>2015-09-03T08:26:25.000Z</time>
      </trkpt>
      <trkpt lat="49.23223" lon="-0.01453">
        <ele>105.6</ele>
        <time>2015-09-03T08:26:34.000Z</time>
      </trkpt>
      <trkpt lat="49.23216" lon="-0.01443">
        <ele>105.2</ele>
        <time>2015-09-03T08:26:43.000Z</time>
      </trkpt>
      <trkpt lat="49.23208" lon="-0.01437">
        <ele>105.1</ele>
        <time>2015-09-03T08:26:59.000Z</time>
      </trkpt>
      <trkpt lat="49.23199" lon="-0.01432">
        <ele>105.2</ele>
        <time>2015-09-03T08:27:09.000Z</time>
      </trkpt>
      <trkpt lat="49.23189" lon="-0.01433">
        <ele>105.4</ele>
        <time>2015-09-03T08:27:19.000Z</time>
      </trkpt>
      <trkpt lat="49.23179" lon="-0.01435">
        <ele>105.5</ele>
        <time>2015-09-03T08:27:28.000Z</time>
      </trkpt>
      <trkpt lat="49.2317" lon="-0.01433">
        <ele>106</ele>
        <time>2015-09-03T08:27:38.000Z</time>
      </trkpt>
      <trkpt lat="49.23161" lon="-0.01428">
        <ele>106.5</ele>
        <time>2015-09-03T08:27:50.000Z</time>
      </trkpt>
      <trkpt lat="49.23152" lon="-0.01424">
        <ele>107</ele>
        <time>2015-09-03T08:28:03.000Z</time>
      </trkpt>
      <trkpt lat="49.23142" lon="-0.01423">
        <ele>107.3</ele>
        <time>2015-09-03T08:28:12.000Z</time>
      </trkpt>
      <trkpt lat="49.23133" lon="-0.01426">
        <ele>107.9</ele>
        <time>2015-09-03T08:28:27.000Z</time>
      </trkpt>
      <trkpt lat="49.23123" lon="-0.01422">
        <ele>108</ele>
        <time>2015-09-03T08:28:32.000Z</time>
      </trkpt>
      <trkpt lat="49.23114" lon="-0.01416">
        <ele>109.3</ele>
        <time>2015-09-03T08:28:49.000Z</time>
      </trkpt>
      <trkpt lat="49.23105" lon="-0.01414">
        <ele>110</ele>
        <time>2015-09-03T08:28:59.000Z</time>
      </trkpt>
      <trkpt lat="49.23096" lon="-0.01411">
        <ele>110.3</ele>
        <time>2015-09-03T08:29:08.000Z</time>
      </trkpt>
      <trkpt lat="49.23087" lon="-0.01406">
        <ele>110.5</ele>
        <time>2015-09-03T08:29:17.000Z</time>
      </trkpt>
      <trkpt lat="49.23078" lon="-0.01405">
        <ele>110.8</ele>
        <time>2015-09-03T08:29:25.000Z</time>
      </trkpt>
      <trkpt lat="49.23068" lon="-0.01403">
        <ele>111</ele>
        <time>2015-09-03T08:29:33.000Z</time>
      </trkpt>
      <trkpt lat="49.23059" lon="-0.01401">
        <ele>112</ele>
        <time>2015-09-03T08:29:40.000Z</time>
      </trkpt>
      <trkpt lat="49.23049" lon="-0.01398">
        <ele>112.4</ele>
        <time>2015-09-03T08:29:50.000Z</time>
      </trkpt>
      <trkpt lat="49.2304" lon="-0.01395">
        <ele>112.9</ele>
        <time>2015-09-03T08:30:02.000Z</time>
      </trkpt>
      <trkpt lat="49.2303" lon="-0.01395">
        <ele>113.1</ele>
        <time>2015-09-03T08:30:11.000Z</time>
      </trkpt>
      <trkpt lat="49.23021" lon="-0.01396">
        <ele>113.3</ele>
        <time>2015-09-03T08:30:25.000Z</time>
      </trkpt>
      <trkpt lat="49.23012" lon="-0.01391">
        <ele>113.5</ele>
        <time>2015-09-03T08:30:38.000Z</time>
      </trkpt>
      <trkpt lat="49.23004" lon="-0.01386">
        <ele>113.8</ele>
        <time>2015-09-03T08:30:47.000Z</time>
      </trkpt>
      <trkpt lat="49.22995" lon="-0.01382">
        <ele>114.1</ele>
        <time>2015-09-03T08:30:55.000Z</time>
      </trkpt>
      <trkpt lat="49.22987" lon="-0.01376">
        <ele>114.1</ele>
        <time>2015-09-03T08:31:02.000Z</time>
      </trkpt>
      <trkpt lat="49.22978" lon="-0.0137">
        <ele>114.2</ele>
        <time>2015-09-03T08:31:12.000Z</time>
      </trkpt>
      <trkpt lat="49.22969" lon="-0.01363">
        <ele>114.1</ele>
        <time>2015-09-03T08:31:26.000Z</time>
      </trkpt>
      <trkpt lat="49.22959" lon="-0.01359">
        <ele>114.3</ele>
        <time>2015-09-03T08:31:34.000Z</time>
      </trkpt>
      <trkpt lat="49.2295" lon="-0.01354">
        <ele>114.5</ele>
        <time>2015-09-03T08:31:40.000Z</time>
      </trkpt>
      <trkpt lat="49.22942" lon="-0.0135">
        <ele>114.6</ele>
        <time>2015-09-03T08:31:46.000Z</time>
      </trkpt>
      <trkpt lat="49.22932" lon="-0.01349">
        <ele>114.5</ele>
        <time>2015-09-03T08:31:53.000Z</time>
      </trkpt>
      <trkpt lat="49.22923" lon="-0.01346">
        <ele>114.1</ele>
        <time>2015-09-03T08:32:03.000Z</time>
      </trkpt>
      <trkpt lat="49.22915" lon="-0.01339">
        <ele>114.2</ele>
        <time>2015-09-03T08:32:13.000Z</time>
      </trkpt>
      <trkpt lat="49.22907" lon="-0.01331">
        <ele>114.3</ele>
        <time>2015-09-03T08:32:22.000Z</time>
      </trkpt>
      <trkpt lat="49.22902" lon="-0.0132">
        <ele>114.7</ele>
        <time>2015-09-03T08:32:32.000Z</time>
      </trkpt>
      <trkpt lat="49.22894" lon="-0.01311">
        <ele>114.9</ele>
        <time>2015-09-03T08:32:43.000Z</time>
      </trkpt>
      <trkpt lat="49.22888" lon="-0.013">
        <ele>115</ele>
        <time>2015-09-03T08:32:51.000Z</time>
      </trkpt>
      <trkpt lat="49.22882" lon="-0.0129">
        <ele>115.1</ele>
        <time>2015-09-03T08:33:00.000Z</time>
      </trkpt>
      <trkpt lat="49.22877" lon="-0.01277">
        <ele>115.1</ele>
        <time>2015-09-03T08:33:07.000Z</time>
      </trkpt>
      <trkpt lat="49.22872" lon="-0.01265">
        <ele>114.9</ele>
        <time>2015-09-03T08:33:14.000Z</time>
      </trkpt>
      <trkpt lat="49.22867" lon="-0.01251">
        <ele>114.6</ele>
        <time>2015-09-03T08:33:23.000Z</time>
      </trkpt>
      <trkpt lat="49.22863" lon="-0.01238">
        <ele>114.5</ele>
        <time>2015-09-03T08:33:31.000Z</time>
      </trkpt>
      <trkpt lat="49.22859" lon="-0.01226">
        <ele>114.6</ele>
        <time>2015-09-03T08:33:38.000Z</time>
      </trkpt>
      <trkpt lat="49.22855" lon="-0.01211">
        <ele>114.6</ele>
        <time>2015-09-03T08:33:45.000Z</time>
      </trkpt>
      <trkpt lat="49.22852" lon="-0.01197">
        <ele>114.4</ele>
        <time>2015-09-03T08:33:52.000Z</time>
      </trkpt>
      <trkpt lat="49.22849" lon="-0.01182">
        <ele>113.8</ele>
        <time>2015-09-03T08:34:00.000Z</time>
      </trkpt>
      <trkpt lat="49.2285" lon="-0.01166">
        <ele>113.5</ele>
        <time>2015-09-03T08:34:09.000Z</time>
      </trkpt>
      <trkpt lat="49.22851" lon="-0.01151">
        <ele>113.4</ele>
        <time>2015-09-03T08:34:18.000Z</time>
      </trkpt>
      <trkpt lat="49.22845" lon="-0.01139">
        <ele>113.4</ele>
        <time>2015-09-03T08:34:27.000Z</time>
      </trkpt>
      <trkpt lat="49.22841" lon="-0.01125">
        <ele>112.9</ele>
        <time>2015-09-03T08:34:36.000Z</time>
      </trkpt>
      <trkpt lat="49.22838" lon="-0.01113">
        <ele>112.7</ele>
        <time>2015-09-03T08:34:44.000Z</time>
      </trkpt>
      <trkpt lat="49.22833" lon="-0.01099">
        <ele>112.6</ele>
        <time>2015-09-03T08:34:52.000Z</time>
      </trkpt>
      <trkpt lat="49.22831" lon="-0.01084">
        <ele>112.6</ele>
        <time>2015-09-03T08:34:59.000Z</time>
      </trkpt>
      <trkpt lat="49.22828" lon="-0.0107">
        <ele>112.6</ele>
        <time>2015-09-03T08:35:06.000Z</time>
      </trkpt>
      <trkpt lat="49.22823" lon="-0.01056">
        <ele>112.6</ele>
        <time>2015-09-03T08:35:13.000Z</time>
      </trkpt>
      <trkpt lat="49.22821" lon="-0.01042">
        <ele>112.7</ele>
        <time>2015-09-03T08:35:20.000Z</time>
      </trkpt>
      <trkpt lat="49.22818" lon="-0.01028">
        <ele>112.8</ele>
        <time>2015-09-03T08:35:27.000Z</time>
      </trkpt>
      <trkpt lat="49.22818" lon="-0.01014">
        <ele>112.8</ele>
        <time>2015-09-03T08:35:35.000Z</time>
      </trkpt>
      <trkpt lat="49.22817" lon="-0.01">
        <ele>112.7</ele>
        <time>2015-09-03T08:35:43.000Z</time>
      </trkpt>
      <trkpt lat="49.22815" lon="-0.00985">
        <ele>112.7</ele>
        <time>2015-09-03T08:35:51.000Z</time>
      </trkpt>
      <trkpt lat="49.22812" lon="-0.00971">
        <ele>112.8</ele>
        <time>2015-09-03T08:36:00.000Z</time>
      </trkpt>
      <trkpt lat="49.22814" lon="-0.0096">
        <ele>111.7</ele>
        <time>2015-09-03T08:47:07.000Z</time>
      </trkpt>
      <trkpt lat="49.22814" lon="-0.00961">
        <ele>112.1</ele>
        <time>2015-09-03T08:49:01.000Z</time>
      </trkpt>
      <trkpt lat="49.22808" lon="-0.00971">
        <ele>112.3</ele>
        <time>2015-09-03T08:51:26.000Z</time>
      </trkpt>
      <trkpt lat="49.22801" lon="-0.0098">
        <ele>112.7</ele>
        <time>2015-09-03T08:51:52.000Z</time>
      </trkpt>
      <trkpt lat="49.22792" lon="-0.00988">
        <ele>112.8</ele>
        <time>2015-09-03T08:52:04.000Z</time>
      </trkpt>
      <trkpt lat="49.22785" lon="-0.00998">
        <ele>113.4</ele>
        <time>2015-09-03T08:52:12.000Z</time>
      </trkpt>
      <trkpt lat="49.22778" lon="-0.01008">
        <ele>113.8</ele>
        <time>2015-09-03T08:52:20.000Z</time>
      </trkpt>
      <trkpt lat="49.22772" lon="-0.01019">
        <ele>114.2</ele>
        <time>2015-09-03T08:52:32.000Z</time>
      </trkpt>
      <trkpt lat="49.22764" lon="-0.01027">
        <ele>114.6</ele>
        <time>2015-09-03T08:52:54.000Z</time>
      </trkpt>
      <trkpt lat="49.22756" lon="-0.01035">
        <ele>114.8</ele>
        <time>2015-09-03T08:53:19.000Z</time>
      </trkpt>
      <trkpt lat="49.22749" lon="-0.01045">
        <ele>115.3</ele>
        <time>2015-09-03T08:53:36.000Z</time>
      </trkpt>
      <trkpt lat="49.22742" lon="-0.01054">
        <ele>115.5</ele>
        <time>2015-09-03T08:53:45.000Z</time>
      </trkpt>
      <trkpt lat="49.22735" lon="-0.01063">
        <ele>115.5</ele>
        <time>2015-09-03T08:53:54.000Z</time>
      </trkpt>
      <trkpt lat="49.22727" lon="-0.0107">
        <ele>115.6</ele>
        <time>2015-09-03T08:54:02.000Z</time>
      </trkpt>
      <trkpt lat="49.22718" lon="-0.01077">
        <ele>115.9</ele>
        <time>2015-09-03T08:54:11.000Z</time>
      </trkpt>
      <trkpt lat="49.22712" lon="-0.01087">
        <ele>116.1</ele>
        <time>2015-09-03T08:54:23.000Z</time>
      </trkpt>
      <trkpt lat="49.22704" lon="-0.01094">
        <ele>116.4</ele>
        <time>2015-09-03T08:54:32.000Z</time>
      </trkpt>
      <trkpt lat="49.22696" lon="-0.01101">
        <ele>116.6</ele>
        <time>2015-09-03T08:54:39.000Z</time>
      </trkpt>
      <trkpt lat="49.22687" lon="-0.01107">
        <ele>116.9</ele>
        <time>2015-09-03T08:54:52.000Z</time>
      </trkpt>
      <trkpt lat="49.22678" lon="-0.01113">
        <ele>117.1</ele>
        <time>2015-09-03T08:55:01.000Z</time>
      </trkpt>
      <trkpt lat="49.2267" lon="-0.01121">
        <ele>117.1</ele>
        <time>2015-09-03T08:55:11.000Z</time>
      </trkpt>
      <trkpt lat="49.22662" lon="-0.01128">
        <ele>117.2</ele>
        <time>2015-09-03T08:55:20.000Z</time>
      </trkpt>
      <trkpt lat="49.22653" lon="-0.01133">
        <ele>117.2</ele>
        <time>2015-09-03T08:55:27.000Z</time>
      </trkpt>
      <trkpt lat="49.22646" lon="-0.01144">
        <ele>117.3</ele>
        <time>2015-09-03T08:55:36.000Z</time>
      </trkpt>
      <trkpt lat="49.22639" lon="-0.01154">
        <ele>117.4</ele>
        <time>2015-09-03T08:55:45.000Z</time>
      </trkpt>
      <trkpt lat="49.22632" lon="-0.01163">
        <ele>117.4</ele>
        <time>2015-09-03T08:55:55.000Z</time>
      </trkpt>
      <trkpt lat="49.22624" lon="-0.01171">
        <ele>117.3</ele>
        <time>2015-09-03T08:56:03.000Z</time>
      </trkpt>
      <trkpt lat="49.22615" lon="-0.01177">
        <ele>117.3</ele>
        <time>2015-09-03T08:56:13.000Z</time>
      </trkpt>
      <trkpt lat="49.22608" lon="-0.01186">
        <ele>117.3</ele>
        <time>2015-09-03T08:56:22.000Z</time>
      </trkpt>
      <trkpt lat="49.22601" lon="-0.01194">
        <ele>117.2</ele>
        <time>2015-09-03T08:56:31.000Z</time>
      </trkpt>
      <trkpt lat="49.22594" lon="-0.01205">
        <ele>116.8</ele>
        <time>2015-09-03T08:56:42.000Z</time>
      </trkpt>
      <trkpt lat="49.22588" lon="-0.01217">
        <ele>116.5</ele>
        <time>2015-09-03T08:56:50.000Z</time>
      </trkpt>
      <trkpt lat="49.22582" lon="-0.01227">
        <ele>116</ele>
        <time>2015-09-03T08:57:05.000Z</time>
      </trkpt>
      <trkpt lat="49.22577" lon="-0.01239">
        <ele>115.6</ele>
        <time>2015-09-03T08:57:27.000Z</time>
      </trkpt>
      <trkpt lat="49.22573" lon="-0.01251">
        <ele>115.2</ele>
        <time>2015-09-03T08:57:37.000Z</time>
      </trkpt>
      <trkpt lat="49.22568" lon="-0.01263">
        <ele>114.2</ele>
        <time>2015-09-03T08:57:47.000Z</time>
      </trkpt>
      <trkpt lat="49.22563" lon="-0.01276">
        <ele>113.2</ele>
        <time>2015-09-03T08:57:58.000Z</time>
      </trkpt>
      <trkpt lat="49.22557" lon="-0.01286">
        <ele>112.5</ele>
        <time>2015-09-03T08:58:08.000Z</time>
      </trkpt>
      <trkpt lat="49.22551" lon="-0.01297">
        <ele>112.2</ele>
        <time>2015-09-03T08:58:17.000Z</time>
      </trkpt>
      <trkpt lat="49.22544" lon="-0.01306">
        <ele>112</ele>
        <time>2015-09-03T08:58:28.000Z</time>
      </trkpt>
      <trkpt lat="49.22541" lon="-0.0132">
        <ele>111.4</ele>
        <time>2015-09-03T08:58:41.000Z</time>
      </trkpt>
      <trkpt lat="49.22535" lon="-0.01331">
        <ele>110.6</ele>
        <time>2015-09-03T08:58:56.000Z</time>
      </trkpt>
      <trkpt lat="49.22529" lon="-0.01341">
        <ele>110.1</ele>
        <time>2015-09-03T08:59:06.000Z</time>
      </trkpt>
      <trkpt lat="49.22523" lon="-0.01351">
        <ele>109.3</ele>
        <time>2015-09-03T08:59:16.000Z</time>
      </trkpt>
      <trkpt lat="49.22515" lon="-0.01359">
        <ele>108.8</ele>
        <time>2015-09-03T08:59:24.000Z</time>
      </trkpt>
      <trkpt lat="49.22508" lon="-0.01368">
        <ele>108</ele>
        <time>2015-09-03T08:59:32.000Z</time>
      </trkpt>
      <trkpt lat="49.22503" lon="-0.01381">
        <ele>106.9</ele>
        <time>2015-09-03T08:59:42.000Z</time>
      </trkpt>
      <trkpt lat="49.22497" lon="-0.01391">
        <ele>106.1</ele>
        <time>2015-09-03T08:59:51.000Z</time>
      </trkpt>
      <trkpt lat="49.22489" lon="-0.01399">
        <ele>104</ele>
        <time>2015-09-03T09:00:06.000Z</time>
      </trkpt>
      <trkpt lat="49.22481" lon="-0.01408">
        <ele>102.4</ele>
        <time>2015-09-03T09:00:17.000Z</time>
      </trkpt>
      <trkpt lat="49.22472" lon="-0.01414">
        <ele>101.3</ele>
        <time>2015-09-03T09:00:28.000Z</time>
      </trkpt>
      <trkpt lat="49.22463" lon="-0.0142">
        <ele>100.2</ele>
        <time>2015-09-03T09:00:37.000Z</time>
      </trkpt>
      <trkpt lat="49.22454" lon="-0.01424">
        <ele>99.4</ele>
        <time>2015-09-03T09:00:44.000Z</time>
      </trkpt>
      <trkpt lat="49.22444" lon="-0.01428">
        <ele>98.4</ele>
        <time>2015-09-03T09:00:51.000Z</time>
      </trkpt>
      <trkpt lat="49.22436" lon="-0.01434">
        <ele>97.6</ele>
        <time>2015-09-03T09:00:59.000Z</time>
      </trkpt>
      <trkpt lat="49.22431" lon="-0.01446">
        <ele>96.6</ele>
        <time>2015-09-03T09:01:12.000Z</time>
      </trkpt>
      <trkpt lat="49.22424" lon="-0.01456">
        <ele>96.1</ele>
        <time>2015-09-03T09:01:22.000Z</time>
      </trkpt>
      <trkpt lat="49.22418" lon="-0.01467">
        <ele>94.5</ele>
        <time>2015-09-03T09:01:46.000Z</time>
      </trkpt>
      <trkpt lat="49.22415" lon="-0.01481">
        <ele>93.7</ele>
        <time>2015-09-03T09:01:58.000Z</time>
      </trkpt>
      <trkpt lat="49.22409" lon="-0.01493">
        <ele>92.9</ele>
        <time>2015-09-03T09:02:12.000Z</time>
      </trkpt>
      <trkpt lat="49.22402" lon="-0.01501">
        <ele>91.6</ele>
        <time>2015-09-03T09:02:27.000Z</time>
      </trkpt>
      <trkpt lat="49.22396" lon="-0.01511">
        <ele>91.1</ele>
        <time>2015-09-03T09:02:36.000Z</time>
      </trkpt>
      <trkpt lat="49.22388" lon="-0.01519">
        <ele>90</ele>
        <time>2015-09-03T09:02:46.000Z</time>
      </trkpt>
      <trkpt lat="49.22382" lon="-0.0153">
        <ele>88.9</ele>
        <time>2015-09-03T09:02:59.000Z</time>
      </trkpt>
      <trkpt lat="49.22374" lon="-0.01539">
        <ele>87</ele>
        <time>2015-09-03T09:03:13.000Z</time>
      </trkpt>
      <trkpt lat="49.22369" lon="-0.01551">
        <ele>86</ele>
        <time>2015-09-03T09:03:23.000Z</time>
      </trkpt>
      <trkpt lat="49.22362" lon="-0.0156">
        <ele>84.8</ele>
        <time>2015-09-03T09:03:32.000Z</time>
      </trkpt>
      <trkpt lat="49.22353" lon="-0.01565">
        <ele>83.9</ele>
        <time>2015-09-03T09:03:43.000Z</time>
      </trkpt>
      <trkpt lat="49.22346" lon="-0.01574">
        <ele>82.9</ele>
        <time>2015-09-03T09:03:55.000Z</time>
      </trkpt>
      <trkpt lat="49.2234" lon="-0.01586">
        <ele>81.3</ele>
        <time>2015-09-03T09:04:07.000Z</time>
      </trkpt>
      <trkpt lat="49.22333" lon="-0.01595">
        <ele>79.8</ele>
        <time>2015-09-03T09:04:17.000Z</time>
      </trkpt>
      <trkpt lat="49.22327" lon="-0.01605">
        <ele>78.5</ele>
        <time>2015-09-03T09:04:26.000Z</time>
      </trkpt>
      <trkpt lat="49.2232" lon="-0.01616">
        <ele>77.2</ele>
        <time>2015-09-03T09:04:34.000Z</time>
      </trkpt>
      <trkpt lat="49.22313" lon="-0.01625">
        <ele>76.1</ele>
        <time>2015-09-03T09:04:44.000Z</time>
      </trkpt>
      <trkpt lat="49.22308" lon="-0.01638">
        <ele>75.2</ele>
        <time>2015-09-03T09:04:53.000Z</time>
      </trkpt>
      <trkpt lat="49.22302" lon="-0.01649">
        <ele>73.6</ele>
        <time>2015-09-03T09:05:02.000Z</time>
      </trkpt>
      <trkpt lat="49.22295" lon="-0.01659">
        <ele>71.1</ele>
        <time>2015-09-03T09:05:16.000Z</time>
      </trkpt>
      <trkpt lat="49.2229" lon="-0.0167">
        <ele>69.4</ele>
        <time>2015-09-03T09:05:28.000Z</time>
      </trkpt>
      <trkpt lat="49.22285" lon="-0.01682">
        <ele>67.7</ele>
        <time>2015-09-03T09:05:39.000Z</time>
      </trkpt>
      <trkpt lat="49.22277" lon="-0.01689">
        <ele>66.3</ele>
        <time>2015-09-03T09:05:52.000Z</time>
      </trkpt>
      <trkpt lat="49.2227" lon="-0.01701">
        <ele>64.9</ele>
        <time>2015-09-03T09:06:05.000Z</time>
      </trkpt>
      <trkpt lat="49.22262" lon="-0.01707">
        <ele>63.6</ele>
        <time>2015-09-03T09:06:15.000Z</time>
      </trkpt>
      <trkpt lat="49.22255" lon="-0.01717">
        <ele>61.3</ele>
        <time>2015-09-03T09:06:32.000Z</time>
      </trkpt>
      <trkpt lat="49.22248" lon="-0.01726">
        <ele>60</ele>
        <time>2015-09-03T09:06:42.000Z</time>
      </trkpt>
      <trkpt lat="49.2224" lon="-0.01735">
        <ele>58</ele>
        <time>2015-09-03T09:06:55.000Z</time>
      </trkpt>
      <trkpt lat="49.22236" lon="-0.01748">
        <ele>55</ele>
        <time>2015-09-03T09:07:17.000Z</time>
      </trkpt>
      <trkpt lat="49.22228" lon="-0.01754">
        <ele>52.8</ele>
        <time>2015-09-03T09:07:32.000Z</time>
      </trkpt>
      <trkpt lat="49.22222" lon="-0.01766">
        <ele>51</ele>
        <time>2015-09-03T09:07:48.000Z</time>
      </trkpt>
      <trkpt lat="49.22216" lon="-0.01778">
        <ele>50.4</ele>
        <time>2015-09-03T09:07:59.000Z</time>
      </trkpt>
      <trkpt lat="49.22208" lon="-0.01785">
        <ele>49.6</ele>
        <time>2015-09-03T09:08:08.000Z</time>
      </trkpt>
      <trkpt lat="49.22199" lon="-0.01792">
        <ele>48</ele>
        <time>2015-09-03T09:08:19.000Z</time>
      </trkpt>
      <trkpt lat="49.22193" lon="-0.01802">
        <ele>45.4</ele>
        <time>2015-09-03T09:08:36.000Z</time>
      </trkpt>
      <trkpt lat="49.22185" lon="-0.0181">
        <ele>44</ele>
        <time>2015-09-03T09:08:48.000Z</time>
      </trkpt>
      <trkpt lat="49.22176" lon="-0.01817">
        <ele>42.3</ele>
        <time>2015-09-03T09:09:00.000Z</time>
      </trkpt>
      <trkpt lat="49.22167" lon="-0.01824">
        <ele>41.7</ele>
        <time>2015-09-03T09:09:12.000Z</time>
      </trkpt>
      <trkpt lat="49.22159" lon="-0.01826">
        <ele>41.6</ele>
        <time>2015-09-03T09:09:22.000Z</time>
      </trkpt>
      <trkpt lat="49.2215" lon="-0.01832">
        <ele>41.7</ele>
        <time>2015-09-03T09:09:33.000Z</time>
      </trkpt>
      <trkpt lat="49.22141" lon="-0.01836">
        <ele>42.6</ele>
        <time>2015-09-03T09:09:44.000Z</time>
      </trkpt>
      <trkpt lat="49.22133" lon="-0.01843">
        <ele>43.4</ele>
        <time>2015-09-03T09:09:56.000Z</time>
      </trkpt>
      <trkpt lat="49.22125" lon="-0.01851">
        <ele>44.7</ele>
        <time>2015-09-03T09:10:05.000Z</time>
      </trkpt>
      <trkpt lat="49.22116" lon="-0.01855">
        <ele>45.9</ele>
        <time>2015-09-03T09:10:13.000Z</time>
      </trkpt>
      <trkpt lat="49.22108" lon="-0.0186">
        <ele>48.7</ele>
        <time>2015-09-03T09:10:30.000Z</time>
      </trkpt>
      <trkpt lat="49.221" lon="-0.01868">
        <ele>49.8</ele>
        <time>2015-09-03T09:10:39.000Z</time>
      </trkpt>
      <trkpt lat="49.22092" lon="-0.01873">
        <ele>51.3</ele>
        <time>2015-09-03T09:10:53.000Z</time>
      </trkpt>
      <trkpt lat="49.22084" lon="-0.01866">
        <ele>53.4</ele>
        <time>2015-09-03T09:11:17.000Z</time>
      </trkpt>
      <trkpt lat="49.22076" lon="-0.01874">
        <ele>54.2</ele>
        <time>2015-09-03T09:11:37.000Z</time>
      </trkpt>
      <trkpt lat="49.22068" lon="-0.01884">
        <ele>54.7</ele>
        <time>2015-09-03T09:11:48.000Z</time>
      </trkpt>
      <trkpt lat="49.22061" lon="-0.01893">
        <ele>55.3</ele>
        <time>2015-09-03T09:11:57.000Z</time>
      </trkpt>
      <trkpt lat="49.22054" lon="-0.01903">
        <ele>56.2</ele>
        <time>2015-09-03T09:12:13.000Z</time>
      </trkpt>
      <trkpt lat="49.22047" lon="-0.01913">
        <ele>57.7</ele>
        <time>2015-09-03T09:12:25.000Z</time>
      </trkpt>
      <trkpt lat="49.2204" lon="-0.01922">
        <ele>58.7</ele>
        <time>2015-09-03T09:12:35.000Z</time>
      </trkpt>
      <trkpt lat="49.22034" lon="-0.01933">
        <ele>59.6</ele>
        <time>2015-09-03T09:12:47.000Z</time>
      </trkpt>
      <trkpt lat="49.22027" lon="-0.01945">
        <ele>60.8</ele>
        <time>2015-09-03T09:13:03.000Z</time>
      </trkpt>
      <trkpt lat="49.2202" lon="-0.01953">
        <ele>61.3</ele>
        <time>2015-09-03T09:13:10.000Z</time>
      </trkpt>
      <trkpt lat="49.22013" lon="-0.01962">
        <ele>62.5</ele>
        <time>2015-09-03T09:13:19.000Z</time>
      </trkpt>
      <trkpt lat="49.22007" lon="-0.01972">
        <ele>63.9</ele>
        <time>2015-09-03T09:13:30.000Z</time>
      </trkpt>
      <trkpt lat="49.21999" lon="-0.01981">
        <ele>65.2</ele>
        <time>2015-09-03T09:13:41.000Z</time>
      </trkpt>
      <trkpt lat="49.21991" lon="-0.0199">
        <ele>66.2</ele>
        <time>2015-09-03T09:13:51.000Z</time>
      </trkpt>
      <trkpt lat="49.21995" lon="-0.02005">
        <ele>67</ele>
        <time>2015-09-03T09:14:06.000Z</time>
      </trkpt>
      <trkpt lat="49.21981" lon="-0.02012">
        <ele>67.9</ele>
        <time>2015-09-03T09:14:11.000Z</time>
      </trkpt>
      <trkpt lat="49.21973" lon="-0.0202">
        <ele>69.9</ele>
        <time>2015-09-03T09:14:38.000Z</time>
      </trkpt>
      <trkpt lat="49.21966" lon="-0.02028">
        <ele>71.2</ele>
        <time>2015-09-03T09:14:47.000Z</time>
      </trkpt>
      <trkpt lat="49.21959" lon="-0.02037">
        <ele>72</ele>
        <time>2015-09-03T09:14:54.000Z</time>
      </trkpt>
      <trkpt lat="49.21952" lon="-0.02047">
        <ele>73.2</ele>
        <time>2015-09-03T09:15:03.000Z</time>
      </trkpt>
      <trkpt lat="49.21945" lon="-0.02056">
        <ele>74.1</ele>
        <time>2015-09-03T09:15:16.000Z</time>
      </trkpt>
      <trkpt lat="49.21936" lon="-0.02063">
        <ele>74.6</ele>
        <time>2015-09-03T09:15:24.000Z</time>
      </trkpt>
      <trkpt lat="49.21928" lon="-0.02071">
        <ele>75.7</ele>
        <time>2015-09-03T09:15:34.000Z</time>
      </trkpt>
      <trkpt lat="49.21921" lon="-0.0208">
        <ele>76.3</ele>
        <time>2015-09-03T09:15:43.000Z</time>
      </trkpt>
      <trkpt lat="49.21913" lon="-0.02087">
        <ele>76.8</ele>
        <time>2015-09-03T09:15:53.000Z</time>
      </trkpt>
      <trkpt lat="49.21905" lon="-0.02095">
        <ele>77.5</ele>
        <time>2015-09-03T09:16:05.000Z</time>
      </trkpt>
      <trkpt lat="49.21898" lon="-0.02104">
        <ele>78.8</ele>
        <time>2015-09-03T09:16:16.000Z</time>
      </trkpt>
      <trkpt lat="49.2189" lon="-0.02114">
        <ele>79.5</ele>
        <time>2015-09-03T09:16:26.000Z</time>
      </trkpt>
      <trkpt lat="49.21884" lon="-0.02124">
        <ele>80.3</ele>
        <time>2015-09-03T09:16:35.000Z</time>
      </trkpt>
      <trkpt lat="49.2188" lon="-0.02137">
        <ele>81.2</ele>
        <time>2015-09-03T09:16:46.000Z</time>
      </trkpt>
      <trkpt lat="49.21873" lon="-0.02147">
        <ele>81.8</ele>
        <time>2015-09-03T09:16:55.000Z</time>
      </trkpt>
      <trkpt lat="49.21865" lon="-0.02159">
        <ele>82</ele>
        <time>2015-09-03T09:17:05.000Z</time>
      </trkpt>
      <trkpt lat="49.21857" lon="-0.02167">
        <ele>83.1</ele>
        <time>2015-09-03T09:17:15.000Z</time>
      </trkpt>
      <trkpt lat="49.21849" lon="-0.02173">
        <ele>83.9</ele>
        <time>2015-09-03T09:17:23.000Z</time>
      </trkpt>
      <trkpt lat="49.21841" lon="-0.02182">
        <ele>84.9</ele>
        <time>2015-09-03T09:17:33.000Z</time>
      </trkpt>
      <trkpt lat="49.21833" lon="-0.02192">
        <ele>85.5</ele>
        <time>2015-09-03T09:17:44.000Z</time>
      </trkpt>
      <trkpt lat="49.21827" lon="-0.02203">
        <ele>86.7</ele>
        <time>2015-09-03T09:17:55.000Z</time>
      </trkpt>
      <trkpt lat="49.21819" lon="-0.02213">
        <ele>87.7</ele>
        <time>2015-09-03T09:18:06.000Z</time>
      </trkpt>
      <trkpt lat="49.21812" lon="-0.02222">
        <ele>88.2</ele>
        <time>2015-09-03T09:18:16.000Z</time>
      </trkpt>
      <trkpt lat="49.21805" lon="-0.02231">
        <ele>89.1</ele>
        <time>2015-09-03T09:18:25.000Z</time>
      </trkpt>
      <trkpt lat="49.21797" lon="-0.02241">
        <ele>89.7</ele>
        <time>2015-09-03T09:18:37.000Z</time>
      </trkpt>
      <trkpt lat="49.21789" lon="-0.02248">
        <ele>90</ele>
        <time>2015-09-03T09:18:47.000Z</time>
      </trkpt>
      <trkpt lat="49.21782" lon="-0.02258">
        <ele>90.4</ele>
        <time>2015-09-03T09:18:57.000Z</time>
      </trkpt>
      <trkpt lat="49.21773" lon="-0.02265">
        <ele>90.7</ele>
        <time>2015-09-03T09:19:08.000Z</time>
      </trkpt>
      <trkpt lat="49.21764" lon="-0.02271">
        <ele>91.1</ele>
        <time>2015-09-03T09:19:17.000Z</time>
      </trkpt>
      <trkpt lat="49.21757" lon="-0.02279">
        <ele>91.9</ele>
        <time>2015-09-03T09:19:25.000Z</time>
      </trkpt>
      <trkpt lat="49.21748" lon="-0.02288">
        <ele>92.8</ele>
        <time>2015-09-03T09:19:32.000Z</time>
      </trkpt>
      <trkpt lat="49.21739" lon="-0.02286">
        <ele>93.8</ele>
        <time>2015-09-03T09:19:50.000Z</time>
      </trkpt>
      <trkpt lat="49.2173" lon="-0.02284">
        <ele>93.1</ele>
        <time>2015-09-03T09:20:05.000Z</time>
      </trkpt>
      <trkpt lat="49.21726" lon="-0.02272">
        <ele>91.3</ele>
        <time>2015-09-03T09:20:21.000Z</time>
      </trkpt>
      <trkpt lat="49.21724" lon="-0.02258">
        <ele>89</ele>
        <time>2015-09-03T09:20:34.000Z</time>
      </trkpt>
      <trkpt lat="49.21719" lon="-0.02246">
        <ele>86.2</ele>
        <time>2015-09-03T09:20:53.000Z</time>
      </trkpt>
      <trkpt lat="49.21715" lon="-0.02233">
        <ele>85</ele>
        <time>2015-09-03T09:21:02.000Z</time>
      </trkpt>
      <trkpt lat="49.2171" lon="-0.02221">
        <ele>83.7</ele>
        <time>2015-09-03T09:21:12.000Z</time>
      </trkpt>
      <trkpt lat="49.21708" lon="-0.02206">
        <ele>80.8</ele>
        <time>2015-09-03T09:21:28.000Z</time>
      </trkpt>
      <trkpt lat="49.21701" lon="-0.02196">
        <ele>79.4</ele>
        <time>2015-09-03T09:21:39.000Z</time>
      </trkpt>
      <trkpt lat="49.21698" lon="-0.02182">
        <ele>77.6</ele>
        <time>2015-09-03T09:21:56.000Z</time>
      </trkpt>
      <trkpt lat="49.21695" lon="-0.02169">
        <ele>74.9</ele>
        <time>2015-09-03T09:22:15.000Z</time>
      </trkpt>
      <trkpt lat="49.2169" lon="-0.02157">
        <ele>73.9</ele>
        <time>2015-09-03T09:22:26.000Z</time>
      </trkpt>
      <trkpt lat="49.2169" lon="-0.02143">
        <ele>72.5</ele>
        <time>2015-09-03T09:22:37.000Z</time>
      </trkpt>
      <trkpt lat="49.21686" lon="-0.0213">
        <ele>70.7</ele>
        <time>2015-09-03T09:22:50.000Z</time>
      </trkpt>
      <trkpt lat="49.21686" lon="-0.02116">
        <ele>69.4</ele>
        <time>2015-09-03T09:23:06.000Z</time>
      </trkpt>
      <trkpt lat="49.21684" lon="-0.02102">
        <ele>66.5</ele>
        <time>2015-09-03T09:23:41.000Z</time>
      </trkpt>
      <trkpt lat="49.21683" lon="-0.02088">
        <ele>65.7</ele>
        <time>2015-09-03T09:23:58.000Z</time>
      </trkpt>
      <trkpt lat="49.21687" lon="-0.02075">
        <ele>65</ele>
        <time>2015-09-03T09:24:07.000Z</time>
      </trkpt>
      <trkpt lat="49.21691" lon="-0.02061">
        <ele>64.5</ele>
        <time>2015-09-03T09:24:17.000Z</time>
      </trkpt>
      <trkpt lat="49.21693" lon="-0.02047">
        <ele>64.2</ele>
        <time>2015-09-03T09:24:31.000Z</time>
      </trkpt>
      <trkpt lat="49.21692" lon="-0.02033">
        <ele>64.1</ele>
        <time>2015-09-03T09:24:40.000Z</time>
      </trkpt>
      <trkpt lat="49.21689" lon="-0.02019">
        <ele>64.9</ele>
        <time>2015-09-03T09:24:52.000Z</time>
      </trkpt>
      <trkpt lat="49.21693" lon="-0.02007">
        <ele>65.6</ele>
        <time>2015-09-03T09:25:05.000Z</time>
      </trkpt>
      <trkpt lat="49.21696" lon="-0.01992">
        <ele>66</ele>
        <time>2015-09-03T09:25:16.000Z</time>
      </trkpt>
      <trkpt lat="49.21704" lon="-0.01984">
        <ele>65.3</ele>
        <time>2015-09-03T09:25:35.000Z</time>
      </trkpt>
      <trkpt lat="49.21712" lon="-0.01977">
        <ele>64.9</ele>
        <time>2015-09-03T09:25:43.000Z</time>
      </trkpt>
      <trkpt lat="49.21715" lon="-0.01963">
        <ele>64.7</ele>
        <time>2015-09-03T09:25:52.000Z</time>
      </trkpt>
      <trkpt lat="49.21716" lon="-0.01949">
        <ele>65.1</ele>
        <time>2015-09-03T09:26:02.000Z</time>
      </trkpt>
      <trkpt lat="49.21717" lon="-0.01935">
        <ele>65.7</ele>
        <time>2015-09-03T09:26:14.000Z</time>
      </trkpt>
      <trkpt lat="49.21719" lon="-0.01921">
        <ele>66.4</ele>
        <time>2015-09-03T09:26:23.000Z</time>
      </trkpt>
      <trkpt lat="49.21718" lon="-0.01906">
        <ele>67.1</ele>
        <time>2015-09-03T09:26:33.000Z</time>
      </trkpt>
      <trkpt lat="49.21715" lon="-0.01893">
        <ele>67.8</ele>
        <time>2015-09-03T09:26:43.000Z</time>
      </trkpt>
      <trkpt lat="49.21712" lon="-0.01879">
        <ele>69</ele>
        <time>2015-09-03T09:26:52.000Z</time>
      </trkpt>
      <trkpt lat="49.21706" lon="-0.01868">
        <ele>69.5</ele>
        <time>2015-09-03T09:27:01.000Z</time>
      </trkpt>
      <trkpt lat="49.21702" lon="-0.01854">
        <ele>69.4</ele>
        <time>2015-09-03T09:27:13.000Z</time>
      </trkpt>
      <trkpt lat="49.21696" lon="-0.01842">
        <ele>69.9</ele>
        <time>2015-09-03T09:27:25.000Z</time>
      </trkpt>
      <trkpt lat="49.21688" lon="-0.01837">
        <ele>70.5</ele>
        <time>2015-09-03T09:27:51.000Z</time>
      </trkpt>
      <trkpt lat="49.21682" lon="-0.01826">
        <ele>71.1</ele>
        <time>2015-09-03T09:28:04.000Z</time>
      </trkpt>
      <trkpt lat="49.21685" lon="-0.01813">
        <ele>70.2</ele>
        <time>2015-09-03T09:28:23.000Z</time>
      </trkpt>
      <trkpt lat="49.21682" lon="-0.01799">
        <ele>68.9</ele>
        <time>2015-09-03T09:28:34.000Z</time>
      </trkpt>
      <trkpt lat="49.21688" lon="-0.01788">
        <ele>67</ele>
        <time>2015-09-03T09:28:48.000Z</time>
      </trkpt>
      <trkpt lat="49.21687" lon="-0.01773">
        <ele>65.2</ele>
        <time>2015-09-03T09:28:59.000Z</time>
      </trkpt>
      <trkpt lat="49.2169" lon="-0.0176">
        <ele>63.4</ele>
        <time>2015-09-03T09:29:08.000Z</time>
      </trkpt>
      <trkpt lat="49.2169" lon="-0.01745">
        <ele>61.7</ele>
        <time>2015-09-03T09:29:22.000Z</time>
      </trkpt>
      <trkpt lat="49.21685" lon="-0.01732">
        <ele>61</ele>
        <time>2015-09-03T09:29:33.000Z</time>
      </trkpt>
      <trkpt lat="49.21687" lon="-0.01718">
        <ele>61.2</ele>
        <time>2015-09-03T09:30:00.000Z</time>
      </trkpt>
      <trkpt lat="49.21686" lon="-0.01704">
        <ele>63.1</ele>
        <time>2015-09-03T09:30:25.000Z</time>
      </trkpt>
      <trkpt lat="49.21689" lon="-0.0169">
        <ele>64.8</ele>
        <time>2015-09-03T09:30:40.000Z</time>
      </trkpt>
      <trkpt lat="49.21689" lon="-0.01675">
        <ele>66.6</ele>
        <time>2015-09-03T09:30:51.000Z</time>
      </trkpt>
      <trkpt lat="49.2169" lon="-0.0166">
        <ele>68.3</ele>
        <time>2015-09-03T09:31:03.000Z</time>
      </trkpt>
      <trkpt lat="49.21694" lon="-0.01648">
        <ele>70.4</ele>
        <time>2015-09-03T09:31:22.000Z</time>
      </trkpt>
      <trkpt lat="49.2169" lon="-0.01634">
        <ele>72</ele>
        <time>2015-09-03T09:31:34.000Z</time>
      </trkpt>
      <trkpt lat="49.21692" lon="-0.01619">
        <ele>73.7</ele>
        <time>2015-09-03T09:31:47.000Z</time>
      </trkpt>
      <trkpt lat="49.21695" lon="-0.01605">
        <ele>74.6</ele>
        <time>2015-09-03T09:31:55.000Z</time>
      </trkpt>
      <trkpt lat="49.21697" lon="-0.01591">
        <ele>75.4</ele>
        <time>2015-09-03T09:32:05.000Z</time>
      </trkpt>
      <trkpt lat="49.21696" lon="-0.01577">
        <ele>76.2</ele>
        <time>2015-09-03T09:32:15.000Z</time>
      </trkpt>
      <trkpt lat="49.21698" lon="-0.01563">
        <ele>77</ele>
        <time>2015-09-03T09:32:44.000Z</time>
      </trkpt>
      <trkpt lat="49.21689" lon="-0.01557">
        <ele>77.4</ele>
        <time>2015-09-03T09:32:51.000Z</time>
      </trkpt>
      <trkpt lat="49.2168" lon="-0.01556">
        <ele>77.8</ele>
        <time>2015-09-03T09:32:58.000Z</time>
      </trkpt>
      <trkpt lat="49.21671" lon="-0.01551">
        <ele>78.3</ele>
        <time>2015-09-03T09:33:08.000Z</time>
      </trkpt>
      <trkpt lat="49.21662" lon="-0.01545">
        <ele>79.1</ele>
        <time>2015-09-03T09:33:18.000Z</time>
      </trkpt>
      <trkpt lat="49.21653" lon="-0.01543">
        <ele>79.5</ele>
        <time>2015-09-03T09:33:25.000Z</time>
      </trkpt>
      <trkpt lat="49.21644" lon="-0.01538">
        <ele>79.9</ele>
        <time>2015-09-03T09:33:32.000Z</time>
      </trkpt>
      <trkpt lat="49.21634" lon="-0.01533">
        <ele>80.6</ele>
        <time>2015-09-03T09:33:41.000Z</time>
      </trkpt>
      <trkpt lat="49.21625" lon="-0.01528">
        <ele>81.4</ele>
        <time>2015-09-03T09:33:49.000Z</time>
      </trkpt>
      <trkpt lat="49.21616" lon="-0.01523">
        <ele>82.3</ele>
        <time>2015-09-03T09:34:00.000Z</time>
      </trkpt>
      <trkpt lat="49.21608" lon="-0.01519">
        <ele>83.3</ele>
        <time>2015-09-03T09:34:08.000Z</time>
      </trkpt>
      <trkpt lat="49.21598" lon="-0.01518">
        <ele>84</ele>
        <time>2015-09-03T09:34:15.000Z</time>
      </trkpt>
      <trkpt lat="49.21589" lon="-0.01514">
        <ele>84.7</ele>
        <time>2015-09-03T09:34:23.000Z</time>
      </trkpt>
      <trkpt lat="49.21579" lon="-0.01511">
        <ele>85.3</ele>
        <time>2015-09-03T09:34:31.000Z</time>
      </trkpt>
      <trkpt lat="49.21569" lon="-0.0151">
        <ele>85.9</ele>
        <time>2015-09-03T09:34:39.000Z</time>
      </trkpt>
      <trkpt lat="49.21561" lon="-0.01506">
        <ele>86.5</ele>
        <time>2015-09-03T09:34:48.000Z</time>
      </trkpt>
      <trkpt lat="49.21552" lon="-0.01504">
        <ele>87.5</ele>
        <time>2015-09-03T09:34:58.000Z</time>
      </trkpt>
      <trkpt lat="49.21541" lon="-0.01501">
        <ele>88.1</ele>
        <time>2015-09-03T09:35:05.000Z</time>
      </trkpt>
      <trkpt lat="49.21529" lon="-0.015">
        <ele>88</ele>
        <time>2015-09-03T09:35:12.000Z</time>
      </trkpt>
      <trkpt lat="49.2152" lon="-0.01497">
        <ele>89.2</ele>
        <time>2015-09-03T09:35:20.000Z</time>
      </trkpt>
      <trkpt lat="49.2151" lon="-0.01498">
        <ele>89.7</ele>
        <time>2015-09-03T09:35:29.000Z</time>
      </trkpt>
      <trkpt lat="49.21501" lon="-0.01498">
        <ele>90.1</ele>
        <time>2015-09-03T09:35:36.000Z</time>
      </trkpt>
      <trkpt lat="49.21492" lon="-0.01498">
        <ele>90.5</ele>
        <time>2015-09-03T09:35:42.000Z</time>
      </trkpt>
      <trkpt lat="49.21482" lon="-0.01497">
        <ele>90.9</ele>
        <time>2015-09-03T09:35:48.000Z</time>
      </trkpt>
      <trkpt lat="49.21473" lon="-0.01497">
        <ele>91.2</ele>
        <time>2015-09-03T09:35:54.000Z</time>
      </trkpt>
      <trkpt lat="49.21464" lon="-0.01495">
        <ele>91.5</ele>
        <time>2015-09-03T09:36:01.000Z</time>
      </trkpt>
      <trkpt lat="49.21454" lon="-0.01491">
        <ele>91.7</ele>
        <time>2015-09-03T09:36:07.000Z</time>
      </trkpt>
      <trkpt lat="49.21442" lon="-0.0149">
        <ele>92.1</ele>
        <time>2015-09-03T09:36:15.000Z</time>
      </trkpt>
      <trkpt lat="49.21431" lon="-0.01489">
        <ele>93</ele>
        <time>2015-09-03T09:36:24.000Z</time>
      </trkpt>
      <trkpt lat="49.21422" lon="-0.01486">
        <ele>93.9</ele>
        <time>2015-09-03T09:36:33.000Z</time>
      </trkpt>
      <trkpt lat="49.21413" lon="-0.01482">
        <ele>94.8</ele>
        <time>2015-09-03T09:36:44.000Z</time>
      </trkpt>
      <trkpt lat="49.21404" lon="-0.01475">
        <ele>95.4</ele>
        <time>2015-09-03T09:36:53.000Z</time>
      </trkpt>
      <trkpt lat="49.21396" lon="-0.01468">
        <ele>95.9</ele>
        <time>2015-09-03T09:37:02.000Z</time>
      </trkpt>
      <trkpt lat="49.21396" lon="-0.01454">
        <ele>97.8</ele>
        <time>2015-09-03T09:38:00.000Z</time>
      </trkpt>
      <trkpt lat="49.21398" lon="-0.0144">
        <ele>97.5</ele>
        <time>2015-09-03T09:38:11.000Z</time>
      </trkpt>
      <trkpt lat="49.21398" lon="-0.01426">
        <ele>96.6</ele>
        <time>2015-09-03T09:38:22.000Z</time>
      </trkpt>
      <trkpt lat="49.214" lon="-0.01411">
        <ele>96.1</ele>
        <time>2015-09-03T09:38:30.000Z</time>
      </trkpt>
      <trkpt lat="49.21397" lon="-0.01397">
        <ele>95</ele>
        <time>2015-09-03T09:38:40.000Z</time>
      </trkpt>
      <trkpt lat="49.21397" lon="-0.01382">
        <ele>94.2</ele>
        <time>2015-09-03T09:38:47.000Z</time>
      </trkpt>
      <trkpt lat="49.21396" lon="-0.01367">
        <ele>93.4</ele>
        <time>2015-09-03T09:38:56.000Z</time>
      </trkpt>
      <trkpt lat="49.21401" lon="-0.01351">
        <ele>92</ele>
        <time>2015-09-03T09:39:04.000Z</time>
      </trkpt>
      <trkpt lat="49.21405" lon="-0.01337">
        <ele>91.2</ele>
        <time>2015-09-03T09:39:12.000Z</time>
      </trkpt>
      <trkpt lat="49.21405" lon="-0.01323">
        <ele>90</ele>
        <time>2015-09-03T09:39:20.000Z</time>
      </trkpt>
      <trkpt lat="49.21407" lon="-0.01307">
        <ele>89.1</ele>
        <time>2015-09-03T09:39:28.000Z</time>
      </trkpt>
      <trkpt lat="49.21411" lon="-0.01295">
        <ele>88.6</ele>
        <time>2015-09-03T09:39:34.000Z</time>
      </trkpt>
      <trkpt lat="49.21414" lon="-0.01281">
        <ele>88</ele>
        <time>2015-09-03T09:39:40.000Z</time>
      </trkpt>
      <trkpt lat="49.21418" lon="-0.01268">
        <ele>87.3</ele>
        <time>2015-09-03T09:39:48.000Z</time>
      </trkpt>
      <trkpt lat="49.21424" lon="-0.01259">
        <ele>87</ele>
        <time>2015-09-03T09:39:57.000Z</time>
      </trkpt>
      <trkpt lat="49.21433" lon="-0.01254">
        <ele>87</ele>
        <time>2015-09-03T09:40:07.000Z</time>
      </trkpt>
      <trkpt lat="49.21443" lon="-0.0125">
        <ele>87.2</ele>
        <time>2015-09-03T09:40:15.000Z</time>
      </trkpt>
      <trkpt lat="49.21452" lon="-0.01244">
        <ele>87.3</ele>
        <time>2015-09-03T09:40:23.000Z</time>
      </trkpt>
      <trkpt lat="49.2146" lon="-0.01234">
        <ele>87.4</ele>
        <time>2015-09-03T09:40:31.000Z</time>
      </trkpt>
      <trkpt lat="49.21469" lon="-0.0123">
        <ele>87.5</ele>
        <time>2015-09-03T09:40:42.000Z</time>
      </trkpt>
      <trkpt lat="49.21479" lon="-0.01229">
        <ele>87.5</ele>
        <time>2015-09-03T09:40:51.000Z</time>
      </trkpt>
      <trkpt lat="49.21488" lon="-0.01226">
        <ele>87.5</ele>
        <time>2015-09-03T09:41:03.000Z</time>
      </trkpt>
      <trkpt lat="49.21497" lon="-0.01225">
        <ele>87.1</ele>
        <time>2015-09-03T09:41:13.000Z</time>
      </trkpt>
      <trkpt lat="49.21507" lon="-0.01223">
        <ele>86.4</ele>
        <time>2015-09-03T09:41:21.000Z</time>
      </trkpt>
      <trkpt lat="49.21517" lon="-0.0122">
        <ele>86</ele>
        <time>2015-09-03T09:41:27.000Z</time>
      </trkpt>
      <trkpt lat="49.21527" lon="-0.01218">
        <ele>85.7</ele>
        <time>2015-09-03T09:41:35.000Z</time>
      </trkpt>
      <trkpt lat="49.21536" lon="-0.01215">
        <ele>85.3</ele>
        <time>2015-09-03T09:41:43.000Z</time>
      </trkpt>
      <trkpt lat="49.21546" lon="-0.01214">
        <ele>85</ele>
        <time>2015-09-03T09:41:53.000Z</time>
      </trkpt>
      <trkpt lat="49.21555" lon="-0.01212">
        <ele>84.6</ele>
        <time>2015-09-03T09:42:02.000Z</time>
      </trkpt>
      <trkpt lat="49.21564" lon="-0.01208">
        <ele>84.1</ele>
        <time>2015-09-03T09:42:09.000Z</time>
      </trkpt>
      <trkpt lat="49.21573" lon="-0.01204">
        <ele>83.4</ele>
        <time>2015-09-03T09:42:17.000Z</time>
      </trkpt>
      <trkpt lat="49.21583" lon="-0.01199">
        <ele>83.1</ele>
        <time>2015-09-03T09:42:24.000Z</time>
      </trkpt>
      <trkpt lat="49.21593" lon="-0.01197">
        <ele>82.8</ele>
        <time>2015-09-03T09:42:33.000Z</time>
      </trkpt>
      <trkpt lat="49.21602" lon="-0.01195">
        <ele>82.7</ele>
        <time>2015-09-03T09:42:42.000Z</time>
      </trkpt>
      <trkpt lat="49.21611" lon="-0.01192">
        <ele>82.2</ele>
        <time>2015-09-03T09:42:52.000Z</time>
      </trkpt>
      <trkpt lat="49.21621" lon="-0.01186">
        <ele>81.9</ele>
        <time>2015-09-03T09:42:59.000Z</time>
      </trkpt>
      <trkpt lat="49.2163" lon="-0.01183">
        <ele>81.6</ele>
        <time>2015-09-03T09:43:10.000Z</time>
      </trkpt>
      <trkpt lat="49.21639" lon="-0.01177">
        <ele>81.5</ele>
        <time>2015-09-03T09:43:16.000Z</time>
      </trkpt>
      <trkpt lat="49.21648" lon="-0.01172">
        <ele>81.6</ele>
        <time>2015-09-03T09:43:25.000Z</time>
      </trkpt>
      <trkpt lat="49.21658" lon="-0.01172">
        <ele>81.2</ele>
        <time>2015-09-03T09:43:35.000Z</time>
      </trkpt>
      <trkpt lat="49.21667" lon="-0.01164">
        <ele>80.4</ele>
        <time>2015-09-03T09:43:46.000Z</time>
      </trkpt>
      <trkpt lat="49.21666" lon="-0.0115">
        <ele>79.7</ele>
        <time>2015-09-03T09:43:56.000Z</time>
      </trkpt>
      <trkpt lat="49.21667" lon="-0.01136">
        <ele>80.8</ele>
        <time>2015-09-03T09:44:14.000Z</time>
      </trkpt>
      <trkpt lat="49.21662" lon="-0.01123">
        <ele>81.2</ele>
        <time>2015-09-03T09:44:27.000Z</time>
      </trkpt>
      <trkpt lat="49.21654" lon="-0.01115">
        <ele>82</ele>
        <time>2015-09-03T09:44:39.000Z</time>
      </trkpt>
      <trkpt lat="49.21649" lon="-0.01103">
        <ele>82.7</ele>
        <time>2015-09-03T09:44:50.000Z</time>
      </trkpt>
      <trkpt lat="49.21642" lon="-0.01094">
        <ele>83.3</ele>
        <time>2015-09-03T09:45:02.000Z</time>
      </trkpt>
      <trkpt lat="49.21637" lon="-0.01083">
        <ele>84</ele>
        <time>2015-09-03T09:45:12.000Z</time>
      </trkpt>
      <trkpt lat="49.2163" lon="-0.01074">
        <ele>84.7</ele>
        <time>2015-09-03T09:45:22.000Z</time>
      </trkpt>
      <trkpt lat="49.21623" lon="-0.01064">
        <ele>85.4</ele>
        <time>2015-09-03T09:45:32.000Z</time>
      </trkpt>
      <trkpt lat="49.21615" lon="-0.01056">
        <ele>85.9</ele>
        <time>2015-09-03T09:45:40.000Z</time>
      </trkpt>
      <trkpt lat="49.21607" lon="-0.01048">
        <ele>86.2</ele>
        <time>2015-09-03T09:45:48.000Z</time>
      </trkpt>
      <trkpt lat="49.21601" lon="-0.01037">
        <ele>86.9</ele>
        <time>2015-09-03T09:46:03.000Z</time>
      </trkpt>
      <trkpt lat="49.21592" lon="-0.01031">
        <ele>88</ele>
        <time>2015-09-03T09:46:12.000Z</time>
      </trkpt>
      <trkpt lat="49.21584" lon="-0.01024">
        <ele>89.1</ele>
        <time>2015-09-03T09:46:24.000Z</time>
      </trkpt>
      <trkpt lat="49.21576" lon="-0.01015">
        <ele>89.6</ele>
        <time>2015-09-03T09:46:31.000Z</time>
      </trkpt>
      <trkpt lat="49.21572" lon="-0.01002">
        <ele>90.2</ele>
        <time>2015-09-03T09:46:44.000Z</time>
      </trkpt>
      <trkpt lat="49.21564" lon="-0.00996">
        <ele>90.9</ele>
        <time>2015-09-03T09:46:53.000Z</time>
      </trkpt>
      <trkpt lat="49.21557" lon="-0.00988">
        <ele>91.3</ele>
        <time>2015-09-03T09:47:00.000Z</time>
      </trkpt>
      <trkpt lat="49.2155" lon="-0.00978">
        <ele>92</ele>
        <time>2015-09-03T09:47:08.000Z</time>
      </trkpt>
      <trkpt lat="49.21546" lon="-0.00965">
        <ele>92.4</ele>
        <time>2015-09-03T09:47:14.000Z</time>
      </trkpt>
      <trkpt lat="49.21542" lon="-0.00953">
        <ele>93</ele>
        <time>2015-09-03T09:47:24.000Z</time>
      </trkpt>
      <trkpt lat="49.21536" lon="-0.00943">
        <ele>94.4</ele>
        <time>2015-09-03T09:47:36.000Z</time>
      </trkpt>
      <trkpt lat="49.21528" lon="-0.00936">
        <ele>95</ele>
        <time>2015-09-03T09:47:45.000Z</time>
      </trkpt>
      <trkpt lat="49.21521" lon="-0.00924">
        <ele>95.9</ele>
        <time>2015-09-03T09:48:02.000Z</time>
      </trkpt>
      <trkpt lat="49.21514" lon="-0.00915">
        <ele>97.1</ele>
        <time>2015-09-03T09:48:17.000Z</time>
      </trkpt>
      <trkpt lat="49.21506" lon="-0.00908">
        <ele>98.6</ele>
        <time>2015-09-03T09:48:29.000Z</time>
      </trkpt>
      <trkpt lat="49.21499" lon="-0.00898">
        <ele>100.8</ele>
        <time>2015-09-03T09:48:50.000Z</time>
      </trkpt>
      <trkpt lat="49.21491" lon="-0.0089">
        <ele>101.6</ele>
        <time>2015-09-03T09:48:58.000Z</time>
      </trkpt>
      <trkpt lat="49.21482" lon="-0.00885">
        <ele>102.8</ele>
        <time>2015-09-03T09:49:08.000Z</time>
      </trkpt>
      <trkpt lat="49.21473" lon="-0.00877">
        <ele>104.1</ele>
        <time>2015-09-03T09:49:20.000Z</time>
      </trkpt>
      <trkpt lat="49.21466" lon="-0.00869">
        <ele>104.7</ele>
        <time>2015-09-03T09:49:27.000Z</time>
      </trkpt>
      <trkpt lat="49.21457" lon="-0.00862">
        <ele>106.3</ele>
        <time>2015-09-03T09:49:38.000Z</time>
      </trkpt>
      <trkpt lat="49.21452" lon="-0.00851">
        <ele>107.1</ele>
        <time>2015-09-03T09:49:49.000Z</time>
      </trkpt>
      <trkpt lat="49.21448" lon="-0.00839">
        <ele>108.3</ele>
        <time>2015-09-03T09:50:03.000Z</time>
      </trkpt>
      <trkpt lat="49.21443" lon="-0.00825">
        <ele>108.6</ele>
        <time>2015-09-03T09:50:12.000Z</time>
      </trkpt>
      <trkpt lat="49.2144" lon="-0.0081">
        <ele>108.8</ele>
        <time>2015-09-03T09:50:22.000Z</time>
      </trkpt>
      <trkpt lat="49.21435" lon="-0.00798">
        <ele>108.5</ele>
        <time>2015-09-03T09:50:32.000Z</time>
      </trkpt>
      <trkpt lat="49.21431" lon="-0.00785">
        <ele>108.1</ele>
        <time>2015-09-03T09:50:44.000Z</time>
      </trkpt>
      <trkpt lat="49.21424" lon="-0.00775">
        <ele>107.5</ele>
        <time>2015-09-03T09:50:56.000Z</time>
      </trkpt>
      <trkpt lat="49.21419" lon="-0.00763">
        <ele>106.1</ele>
        <time>2015-09-03T09:51:14.000Z</time>
      </trkpt>
      <trkpt lat="49.2141" lon="-0.00761">
        <ele>105.7</ele>
        <time>2015-09-03T09:51:23.000Z</time>
      </trkpt>
      <trkpt lat="49.21401" lon="-0.00768">
        <ele>105.7</ele>
        <time>2015-09-03T09:51:39.000Z</time>
      </trkpt>
      <trkpt lat="49.21391" lon="-0.00772">
        <ele>106.5</ele>
        <time>2015-09-03T09:51:55.000Z</time>
      </trkpt>
      <trkpt lat="49.21384" lon="-0.00781">
        <ele>107.5</ele>
        <time>2015-09-03T09:52:10.000Z</time>
      </trkpt>
      <trkpt lat="49.21376" lon="-0.00791">
        <ele>108.5</ele>
        <time>2015-09-03T09:52:23.000Z</time>
      </trkpt>
      <trkpt lat="49.21372" lon="-0.00805">
        <ele>109.4</ele>
        <time>2015-09-03T09:52:31.000Z</time>
      </trkpt>
      <trkpt lat="49.21364" lon="-0.00812">
        <ele>111.2</ele>
        <time>2015-09-03T09:52:50.000Z</time>
      </trkpt>
      <trkpt lat="49.21356" lon="-0.0082">
        <ele>112.7</ele>
        <time>2015-09-03T09:53:02.000Z</time>
      </trkpt>
      <trkpt lat="49.21349" lon="-0.00829">
        <ele>114.2</ele>
        <time>2015-09-03T09:53:19.000Z</time>
      </trkpt>
      <trkpt lat="49.2134" lon="-0.00836">
        <ele>115.4</ele>
        <time>2015-09-03T09:53:32.000Z</time>
      </trkpt>
      <trkpt lat="49.21331" lon="-0.00841">
        <ele>118.6</ele>
        <time>2015-09-03T09:54:50.000Z</time>
      </trkpt>
      <trkpt lat="49.21323" lon="-0.00845">
        <ele>118.7</ele>
        <time>2015-09-03T09:55:02.000Z</time>
      </trkpt>
      <trkpt lat="49.21313" lon="-0.00851">
        <ele>119</ele>
        <time>2015-09-03T09:55:13.000Z</time>
      </trkpt>
      <trkpt lat="49.21304" lon="-0.00853">
        <ele>119.4</ele>
        <time>2015-09-03T09:55:21.000Z</time>
      </trkpt>
      <trkpt lat="49.21294" lon="-0.00852">
        <ele>120</ele>
        <time>2015-09-03T09:55:30.000Z</time>
      </trkpt>
      <trkpt lat="49.21284" lon="-0.00853">
        <ele>120.6</ele>
        <time>2015-09-03T09:55:38.000Z</time>
      </trkpt>
      <trkpt lat="49.21275" lon="-0.00854">
        <ele>120.9</ele>
        <time>2015-09-03T09:55:46.000Z</time>
      </trkpt>
      <trkpt lat="49.21265" lon="-0.00852">
        <ele>121.2</ele>
        <time>2015-09-03T09:55:54.000Z</time>
      </trkpt>
      <trkpt lat="49.21256" lon="-0.00853">
        <ele>121.6</ele>
        <time>2015-09-03T09:56:02.000Z</time>
      </trkpt>
      <trkpt lat="49.21246" lon="-0.00853">
        <ele>121.9</ele>
        <time>2015-09-03T09:56:09.000Z</time>
      </trkpt>
      <trkpt lat="49.21237" lon="-0.00853">
        <ele>122.2</ele>
        <time>2015-09-03T09:56:16.000Z</time>
      </trkpt>
      <trkpt lat="49.21227" lon="-0.00853">
        <ele>122.6</ele>
        <time>2015-09-03T09:56:24.000Z</time>
      </trkpt>
      <trkpt lat="49.21218" lon="-0.00853">
        <ele>123.1</ele>
        <time>2015-09-03T09:56:32.000Z</time>
      </trkpt>
      <trkpt lat="49.21208" lon="-0.00855">
        <ele>123.3</ele>
        <time>2015-09-03T09:56:40.000Z</time>
      </trkpt>
      <trkpt lat="49.21199" lon="-0.00855">
        <ele>123.5</ele>
        <time>2015-09-03T09:56:47.000Z</time>
      </trkpt>
      <trkpt lat="49.2119" lon="-0.00858">
        <ele>123.6</ele>
        <time>2015-09-03T09:56:55.000Z</time>
      </trkpt>
      <trkpt lat="49.21181" lon="-0.00865">
        <ele>123.7</ele>
        <time>2015-09-03T09:57:03.000Z</time>
      </trkpt>
      <trkpt lat="49.21172" lon="-0.00868">
        <ele>123.8</ele>
        <time>2015-09-03T09:57:12.000Z</time>
      </trkpt>
      <trkpt lat="49.21163" lon="-0.00871">
        <ele>123.9</ele>
        <time>2015-09-03T09:57:21.000Z</time>
      </trkpt>
      <trkpt lat="49.21153" lon="-0.00874">
        <ele>124</ele>
        <time>2015-09-03T09:57:29.000Z</time>
      </trkpt>
      <trkpt lat="49.21144" lon="-0.00878">
        <ele>124.2</ele>
        <time>2015-09-03T09:57:37.000Z</time>
      </trkpt>
      <trkpt lat="49.21134" lon="-0.00881">
        <ele>124.4</ele>
        <time>2015-09-03T09:57:46.000Z</time>
      </trkpt>
      <trkpt lat="49.21124" lon="-0.00886">
        <ele>124.5</ele>
        <time>2015-09-03T09:57:54.000Z</time>
      </trkpt>
      <trkpt lat="49.21115" lon="-0.00887">
        <ele>124.5</ele>
        <time>2015-09-03T09:58:02.000Z</time>
      </trkpt>
      <trkpt lat="49.21106" lon="-0.00889">
        <ele>124.5</ele>
        <time>2015-09-03T09:58:09.000Z</time>
      </trkpt>
      <trkpt lat="49.21097" lon="-0.00887">
        <ele>124.7</ele>
        <time>2015-09-03T09:58:19.000Z</time>
      </trkpt>
      <trkpt lat="49.21086" lon="-0.00885">
        <ele>124.9</ele>
        <time>2015-09-03T09:58:29.000Z</time>
      </trkpt>
      <trkpt lat="49.21076" lon="-0.00884">
        <ele>125.3</ele>
        <time>2015-09-03T09:58:38.000Z</time>
      </trkpt>
      <trkpt lat="49.21067" lon="-0.00879">
        <ele>125.6</ele>
        <time>2015-09-03T09:58:48.000Z</time>
      </trkpt>
      <trkpt lat="49.21057" lon="-0.0088">
        <ele>125.7</ele>
        <time>2015-09-03T09:58:58.000Z</time>
      </trkpt>
      <trkpt lat="49.21047" lon="-0.00879">
        <ele>125.8</ele>
        <time>2015-09-03T09:59:07.000Z</time>
      </trkpt>
      <trkpt lat="49.21038" lon="-0.00875">
        <ele>126</ele>
        <time>2015-09-03T09:59:14.000Z</time>
      </trkpt>
      <trkpt lat="49.21029" lon="-0.00874">
        <ele>126.2</ele>
        <time>2015-09-03T09:59:23.000Z</time>
      </trkpt>
      <trkpt lat="49.2102" lon="-0.0087">
        <ele>126.3</ele>
        <time>2015-09-03T09:59:31.000Z</time>
      </trkpt>
      <trkpt lat="49.21011" lon="-0.0087">
        <ele>126.4</ele>
        <time>2015-09-03T09:59:40.000Z</time>
      </trkpt>
      <trkpt lat="49.21001" lon="-0.0087">
        <ele>126.5</ele>
        <time>2015-09-03T09:59:51.000Z</time>
      </trkpt>
      <trkpt lat="49.20991" lon="-0.00867">
        <ele>127</ele>
        <time>2015-09-03T10:00:00.000Z</time>
      </trkpt>
      <trkpt lat="49.20982" lon="-0.00862">
        <ele>127.4</ele>
        <time>2015-09-03T10:00:10.000Z</time>
      </trkpt>
      <trkpt lat="49.20974" lon="-0.00859">
        <ele>127.6</ele>
        <time>2015-09-03T10:00:22.000Z</time>
      </trkpt>
      <trkpt lat="49.20965" lon="-0.00865">
        <ele>127.7</ele>
        <time>2015-09-03T10:00:43.000Z</time>
      </trkpt>
      <trkpt lat="49.20959" lon="-0.00876">
        <ele>127.8</ele>
        <time>2015-09-03T10:00:53.000Z</time>
      </trkpt>
      <trkpt lat="49.20954" lon="-0.00889">
        <ele>128.1</ele>
        <time>2015-09-03T10:01:02.000Z</time>
      </trkpt>
      <trkpt lat="49.20953" lon="-0.00904">
        <ele>128.8</ele>
        <time>2015-09-03T10:01:11.000Z</time>
      </trkpt>
      <trkpt lat="49.20951" lon="-0.00918">
        <ele>128.9</ele>
        <time>2015-09-03T10:01:19.000Z</time>
      </trkpt>
      <trkpt lat="49.20948" lon="-0.00933">
        <ele>129</ele>
        <time>2015-09-03T10:01:26.000Z</time>
      </trkpt>
      <trkpt lat="49.20946" lon="-0.00947">
        <ele>129.3</ele>
        <time>2015-09-03T10:01:33.000Z</time>
      </trkpt>
      <trkpt lat="49.20941" lon="-0.0096">
        <ele>129.4</ele>
        <time>2015-09-03T10:01:41.000Z</time>
      </trkpt>
      <trkpt lat="49.20937" lon="-0.00973">
        <ele>129.5</ele>
        <time>2015-09-03T10:01:48.000Z</time>
      </trkpt>
      <trkpt lat="49.20934" lon="-0.00986">
        <ele>129.9</ele>
        <time>2015-09-03T10:01:55.000Z</time>
      </trkpt>
      <trkpt lat="49.20932" lon="-0.01001">
        <ele>130.4</ele>
        <time>2015-09-03T10:02:03.000Z</time>
      </trkpt>
      <trkpt lat="49.2093" lon="-0.01016">
        <ele>130.6</ele>
        <time>2015-09-03T10:02:11.000Z</time>
      </trkpt>
      <trkpt lat="49.20927" lon="-0.01029">
        <ele>130.4</ele>
        <time>2015-09-03T10:02:19.000Z</time>
      </trkpt>
      <trkpt lat="49.20925" lon="-0.01043">
        <ele>130.5</ele>
        <time>2015-09-03T10:02:27.000Z</time>
      </trkpt>
      <trkpt lat="49.20923" lon="-0.01058">
        <ele>130.9</ele>
        <time>2015-09-03T10:02:36.000Z</time>
      </trkpt>
      <trkpt lat="49.20922" lon="-0.01073">
        <ele>131.2</ele>
        <time>2015-09-03T10:02:47.000Z</time>
      </trkpt>
      <trkpt lat="49.20921" lon="-0.01088">
        <ele>131.3</ele>
        <time>2015-09-03T10:02:56.000Z</time>
      </trkpt>
      <trkpt lat="49.2092" lon="-0.01103">
        <ele>131.2</ele>
        <time>2015-09-03T10:03:08.000Z</time>
      </trkpt>
      <trkpt lat="49.20917" lon="-0.01117">
        <ele>130.9</ele>
        <time>2015-09-03T10:03:16.000Z</time>
      </trkpt>
      <trkpt lat="49.20913" lon="-0.0113">
        <ele>130.7</ele>
        <time>2015-09-03T10:03:25.000Z</time>
      </trkpt>
      <trkpt lat="49.20912" lon="-0.01145">
        <ele>130.7</ele>
        <time>2015-09-03T10:03:33.000Z</time>
      </trkpt>
      <trkpt lat="49.20911" lon="-0.01159">
        <ele>130.8</ele>
        <time>2015-09-03T10:03:41.000Z</time>
      </trkpt>
      <trkpt lat="49.2091" lon="-0.01173">
        <ele>130.8</ele>
        <time>2015-09-03T10:03:49.000Z</time>
      </trkpt>
      <trkpt lat="49.2091" lon="-0.01187">
        <ele>131.1</ele>
        <time>2015-09-03T10:03:58.000Z</time>
      </trkpt>
      <trkpt lat="49.20909" lon="-0.01201">
        <ele>131</ele>
        <time>2015-09-03T10:04:06.000Z</time>
      </trkpt>
      <trkpt lat="49.20906" lon="-0.01216">
        <ele>131</ele>
        <time>2015-09-03T10:04:15.000Z</time>
      </trkpt>
      <trkpt lat="49.20905" lon="-0.0123">
        <ele>130.9</ele>
        <time>2015-09-03T10:04:23.000Z</time>
      </trkpt>
      <trkpt lat="49.20904" lon="-0.01246">
        <ele>131</ele>
        <time>2015-09-03T10:04:31.000Z</time>
      </trkpt>
      <trkpt lat="49.20901" lon="-0.01259">
        <ele>131.1</ele>
        <time>2015-09-03T10:04:38.000Z</time>
      </trkpt>
      <trkpt lat="49.20897" lon="-0.01273">
        <ele>131.4</ele>
        <time>2015-09-03T10:04:45.000Z</time>
      </trkpt>
      <trkpt lat="49.20895" lon="-0.01286">
        <ele>131.7</ele>
        <time>2015-09-03T10:04:52.000Z</time>
      </trkpt>
      <trkpt lat="49.20892" lon="-0.01302">
        <ele>132.1</ele>
        <time>2015-09-03T10:05:00.000Z</time>
      </trkpt>
      <trkpt lat="49.20889" lon="-0.01315">
        <ele>132.2</ele>
        <time>2015-09-03T10:05:08.000Z</time>
      </trkpt>
      <trkpt lat="49.20887" lon="-0.01329">
        <ele>132.2</ele>
        <time>2015-09-03T10:05:19.000Z</time>
      </trkpt>
      <trkpt lat="49.20885" lon="-0.01343">
        <ele>132.2</ele>
        <time>2015-09-03T10:05:28.000Z</time>
      </trkpt>
      <trkpt lat="49.20882" lon="-0.01356">
        <ele>132.1</ele>
        <time>2015-09-03T10:05:35.000Z</time>
      </trkpt>
      <trkpt lat="49.20878" lon="-0.0137">
        <ele>132.1</ele>
        <time>2015-09-03T10:05:43.000Z</time>
      </trkpt>
      <trkpt lat="49.20875" lon="-0.01385">
        <ele>132.2</ele>
        <time>2015-09-03T10:05:52.000Z</time>
      </trkpt>
      <trkpt lat="49.20869" lon="-0.01399">
        <ele>131.9</ele>
        <time>2015-09-03T10:06:00.000Z</time>
      </trkpt>
      <trkpt lat="49.20864" lon="-0.01411">
        <ele>131.8</ele>
        <time>2015-09-03T10:06:07.000Z</time>
      </trkpt>
      <trkpt lat="49.20858" lon="-0.01423">
        <ele>131.8</ele>
        <time>2015-09-03T10:06:13.000Z</time>
      </trkpt>
      <trkpt lat="49.20852" lon="-0.01434">
        <ele>131.7</ele>
        <time>2015-09-03T10:06:20.000Z</time>
      </trkpt>
      <trkpt lat="49.20849" lon="-0.01448">
        <ele>131.5</ele>
        <time>2015-09-03T10:06:28.000Z</time>
      </trkpt>
      <trkpt lat="49.20855" lon="-0.01459">
        <ele>131.2</ele>
        <time>2015-09-03T10:06:38.000Z</time>
      </trkpt>
      <trkpt lat="49.20862" lon="-0.01467">
        <ele>131</ele>
        <time>2015-09-03T10:06:46.000Z</time>
      </trkpt>
      <trkpt lat="49.20871" lon="-0.01473">
        <ele>130.8</ele>
        <time>2015-09-03T10:06:54.000Z</time>
      </trkpt>
      <trkpt lat="49.20881" lon="-0.01476">
        <ele>131</ele>
        <time>2015-09-03T10:07:04.000Z</time>
      </trkpt>
      <trkpt lat="49.2089" lon="-0.0148">
        <ele>130.7</ele>
        <time>2015-09-03T10:07:12.000Z</time>
      </trkpt>
      <trkpt lat="49.209" lon="-0.01483">
        <ele>130.6</ele>
        <time>2015-09-03T10:07:20.000Z</time>
      </trkpt>
      <trkpt lat="49.20909" lon="-0.01486">
        <ele>130.5</ele>
        <time>2015-09-03T10:07:27.000Z</time>
      </trkpt>
      <trkpt lat="49.20919" lon="-0.01489">
        <ele>130.4</ele>
        <time>2015-09-03T10:07:35.000Z</time>
      </trkpt>
      <trkpt lat="49.20929" lon="-0.01492">
        <ele>130.3</ele>
        <time>2015-09-03T10:07:43.000Z</time>
      </trkpt>
      <trkpt lat="49.20938" lon="-0.01493">
        <ele>130.3</ele>
        <time>2015-09-03T10:07:50.000Z</time>
      </trkpt>
      <trkpt lat="49.20948" lon="-0.01496">
        <ele>130</ele>
        <time>2015-09-03T10:07:58.000Z</time>
      </trkpt>
      <trkpt lat="49.20957" lon="-0.01498">
        <ele>129.5</ele>
        <time>2015-09-03T10:08:05.000Z</time>
      </trkpt>
      <trkpt lat="49.20966" lon="-0.01499">
        <ele>129.2</ele>
        <time>2015-09-03T10:08:13.000Z</time>
      </trkpt>
      <trkpt lat="49.20974" lon="-0.01505">
        <ele>128.9</ele>
        <time>2015-09-03T10:08:21.000Z</time>
      </trkpt>
      <trkpt lat="49.20972" lon="-0.0152">
        <ele>128.6</ele>
        <time>2015-09-03T10:08:30.000Z</time>
      </trkpt>
      <trkpt lat="49.20969" lon="-0.01534">
        <ele>128.1</ele>
        <time>2015-09-03T10:08:40.000Z</time>
      </trkpt>
      <trkpt lat="49.20964" lon="-0.01546">
        <ele>126.9</ele>
        <time>2015-09-03T10:08:56.000Z</time>
      </trkpt>
      <trkpt lat="49.20962" lon="-0.0156">
        <ele>125.7</ele>
        <time>2015-09-03T10:09:11.000Z</time>
      </trkpt>
      <trkpt lat="49.20962" lon="-0.01574">
        <ele>123.9</ele>
        <time>2015-09-03T10:09:27.000Z</time>
      </trkpt>
      <trkpt lat="49.20959" lon="-0.01588">
        <ele>121.4</ele>
        <time>2015-09-03T10:09:45.000Z</time>
      </trkpt>
      <trkpt lat="49.20961" lon="-0.01602">
        <ele>120.3</ele>
        <time>2015-09-03T10:09:56.000Z</time>
      </trkpt>
      <trkpt lat="49.20963" lon="-0.01616">
        <ele>118.4</ele>
        <time>2015-09-03T10:10:10.000Z</time>
      </trkpt>
      <trkpt lat="49.20965" lon="-0.0163">
        <ele>117.2</ele>
        <time>2015-09-03T10:10:22.000Z</time>
      </trkpt>
      <trkpt lat="49.20967" lon="-0.01644">
        <ele>115.8</ele>
        <time>2015-09-03T10:10:36.000Z</time>
      </trkpt>
      <trkpt lat="49.20967" lon="-0.01658">
        <ele>114.7</ele>
        <time>2015-09-03T10:10:47.000Z</time>
      </trkpt>
      <trkpt lat="49.20968" lon="-0.01673">
        <ele>113.7</ele>
        <time>2015-09-03T10:10:57.000Z</time>
      </trkpt>
      <trkpt lat="49.20969" lon="-0.01687">
        <ele>112.1</ele>
        <time>2015-09-03T10:11:09.000Z</time>
      </trkpt>
      <trkpt lat="49.2097" lon="-0.01701">
        <ele>111.4</ele>
        <time>2015-09-03T10:11:17.000Z</time>
      </trkpt>
      <trkpt lat="49.20971" lon="-0.01715">
        <ele>110.5</ele>
        <time>2015-09-03T10:11:24.000Z</time>
      </trkpt>
      <trkpt lat="49.20974" lon="-0.01728">
        <ele>109.6</ele>
        <time>2015-09-03T10:11:34.000Z</time>
      </trkpt>
      <trkpt lat="49.20979" lon="-0.01741">
        <ele>109.4</ele>
        <time>2015-09-03T10:11:45.000Z</time>
      </trkpt>
      <trkpt lat="49.20985" lon="-0.01751">
        <ele>110.2</ele>
        <time>2015-09-03T10:11:54.000Z</time>
      </trkpt>
      <trkpt lat="49.20991" lon="-0.01763">
        <ele>111</ele>
        <time>2015-09-03T10:12:03.000Z</time>
      </trkpt>
      <trkpt lat="49.20998" lon="-0.01773">
        <ele>111.2</ele>
        <time>2015-09-03T10:12:13.000Z</time>
      </trkpt>
      <trkpt lat="49.21003" lon="-0.01785">
        <ele>111.6</ele>
        <time>2015-09-03T10:12:21.000Z</time>
      </trkpt>
      <trkpt lat="49.21005" lon="-0.01799">
        <ele>112.9</ele>
        <time>2015-09-03T10:12:32.000Z</time>
      </trkpt>
      <trkpt lat="49.21004" lon="-0.01813">
        <ele>114.8</ele>
        <time>2015-09-03T10:12:44.000Z</time>
      </trkpt>
      <trkpt lat="49.21003" lon="-0.01828">
        <ele>116.8</ele>
        <time>2015-09-03T10:12:57.000Z</time>
      </trkpt>
      <trkpt lat="49.21" lon="-0.01841">
        <ele>118.4</ele>
        <time>2015-09-03T10:13:08.000Z</time>
      </trkpt>
      <trkpt lat="49.20997" lon="-0.01855">
        <ele>119.7</ele>
        <time>2015-09-03T10:13:18.000Z</time>
      </trkpt>
      <trkpt lat="49.20998" lon="-0.01869">
        <ele>121.1</ele>
        <time>2015-09-03T10:13:30.000Z</time>
      </trkpt>
      <trkpt lat="49.20998" lon="-0.01883">
        <ele>122.1</ele>
        <time>2015-09-03T10:13:38.000Z</time>
      </trkpt>
      <trkpt lat="49.20997" lon="-0.01897">
        <ele>122.8</ele>
        <time>2015-09-03T10:13:47.000Z</time>
      </trkpt>
      <trkpt lat="49.20995" lon="-0.01911">
        <ele>123.5</ele>
        <time>2015-09-03T10:13:56.000Z</time>
      </trkpt>
      <trkpt lat="49.20992" lon="-0.01925">
        <ele>124.2</ele>
        <time>2015-09-03T10:14:04.000Z</time>
      </trkpt>
      <trkpt lat="49.20992" lon="-0.0194">
        <ele>124.8</ele>
        <time>2015-09-03T10:14:13.000Z</time>
      </trkpt>
      <trkpt lat="49.20992" lon="-0.01955">
        <ele>125.5</ele>
        <time>2015-09-03T10:14:21.000Z</time>
      </trkpt>
      <trkpt lat="49.20994" lon="-0.0197">
        <ele>125.9</ele>
        <time>2015-09-03T10:14:29.000Z</time>
      </trkpt>
      <trkpt lat="49.20993" lon="-0.01985">
        <ele>126.1</ele>
        <time>2015-09-03T10:14:37.000Z</time>
      </trkpt>
      <trkpt lat="49.20996" lon="-0.02">
        <ele>126.3</ele>
        <time>2015-09-03T10:14:46.000Z</time>
      </trkpt>
      <trkpt lat="49.20998" lon="-0.02014">
        <ele>126.4</ele>
        <time>2015-09-03T10:14:54.000Z</time>
      </trkpt>
      <trkpt lat="49.21001" lon="-0.02028">
        <ele>126.3</ele>
        <time>2015-09-03T10:15:01.000Z</time>
      </trkpt>
      <trkpt lat="49.21005" lon="-0.02041">
        <ele>126.4</ele>
        <time>2015-09-03T10:15:09.000Z</time>
      </trkpt>
      <trkpt lat="49.21007" lon="-0.02054">
        <ele>126.4</ele>
        <time>2015-09-03T10:15:19.000Z</time>
      </trkpt>
      <trkpt lat="49.21007" lon="-0.02069">
        <ele>126.4</ele>
        <time>2015-09-03T10:15:29.000Z</time>
      </trkpt>
      <trkpt lat="49.21009" lon="-0.02083">
        <ele>127</ele>
        <time>2015-09-03T10:15:50.000Z</time>
      </trkpt>
      <trkpt lat="49.21012" lon="-0.02096">
        <ele>127.1</ele>
        <time>2015-09-03T10:16:03.000Z</time>
      </trkpt>
      <trkpt lat="49.21015" lon="-0.0211">
        <ele>127.2</ele>
        <time>2015-09-03T10:16:11.000Z</time>
      </trkpt>
      <trkpt lat="49.21019" lon="-0.02124">
        <ele>127.6</ele>
        <time>2015-09-03T10:16:20.000Z</time>
      </trkpt>
      <trkpt lat="49.21023" lon="-0.02137">
        <ele>128.1</ele>
        <time>2015-09-03T10:16:28.000Z</time>
      </trkpt>
      <trkpt lat="49.21025" lon="-0.02151">
        <ele>128.2</ele>
        <time>2015-09-03T10:16:37.000Z</time>
      </trkpt>
      <trkpt lat="49.21028" lon="-0.02164">
        <ele>128.2</ele>
        <time>2015-09-03T10:16:47.000Z</time>
      </trkpt>
      <trkpt lat="49.2102" lon="-0.02171">
        <ele>128.6</ele>
        <time>2015-09-03T10:17:13.000Z</time>
      </trkpt>
      <trkpt lat="49.21014" lon="-0.02159">
        <ele>128.8</ele>
        <time>2015-09-03T10:17:24.000Z</time>
      </trkpt>
      <trkpt lat="49.21007" lon="-0.02149">
        <ele>129.1</ele>
        <time>2015-09-03T10:17:34.000Z</time>
      </trkpt>
      <trkpt lat="49.20998" lon="-0.02141">
        <ele>129.5</ele>
        <time>2015-09-03T10:17:44.000Z</time>
      </trkpt>
      <trkpt lat="49.20989" lon="-0.02136">
        <ele>129.9</ele>
        <time>2015-09-03T10:17:54.000Z</time>
      </trkpt>
      <trkpt lat="49.20979" lon="-0.02133">
        <ele>130</ele>
        <time>2015-09-03T10:18:02.000Z</time>
      </trkpt>
      <trkpt lat="49.2097" lon="-0.02128">
        <ele>130.2</ele>
        <time>2015-09-03T10:18:12.000Z</time>
      </trkpt>
      <trkpt lat="49.20961" lon="-0.02127">
        <ele>130.3</ele>
        <time>2015-09-03T10:18:21.000Z</time>
      </trkpt>
      <trkpt lat="49.20951" lon="-0.02126">
        <ele>130.9</ele>
        <time>2015-09-03T10:18:31.000Z</time>
      </trkpt>
      <trkpt lat="49.20941" lon="-0.02126">
        <ele>131.3</ele>
        <time>2015-09-03T10:18:41.000Z</time>
      </trkpt>
      <trkpt lat="49.20932" lon="-0.02125">
        <ele>131.5</ele>
        <time>2015-09-03T10:18:49.000Z</time>
      </trkpt>
      <trkpt lat="49.20923" lon="-0.02126">
        <ele>131.6</ele>
        <time>2015-09-03T10:18:58.000Z</time>
      </trkpt>
      <trkpt lat="49.20913" lon="-0.02127">
        <ele>131.7</ele>
        <time>2015-09-03T10:19:05.000Z</time>
      </trkpt>
      <trkpt lat="49.20904" lon="-0.02128">
        <ele>132.2</ele>
        <time>2015-09-03T10:19:12.000Z</time>
      </trkpt>
      <trkpt lat="49.20894" lon="-0.02128">
        <ele>132.6</ele>
        <time>2015-09-03T10:19:19.000Z</time>
      </trkpt>
      <trkpt lat="49.20885" lon="-0.02127">
        <ele>132.7</ele>
        <time>2015-09-03T10:19:28.000Z</time>
      </trkpt>
      <trkpt lat="49.20875" lon="-0.02129">
        <ele>132.5</ele>
        <time>2015-09-03T10:19:35.000Z</time>
      </trkpt>
      <trkpt lat="49.20866" lon="-0.0213">
        <ele>132.6</ele>
        <time>2015-09-03T10:19:42.000Z</time>
      </trkpt>
      <trkpt lat="49.20857" lon="-0.02129">
        <ele>132.9</ele>
        <time>2015-09-03T10:19:51.000Z</time>
      </trkpt>
      <trkpt lat="49.20847" lon="-0.0213">
        <ele>133.2</ele>
        <time>2015-09-03T10:19:59.000Z</time>
      </trkpt>
      <trkpt lat="49.20837" lon="-0.0213">
        <ele>133.3</ele>
        <time>2015-09-03T10:20:08.000Z</time>
      </trkpt>
      <trkpt lat="49.20828" lon="-0.02131">
        <ele>133.3</ele>
        <time>2015-09-03T10:20:18.000Z</time>
      </trkpt>
      <trkpt lat="49.20821" lon="-0.02141">
        <ele>133.3</ele>
        <time>2015-09-03T10:20:28.000Z</time>
      </trkpt>
      <trkpt lat="49.20823" lon="-0.02156">
        <ele>133.6</ele>
        <time>2015-09-03T10:20:39.000Z</time>
      </trkpt>
      <trkpt lat="49.20826" lon="-0.02169">
        <ele>133.8</ele>
        <time>2015-09-03T10:20:50.000Z</time>
      </trkpt>
      <trkpt lat="49.20831" lon="-0.02182">
        <ele>134</ele>
        <time>2015-09-03T10:20:59.000Z</time>
      </trkpt>
      <trkpt lat="49.20835" lon="-0.02196">
        <ele>134</ele>
        <time>2015-09-03T10:21:08.000Z</time>
      </trkpt>
      <trkpt lat="49.20838" lon="-0.0221">
        <ele>134</ele>
        <time>2015-09-03T10:21:17.000Z</time>
      </trkpt>
      <trkpt lat="49.20842" lon="-0.02222">
        <ele>134.3</ele>
        <time>2015-09-03T10:21:25.000Z</time>
      </trkpt>
      <trkpt lat="49.20846" lon="-0.02236">
        <ele>134.4</ele>
        <time>2015-09-03T10:21:35.000Z</time>
      </trkpt>
      <trkpt lat="49.20849" lon="-0.02249">
        <ele>134.1</ele>
        <time>2015-09-03T10:21:44.000Z</time>
      </trkpt>
      <trkpt lat="49.20853" lon="-0.02261">
        <ele>134.1</ele>
        <time>2015-09-03T10:21:52.000Z</time>
      </trkpt>
      <trkpt lat="49.20858" lon="-0.02275">
        <ele>134.1</ele>
        <time>2015-09-03T10:22:00.000Z</time>
      </trkpt>
      <trkpt lat="49.20861" lon="-0.02288">
        <ele>134.2</ele>
        <time>2015-09-03T10:22:12.000Z</time>
      </trkpt>
      <trkpt lat="49.20864" lon="-0.02302">
        <ele>134.3</ele>
        <time>2015-09-03T10:22:20.000Z</time>
      </trkpt>
      <trkpt lat="49.20868" lon="-0.02316">
        <ele>134.2</ele>
        <time>2015-09-03T10:22:28.000Z</time>
      </trkpt>
      <trkpt lat="49.20872" lon="-0.02328">
        <ele>134.1</ele>
        <time>2015-09-03T10:22:36.000Z</time>
      </trkpt>
      <trkpt lat="49.20875" lon="-0.02342">
        <ele>134.2</ele>
        <time>2015-09-03T10:22:45.000Z</time>
      </trkpt>
      <trkpt lat="49.20878" lon="-0.02355">
        <ele>134.2</ele>
        <time>2015-09-03T10:22:53.000Z</time>
      </trkpt>
      <trkpt lat="49.20881" lon="-0.02369">
        <ele>134.2</ele>
        <time>2015-09-03T10:23:02.000Z</time>
      </trkpt>
      <trkpt lat="49.20884" lon="-0.02384">
        <ele>134.2</ele>
        <time>2015-09-03T10:23:10.000Z</time>
      </trkpt>
      <trkpt lat="49.20887" lon="-0.02397">
        <ele>134.2</ele>
        <time>2015-09-03T10:23:17.000Z</time>
      </trkpt>
      <trkpt lat="49.2089" lon="-0.02412">
        <ele>134.2</ele>
        <time>2015-09-03T10:23:25.000Z</time>
      </trkpt>
      <trkpt lat="49.20893" lon="-0.02426">
        <ele>134.2</ele>
        <time>2015-09-03T10:23:33.000Z</time>
      </trkpt>
      <trkpt lat="49.20897" lon="-0.02439">
        <ele>134.2</ele>
        <time>2015-09-03T10:23:43.000Z</time>
      </trkpt>
      <trkpt lat="49.20899" lon="-0.02453">
        <ele>134.2</ele>
        <time>2015-09-03T10:23:51.000Z</time>
      </trkpt>
      <trkpt lat="49.209" lon="-0.02467">
        <ele>134.3</ele>
        <time>2015-09-03T10:23:59.000Z</time>
      </trkpt>
      <trkpt lat="49.20901" lon="-0.02481">
        <ele>134.3</ele>
        <time>2015-09-03T10:24:06.000Z</time>
      </trkpt>
      <trkpt lat="49.209" lon="-0.02495">
        <ele>134.3</ele>
        <time>2015-09-03T10:24:14.000Z</time>
      </trkpt>
      <trkpt lat="49.209" lon="-0.02509">
        <ele>134.2</ele>
        <time>2015-09-03T10:24:23.000Z</time>
      </trkpt>
      <trkpt lat="49.209" lon="-0.02523">
        <ele>134.3</ele>
        <time>2015-09-03T10:24:32.000Z</time>
      </trkpt>
      <trkpt lat="49.20901" lon="-0.02539">
        <ele>134.4</ele>
        <time>2015-09-03T10:24:41.000Z</time>
      </trkpt>
      <trkpt lat="49.20899" lon="-0.02554">
        <ele>134.3</ele>
        <time>2015-09-03T10:24:50.000Z</time>
      </trkpt>
      <trkpt lat="49.20899" lon="-0.02568">
        <ele>134.2</ele>
        <time>2015-09-03T10:24:59.000Z</time>
      </trkpt>
      <trkpt lat="49.20898" lon="-0.02582">
        <ele>134</ele>
        <time>2015-09-03T10:25:07.000Z</time>
      </trkpt>
      <trkpt lat="49.20897" lon="-0.02596">
        <ele>133.8</ele>
        <time>2015-09-03T10:25:16.000Z</time>
      </trkpt>
      <trkpt lat="49.20895" lon="-0.0261">
        <ele>134.1</ele>
        <time>2015-09-03T10:25:26.000Z</time>
      </trkpt>
      <trkpt lat="49.20895" lon="-0.02624">
        <ele>134.5</ele>
        <time>2015-09-03T10:25:35.000Z</time>
      </trkpt>
      <trkpt lat="49.20893" lon="-0.02639">
        <ele>134.7</ele>
        <time>2015-09-03T10:25:44.000Z</time>
      </trkpt>
      <trkpt lat="49.20892" lon="-0.02653">
        <ele>135</ele>
        <time>2015-09-03T10:25:52.000Z</time>
      </trkpt>
      <trkpt lat="49.20892" lon="-0.02668">
        <ele>135.2</ele>
        <time>2015-09-03T10:26:01.000Z</time>
      </trkpt>
      <trkpt lat="49.20891" lon="-0.02682">
        <ele>134.8</ele>
        <time>2015-09-03T10:26:09.000Z</time>
      </trkpt>
      <trkpt lat="49.20891" lon="-0.02696">
        <ele>134.6</ele>
        <time>2015-09-03T10:26:17.000Z</time>
      </trkpt>
      <trkpt lat="49.20888" lon="-0.0271">
        <ele>134.5</ele>
        <time>2015-09-03T10:26:25.000Z</time>
      </trkpt>
      <trkpt lat="49.20886" lon="-0.02725">
        <ele>134.7</ele>
        <time>2015-09-03T10:26:34.000Z</time>
      </trkpt>
      <trkpt lat="49.20888" lon="-0.02739">
        <ele>134.7</ele>
        <time>2015-09-03T10:26:44.000Z</time>
      </trkpt>
      <trkpt lat="49.2089" lon="-0.02752">
        <ele>134.7</ele>
        <time>2015-09-03T10:26:52.000Z</time>
      </trkpt>
      <trkpt lat="49.20887" lon="-0.02767">
        <ele>134.7</ele>
        <time>2015-09-03T10:27:01.000Z</time>
      </trkpt>
      <trkpt lat="49.20885" lon="-0.02781">
        <ele>134.7</ele>
        <time>2015-09-03T10:27:09.000Z</time>
      </trkpt>
      <trkpt lat="49.20884" lon="-0.02795">
        <ele>134.6</ele>
        <time>2015-09-03T10:27:18.000Z</time>
      </trkpt>
      <trkpt lat="49.20882" lon="-0.02809">
        <ele>134.6</ele>
        <time>2015-09-03T10:27:26.000Z</time>
      </trkpt>
      <trkpt lat="49.20882" lon="-0.02825">
        <ele>134.7</ele>
        <time>2015-09-03T10:27:34.000Z</time>
      </trkpt>
      <trkpt lat="49.2088" lon="-0.02839">
        <ele>134.6</ele>
        <time>2015-09-03T10:27:43.000Z</time>
      </trkpt>
      <trkpt lat="49.20879" lon="-0.02854">
        <ele>134.5</ele>
        <time>2015-09-03T10:27:52.000Z</time>
      </trkpt>
      <trkpt lat="49.20878" lon="-0.02868">
        <ele>134.6</ele>
        <time>2015-09-03T10:28:02.000Z</time>
      </trkpt>
      <trkpt lat="49.20878" lon="-0.02883">
        <ele>134.8</ele>
        <time>2015-09-03T10:28:11.000Z</time>
      </trkpt>
      <trkpt lat="49.20877" lon="-0.02897">
        <ele>134.9</ele>
        <time>2015-09-03T10:28:21.000Z</time>
      </trkpt>
      <trkpt lat="49.20874" lon="-0.02912">
        <ele>134.9</ele>
        <time>2015-09-03T10:28:30.000Z</time>
      </trkpt>
      <trkpt lat="49.20873" lon="-0.02927">
        <ele>134.9</ele>
        <time>2015-09-03T10:28:38.000Z</time>
      </trkpt>
      <trkpt lat="49.20872" lon="-0.02941">
        <ele>134.9</ele>
        <time>2015-09-03T10:28:46.000Z</time>
      </trkpt>
      <trkpt lat="49.2087" lon="-0.02956">
        <ele>135.3</ele>
        <time>2015-09-03T10:28:55.000Z</time>
      </trkpt>
      <trkpt lat="49.20872" lon="-0.02971">
        <ele>135.4</ele>
        <time>2015-09-03T10:29:04.000Z</time>
      </trkpt>
      <trkpt lat="49.20872" lon="-0.02986">
        <ele>135.4</ele>
        <time>2015-09-03T10:29:13.000Z</time>
      </trkpt>
      <trkpt lat="49.20874" lon="-0.03001">
        <ele>135.3</ele>
        <time>2015-09-03T10:29:22.000Z</time>
      </trkpt>
      <trkpt lat="49.20875" lon="-0.03015">
        <ele>135.1</ele>
        <time>2015-09-03T10:29:31.000Z</time>
      </trkpt>
      <trkpt lat="49.20877" lon="-0.0303">
        <ele>134.8</ele>
        <time>2015-09-03T10:29:40.000Z</time>
      </trkpt>
      <trkpt lat="49.20878" lon="-0.03043">
        <ele>134.7</ele>
        <time>2015-09-03T10:29:48.000Z</time>
      </trkpt>
      <trkpt lat="49.20884" lon="-0.03056">
        <ele>134.6</ele>
        <time>2015-09-03T10:29:56.000Z</time>
      </trkpt>
      <trkpt lat="49.20888" lon="-0.03068">
        <ele>134.4</ele>
        <time>2015-09-03T10:30:04.000Z</time>
      </trkpt>
      <trkpt lat="49.20892" lon="-0.03081">
        <ele>134.6</ele>
        <time>2015-09-03T10:30:12.000Z</time>
      </trkpt>
      <trkpt lat="49.20896" lon="-0.03095">
        <ele>134.6</ele>
        <time>2015-09-03T10:30:20.000Z</time>
      </trkpt>
      <trkpt lat="49.20899" lon="-0.03109">
        <ele>134.7</ele>
        <time>2015-09-03T10:30:27.000Z</time>
      </trkpt>
      <trkpt lat="49.20903" lon="-0.03122">
        <ele>134.6</ele>
        <time>2015-09-03T10:30:35.000Z</time>
      </trkpt>
      <trkpt lat="49.20908" lon="-0.03136">
        <ele>134.6</ele>
        <time>2015-09-03T10:30:43.000Z</time>
      </trkpt>
      <trkpt lat="49.20912" lon="-0.0315">
        <ele>134.5</ele>
        <time>2015-09-03T10:30:51.000Z</time>
      </trkpt>
      <trkpt lat="49.20916" lon="-0.03162">
        <ele>134.4</ele>
        <time>2015-09-03T10:30:59.000Z</time>
      </trkpt>
      <trkpt lat="49.2092" lon="-0.03175">
        <ele>134.5</ele>
        <time>2015-09-03T10:31:05.000Z</time>
      </trkpt>
      <trkpt lat="49.20923" lon="-0.03189">
        <ele>134.6</ele>
        <time>2015-09-03T10:31:12.000Z</time>
      </trkpt>
      <trkpt lat="49.20927" lon="-0.03203">
        <ele>134.7</ele>
        <time>2015-09-03T10:31:19.000Z</time>
      </trkpt>
      <trkpt lat="49.20932" lon="-0.03215">
        <ele>134.7</ele>
        <time>2015-09-03T10:31:26.000Z</time>
      </trkpt>
      <trkpt lat="49.20935" lon="-0.03228">
        <ele>134.7</ele>
        <time>2015-09-03T10:31:33.000Z</time>
      </trkpt>
      <trkpt lat="49.20938" lon="-0.03243">
        <ele>134.3</ele>
        <time>2015-09-03T10:31:41.000Z</time>
      </trkpt>
      <trkpt lat="49.20942" lon="-0.03255">
        <ele>134.1</ele>
        <time>2015-09-03T10:31:47.000Z</time>
      </trkpt>
      <trkpt lat="49.20947" lon="-0.03268">
        <ele>133.9</ele>
        <time>2015-09-03T10:31:55.000Z</time>
      </trkpt>
      <trkpt lat="49.20941" lon="-0.03278">
        <ele>133.7</ele>
        <time>2015-09-03T10:32:09.000Z</time>
      </trkpt>
      <trkpt lat="49.20932" lon="-0.03284">
        <ele>133.7</ele>
        <time>2015-09-03T10:32:20.000Z</time>
      </trkpt>
      <trkpt lat="49.20923" lon="-0.03286">
        <ele>133.6</ele>
        <time>2015-09-03T10:32:30.000Z</time>
      </trkpt>
      <trkpt lat="49.20913" lon="-0.03284">
        <ele>133.6</ele>
        <time>2015-09-03T10:32:44.000Z</time>
      </trkpt>
      <trkpt lat="49.20903" lon="-0.03279">
        <ele>133.9</ele>
        <time>2015-09-03T10:32:58.000Z</time>
      </trkpt>
      <trkpt lat="49.20895" lon="-0.03273">
        <ele>134.2</ele>
        <time>2015-09-03T10:33:12.000Z</time>
      </trkpt>
      <trkpt lat="49.20886" lon="-0.03273">
        <ele>134.3</ele>
        <time>2015-09-03T10:33:22.000Z</time>
      </trkpt>
      <trkpt lat="49.20877" lon="-0.03272">
        <ele>134.4</ele>
        <time>2015-09-03T10:33:31.000Z</time>
      </trkpt>
      <trkpt lat="49.20868" lon="-0.03268">
        <ele>134.4</ele>
        <time>2015-09-03T10:33:41.000Z</time>
      </trkpt>
      <trkpt lat="49.20859" lon="-0.03267">
        <ele>134.4</ele>
        <time>2015-09-03T10:33:50.000Z</time>
      </trkpt>
      <trkpt lat="49.20849" lon="-0.03265">
        <ele>134.4</ele>
        <time>2015-09-03T10:33:58.000Z</time>
      </trkpt>
      <trkpt lat="49.20841" lon="-0.03259">
        <ele>134.7</ele>
        <time>2015-09-03T10:34:05.000Z</time>
      </trkpt>
      <trkpt lat="49.20835" lon="-0.03248">
        <ele>135.1</ele>
        <time>2015-09-03T10:34:15.000Z</time>
      </trkpt>
      <trkpt lat="49.20826" lon="-0.03243">
        <ele>135.3</ele>
        <time>2015-09-03T10:34:24.000Z</time>
      </trkpt>
      <trkpt lat="49.20817" lon="-0.03237">
        <ele>135.3</ele>
        <time>2015-09-03T10:34:34.000Z</time>
      </trkpt>
      <trkpt lat="49.20809" lon="-0.03234">
        <ele>135.3</ele>
        <time>2015-09-03T10:34:41.000Z</time>
      </trkpt>
      <trkpt lat="49.20799" lon="-0.03233">
        <ele>135.2</ele>
        <time>2015-09-03T10:34:49.000Z</time>
      </trkpt>
      <trkpt lat="49.2079" lon="-0.03231">
        <ele>135.1</ele>
        <time>2015-09-03T10:34:57.000Z</time>
      </trkpt>
      <trkpt lat="49.2078" lon="-0.03229">
        <ele>134.8</ele>
        <time>2015-09-03T10:35:06.000Z</time>
      </trkpt>
      <trkpt lat="49.20771" lon="-0.0323">
        <ele>134.6</ele>
        <time>2015-09-03T10:35:14.000Z</time>
      </trkpt>
      <trkpt lat="49.20761" lon="-0.0323">
        <ele>134.7</ele>
        <time>2015-09-03T10:35:21.000Z</time>
      </trkpt>
      <trkpt lat="49.20752" lon="-0.03229">
        <ele>134.6</ele>
        <time>2015-09-03T10:35:30.000Z</time>
      </trkpt>
      <trkpt lat="49.20742" lon="-0.03228">
        <ele>134.1</ele>
        <time>2015-09-03T10:35:41.000Z</time>
      </trkpt>
      <trkpt lat="49.20734" lon="-0.03225">
        <ele>134</ele>
        <time>2015-09-03T10:35:53.000Z</time>
      </trkpt>
      <trkpt lat="49.20724" lon="-0.03224">
        <ele>133.9</ele>
        <time>2015-09-03T10:36:04.000Z</time>
      </trkpt>
      <trkpt lat="49.20715" lon="-0.03225">
        <ele>133.7</ele>
        <time>2015-09-03T10:36:17.000Z</time>
      </trkpt>
      <trkpt lat="49.20706" lon="-0.03226">
        <ele>132.7</ele>
        <time>2015-09-03T10:36:38.000Z</time>
      </trkpt>
      <trkpt lat="49.20702" lon="-0.03224">
        <ele>132.7</ele>
        <time>2015-09-03T10:37:16.000Z</time>
      </trkpt>
      <trkpt lat="49.20692" lon="-0.03224">
        <ele>134.4</ele>
        <time>2015-09-03T11:23:01.000Z</time>
      </trkpt>
      <trkpt lat="49.20683" lon="-0.03224">
        <ele>134.1</ele>
        <time>2015-09-03T11:23:28.000Z</time>
      </trkpt>
      <trkpt lat="49.20678" lon="-0.03212">
        <ele>133.6</ele>
        <time>2015-09-03T11:23:46.000Z</time>
      </trkpt>
      <trkpt lat="49.20674" lon="-0.03198">
        <ele>133.5</ele>
        <time>2015-09-03T11:23:55.000Z</time>
      </trkpt>
      <trkpt lat="49.20671" lon="-0.03185">
        <ele>133.4</ele>
        <time>2015-09-03T11:24:07.000Z</time>
      </trkpt>
      <trkpt lat="49.2067" lon="-0.03172">
        <ele>133.3</ele>
        <time>2015-09-03T11:24:18.000Z</time>
      </trkpt>
      <trkpt lat="49.20664" lon="-0.03159">
        <ele>133.2</ele>
        <time>2015-09-03T11:24:28.000Z</time>
      </trkpt>
      <trkpt lat="49.20666" lon="-0.03145">
        <ele>133.3</ele>
        <time>2015-09-03T11:24:45.000Z</time>
      </trkpt>
      <trkpt lat="49.20662" lon="-0.03132">
        <ele>133.2</ele>
        <time>2015-09-03T11:24:53.000Z</time>
      </trkpt>
      <trkpt lat="49.20662" lon="-0.03118">
        <ele>133.2</ele>
        <time>2015-09-03T11:25:01.000Z</time>
      </trkpt>
      <trkpt lat="49.20659" lon="-0.03103">
        <ele>133.2</ele>
        <time>2015-09-03T11:25:13.000Z</time>
      </trkpt>
      <trkpt lat="49.20658" lon="-0.03089">
        <ele>133.7</ele>
        <time>2015-09-03T11:25:22.000Z</time>
      </trkpt>
      <trkpt lat="49.20658" lon="-0.03074">
        <ele>134</ele>
        <time>2015-09-03T11:25:29.000Z</time>
      </trkpt>
      <trkpt lat="49.20656" lon="-0.03059">
        <ele>133.9</ele>
        <time>2015-09-03T11:25:37.000Z</time>
      </trkpt>
      <trkpt lat="49.20654" lon="-0.03046">
        <ele>133.7</ele>
        <time>2015-09-03T11:25:48.000Z</time>
      </trkpt>
      <trkpt lat="49.20649" lon="-0.03032">
        <ele>133.6</ele>
        <time>2015-09-03T11:25:56.000Z</time>
      </trkpt>
      <trkpt lat="49.20644" lon="-0.03019">
        <ele>133.6</ele>
        <time>2015-09-03T11:26:02.000Z</time>
      </trkpt>
      <trkpt lat="49.2064" lon="-0.03006">
        <ele>133.5</ele>
        <time>2015-09-03T11:26:10.000Z</time>
      </trkpt>
      <trkpt lat="49.20637" lon="-0.0299">
        <ele>133.4</ele>
        <time>2015-09-03T11:26:20.000Z</time>
      </trkpt>
      <trkpt lat="49.20632" lon="-0.02978">
        <ele>132.8</ele>
        <time>2015-09-03T11:26:27.000Z</time>
      </trkpt>
      <trkpt lat="49.20626" lon="-0.02966">
        <ele>132</ele>
        <time>2015-09-03T11:26:36.000Z</time>
      </trkpt>
      <trkpt lat="49.20622" lon="-0.02952">
        <ele>131.7</ele>
        <time>2015-09-03T11:26:44.000Z</time>
      </trkpt>
      <trkpt lat="49.20618" lon="-0.02939">
        <ele>131.6</ele>
        <time>2015-09-03T11:26:54.000Z</time>
      </trkpt>
      <trkpt lat="49.2061" lon="-0.02931">
        <ele>131.2</ele>
        <time>2015-09-03T11:27:02.000Z</time>
      </trkpt>
      <trkpt lat="49.20601" lon="-0.02935">
        <ele>130.6</ele>
        <time>2015-09-03T11:27:14.000Z</time>
      </trkpt>
      <trkpt lat="49.20595" lon="-0.02946">
        <ele>130.2</ele>
        <time>2015-09-03T11:27:27.000Z</time>
      </trkpt>
      <trkpt lat="49.20592" lon="-0.0296">
        <ele>129.9</ele>
        <time>2015-09-03T11:27:39.000Z</time>
      </trkpt>
      <trkpt lat="49.20587" lon="-0.02971">
        <ele>129.5</ele>
        <time>2015-09-03T11:27:46.000Z</time>
      </trkpt>
      <trkpt lat="49.2058" lon="-0.02981">
        <ele>128.9</ele>
        <time>2015-09-03T11:27:55.000Z</time>
      </trkpt>
      <trkpt lat="49.20577" lon="-0.02996">
        <ele>128.3</ele>
        <time>2015-09-03T11:28:08.000Z</time>
      </trkpt>
      <trkpt lat="49.20572" lon="-0.03011">
        <ele>127.8</ele>
        <time>2015-09-03T11:28:15.000Z</time>
      </trkpt>
      <trkpt lat="49.20569" lon="-0.03026">
        <ele>127.3</ele>
        <time>2015-09-03T11:28:22.000Z</time>
      </trkpt>
      <trkpt lat="49.20568" lon="-0.03041">
        <ele>127.1</ele>
        <time>2015-09-03T11:28:29.000Z</time>
      </trkpt>
      <trkpt lat="49.20566" lon="-0.03056">
        <ele>126.9</ele>
        <time>2015-09-03T11:28:38.000Z</time>
      </trkpt>
      <trkpt lat="49.20564" lon="-0.03071">
        <ele>126.8</ele>
        <time>2015-09-03T11:28:46.000Z</time>
      </trkpt>
      <trkpt lat="49.20558" lon="-0.03084">
        <ele>126.6</ele>
        <time>2015-09-03T11:28:54.000Z</time>
      </trkpt>
      <trkpt lat="49.20553" lon="-0.03096">
        <ele>126.2</ele>
        <time>2015-09-03T11:29:02.000Z</time>
      </trkpt>
      <trkpt lat="49.20545" lon="-0.03103">
        <ele>125.8</ele>
        <time>2015-09-03T11:29:09.000Z</time>
      </trkpt>
      <trkpt lat="49.20538" lon="-0.03113">
        <ele>124.7</ele>
        <time>2015-09-03T11:29:20.000Z</time>
      </trkpt>
      <trkpt lat="49.20529" lon="-0.03119">
        <ele>123.4</ele>
        <time>2015-09-03T11:29:32.000Z</time>
      </trkpt>
      <trkpt lat="49.2052" lon="-0.03118">
        <ele>122.7</ele>
        <time>2015-09-03T11:29:44.000Z</time>
      </trkpt>
      <trkpt lat="49.20513" lon="-0.03129">
        <ele>122</ele>
        <time>2015-09-03T11:30:11.000Z</time>
      </trkpt>
      <trkpt lat="49.20501" lon="-0.03145">
        <ele>121</ele>
        <time>2015-09-03T11:30:19.000Z</time>
      </trkpt>
      <trkpt lat="49.20501" lon="-0.03129">
        <ele>121.8</ele>
        <time>2015-09-03T11:30:42.000Z</time>
      </trkpt>
      <trkpt lat="49.2051" lon="-0.03123">
        <ele>121.8</ele>
        <time>2015-09-03T11:30:47.000Z</time>
      </trkpt>
      <trkpt lat="49.2051" lon="-0.03109">
        <ele>122</ele>
        <time>2015-09-03T11:31:12.000Z</time>
      </trkpt>
      <trkpt lat="49.20501" lon="-0.03106">
        <ele>121.9</ele>
        <time>2015-09-03T11:31:34.000Z</time>
      </trkpt>
      <trkpt lat="49.20506" lon="-0.03118">
        <ele>121.9</ele>
        <time>2015-09-03T11:34:08.000Z</time>
      </trkpt>
      <trkpt lat="49.20513" lon="-0.03126">
        <ele>122</ele>
        <time>2015-09-03T11:34:26.000Z</time>
      </trkpt>
      <trkpt lat="49.20522" lon="-0.03132">
        <ele>122.1</ele>
        <time>2015-09-03T11:35:00.000Z</time>
      </trkpt>
      <trkpt lat="49.2053" lon="-0.03125">
        <ele>122.4</ele>
        <time>2015-09-03T11:35:10.000Z</time>
      </trkpt>
      <trkpt lat="49.20538" lon="-0.03118">
        <ele>123</ele>
        <time>2015-09-03T11:35:20.000Z</time>
      </trkpt>
      <trkpt lat="49.20546" lon="-0.03112">
        <ele>123.8</ele>
        <time>2015-09-03T11:35:35.000Z</time>
      </trkpt>
      <trkpt lat="49.20554" lon="-0.03102">
        <ele>124.3</ele>
        <time>2015-09-03T11:35:48.000Z</time>
      </trkpt>
      <trkpt lat="49.20556" lon="-0.03087">
        <ele>124.6</ele>
        <time>2015-09-03T11:35:58.000Z</time>
      </trkpt>
      <trkpt lat="49.20558" lon="-0.03073">
        <ele>125.1</ele>
        <time>2015-09-03T11:36:08.000Z</time>
      </trkpt>
      <trkpt lat="49.20559" lon="-0.03058">
        <ele>125.6</ele>
        <time>2015-09-03T11:36:18.000Z</time>
      </trkpt>
      <trkpt lat="49.20559" lon="-0.03044">
        <ele>126.5</ele>
        <time>2015-09-03T11:36:29.000Z</time>
      </trkpt>
      <trkpt lat="49.20562" lon="-0.03029">
        <ele>127</ele>
        <time>2015-09-03T11:36:39.000Z</time>
      </trkpt>
      <trkpt lat="49.20566" lon="-0.03016">
        <ele>127.2</ele>
        <time>2015-09-03T11:36:47.000Z</time>
      </trkpt>
      <trkpt lat="49.20569" lon="-0.03004">
        <ele>127.4</ele>
        <time>2015-09-03T11:36:56.000Z</time>
      </trkpt>
      <trkpt lat="49.20572" lon="-0.0299">
        <ele>127.6</ele>
        <time>2015-09-03T11:37:05.000Z</time>
      </trkpt>
      <trkpt lat="49.20576" lon="-0.02976">
        <ele>128</ele>
        <time>2015-09-03T11:37:14.000Z</time>
      </trkpt>
      <trkpt lat="49.20581" lon="-0.02964">
        <ele>128.1</ele>
        <time>2015-09-03T11:37:21.000Z</time>
      </trkpt>
      <trkpt lat="49.20587" lon="-0.02952">
        <ele>128.5</ele>
        <time>2015-09-03T11:37:29.000Z</time>
      </trkpt>
      <trkpt lat="49.20592" lon="-0.02941">
        <ele>128.5</ele>
        <time>2015-09-03T11:37:38.000Z</time>
      </trkpt>
      <trkpt lat="49.20598" lon="-0.0293">
        <ele>128.8</ele>
        <time>2015-09-03T11:37:51.000Z</time>
      </trkpt>
      <trkpt lat="49.20606" lon="-0.02922">
        <ele>129.1</ele>
        <time>2015-09-03T11:38:07.000Z</time>
      </trkpt>
      <trkpt lat="49.20612" lon="-0.02932">
        <ele>129.7</ele>
        <time>2015-09-03T11:38:22.000Z</time>
      </trkpt>
      <trkpt lat="49.20618" lon="-0.02944">
        <ele>130</ele>
        <time>2015-09-03T11:38:33.000Z</time>
      </trkpt>
      <trkpt lat="49.20622" lon="-0.02956">
        <ele>130.4</ele>
        <time>2015-09-03T11:38:42.000Z</time>
      </trkpt>
      <trkpt lat="49.20627" lon="-0.02969">
        <ele>130.8</ele>
        <time>2015-09-03T11:38:51.000Z</time>
      </trkpt>
      <trkpt lat="49.20632" lon="-0.02982">
        <ele>131.1</ele>
        <time>2015-09-03T11:38:59.000Z</time>
      </trkpt>
      <trkpt lat="49.20636" lon="-0.02996">
        <ele>131.3</ele>
        <time>2015-09-03T11:39:07.000Z</time>
      </trkpt>
      <trkpt lat="49.2064" lon="-0.03009">
        <ele>131.4</ele>
        <time>2015-09-03T11:39:14.000Z</time>
      </trkpt>
      <trkpt lat="49.20645" lon="-0.03023">
        <ele>131.9</ele>
        <time>2015-09-03T11:39:22.000Z</time>
      </trkpt>
      <trkpt lat="49.20649" lon="-0.03037">
        <ele>132.2</ele>
        <time>2015-09-03T11:39:30.000Z</time>
      </trkpt>
      <trkpt lat="49.20652" lon="-0.03052">
        <ele>132.3</ele>
        <time>2015-09-03T11:39:39.000Z</time>
      </trkpt>
      <trkpt lat="49.20654" lon="-0.03067">
        <ele>132.3</ele>
        <time>2015-09-03T11:39:46.000Z</time>
      </trkpt>
      <trkpt lat="49.20657" lon="-0.0308">
        <ele>132.4</ele>
        <time>2015-09-03T11:39:52.000Z</time>
      </trkpt>
      <trkpt lat="49.20656" lon="-0.03095">
        <ele>132.4</ele>
        <time>2015-09-03T11:40:01.000Z</time>
      </trkpt>
      <trkpt lat="49.20656" lon="-0.0311">
        <ele>132.4</ele>
        <time>2015-09-03T11:40:10.000Z</time>
      </trkpt>
      <trkpt lat="49.20657" lon="-0.03126">
        <ele>132.2</ele>
        <time>2015-09-03T11:40:17.000Z</time>
      </trkpt>
      <trkpt lat="49.2066" lon="-0.03139">
        <ele>132.1</ele>
        <time>2015-09-03T11:40:24.000Z</time>
      </trkpt>
      <trkpt lat="49.20663" lon="-0.03153">
        <ele>132</ele>
        <time>2015-09-03T11:40:33.000Z</time>
      </trkpt>
      <trkpt lat="49.20665" lon="-0.03166">
        <ele>132</ele>
        <time>2015-09-03T11:40:39.000Z</time>
      </trkpt>
      <trkpt lat="49.20667" lon="-0.0318">
        <ele>131.8</ele>
        <time>2015-09-03T11:40:45.000Z</time>
      </trkpt>
      <trkpt lat="49.20671" lon="-0.03195">
        <ele>131.9</ele>
        <time>2015-09-03T11:40:52.000Z</time>
      </trkpt>
      <trkpt lat="49.20675" lon="-0.03207">
        <ele>131.8</ele>
        <time>2015-09-03T11:40:59.000Z</time>
      </trkpt>
      <trkpt lat="49.20681" lon="-0.0322">
        <ele>131.8</ele>
        <time>2015-09-03T11:41:08.000Z</time>
      </trkpt>
      <trkpt lat="49.20689" lon="-0.03225">
        <ele>131.8</ele>
        <time>2015-09-03T11:41:19.000Z</time>
      </trkpt>
      <trkpt lat="49.20699" lon="-0.03226">
        <ele>131.8</ele>
        <time>2015-09-03T11:41:28.000Z</time>
      </trkpt>
      <trkpt lat="49.20708" lon="-0.03227">
        <ele>131.8</ele>
        <time>2015-09-03T11:41:38.000Z</time>
      </trkpt>
      <trkpt lat="49.20717" lon="-0.0323">
        <ele>132.4</ele>
        <time>2015-09-03T11:41:55.000Z</time>
      </trkpt>
      <trkpt lat="49.20726" lon="-0.03229">
        <ele>133</ele>
        <time>2015-09-03T11:42:07.000Z</time>
      </trkpt>
      <trkpt lat="49.20737" lon="-0.03228">
        <ele>133</ele>
        <time>2015-09-03T11:42:15.000Z</time>
      </trkpt>
      <trkpt lat="49.20747" lon="-0.0323">
        <ele>133.4</ele>
        <time>2015-09-03T11:42:25.000Z</time>
      </trkpt>
      <trkpt lat="49.20757" lon="-0.03233">
        <ele>133.6</ele>
        <time>2015-09-03T11:42:34.000Z</time>
      </trkpt>
      <trkpt lat="49.20766" lon="-0.03232">
        <ele>133.5</ele>
        <time>2015-09-03T11:42:45.000Z</time>
      </trkpt>
      <trkpt lat="49.20775" lon="-0.03231">
        <ele>133.6</ele>
        <time>2015-09-03T11:42:56.000Z</time>
      </trkpt>
      <trkpt lat="49.20784" lon="-0.03233">
        <ele>133.2</ele>
        <time>2015-09-03T11:43:05.000Z</time>
      </trkpt>
      <trkpt lat="49.20793" lon="-0.03231">
        <ele>133.6</ele>
        <time>2015-09-03T11:43:13.000Z</time>
      </trkpt>
      <trkpt lat="49.20803" lon="-0.03232">
        <ele>133.9</ele>
        <time>2015-09-03T11:43:20.000Z</time>
      </trkpt>
      <trkpt lat="49.20813" lon="-0.03235">
        <ele>134.2</ele>
        <time>2015-09-03T11:43:27.000Z</time>
      </trkpt>
      <trkpt lat="49.20822" lon="-0.03239">
        <ele>134.4</ele>
        <time>2015-09-03T11:43:35.000Z</time>
      </trkpt>
      <trkpt lat="49.20829" lon="-0.0325">
        <ele>134.5</ele>
        <time>2015-09-03T11:43:43.000Z</time>
      </trkpt>
      <trkpt lat="49.20838" lon="-0.03252">
        <ele>134.6</ele>
        <time>2015-09-03T11:43:51.000Z</time>
      </trkpt>
      <trkpt lat="49.20847" lon="-0.03254">
        <ele>134.7</ele>
        <time>2015-09-03T11:43:59.000Z</time>
      </trkpt>
      <trkpt lat="49.20856" lon="-0.03257">
        <ele>134.7</ele>
        <time>2015-09-03T11:44:08.000Z</time>
      </trkpt>
      <trkpt lat="49.20865" lon="-0.0326">
        <ele>134.5</ele>
        <time>2015-09-03T11:44:17.000Z</time>
      </trkpt>
      <trkpt lat="49.20875" lon="-0.03263">
        <ele>134.4</ele>
        <time>2015-09-03T11:44:29.000Z</time>
      </trkpt>
      <trkpt lat="49.20883" lon="-0.03269">
        <ele>134.5</ele>
        <time>2015-09-03T11:44:44.000Z</time>
      </trkpt>
      <trkpt lat="49.2089" lon="-0.03277">
        <ele>134.4</ele>
        <time>2015-09-03T11:44:59.000Z</time>
      </trkpt>
      <trkpt lat="49.209" lon="-0.03279">
        <ele>133.5</ele>
        <time>2015-09-03T11:45:36.000Z</time>
      </trkpt>
      <trkpt lat="49.20909" lon="-0.03282">
        <ele>133.8</ele>
        <time>2015-09-03T11:45:48.000Z</time>
      </trkpt>
      <trkpt lat="49.20919" lon="-0.03284">
        <ele>133.8</ele>
        <time>2015-09-03T11:45:57.000Z</time>
      </trkpt>
      <trkpt lat="49.20929" lon="-0.03286">
        <ele>133.8</ele>
        <time>2015-09-03T11:46:07.000Z</time>
      </trkpt>
      <trkpt lat="49.20939" lon="-0.03288">
        <ele>133.5</ele>
        <time>2015-09-03T11:46:24.000Z</time>
      </trkpt>
      <trkpt lat="49.20948" lon="-0.03292">
        <ele>133.2</ele>
        <time>2015-09-03T11:46:34.000Z</time>
      </trkpt>
      <trkpt lat="49.20957" lon="-0.03298">
        <ele>132.7</ele>
        <time>2015-09-03T11:46:45.000Z</time>
      </trkpt>
      <trkpt lat="49.20964" lon="-0.03307">
        <ele>132.7</ele>
        <time>2015-09-03T11:46:52.000Z</time>
      </trkpt>
      <trkpt lat="49.2097" lon="-0.03317">
        <ele>132.6</ele>
        <time>2015-09-03T11:46:59.000Z</time>
      </trkpt>
      <trkpt lat="49.20976" lon="-0.03328">
        <ele>132.6</ele>
        <time>2015-09-03T11:47:06.000Z</time>
      </trkpt>
      <trkpt lat="49.20982" lon="-0.0334">
        <ele>132.9</ele>
        <time>2015-09-03T11:47:14.000Z</time>
      </trkpt>
      <trkpt lat="49.20988" lon="-0.03352">
        <ele>132.8</ele>
        <time>2015-09-03T11:47:21.000Z</time>
      </trkpt>
      <trkpt lat="49.20994" lon="-0.03362">
        <ele>132.7</ele>
        <time>2015-09-03T11:47:28.000Z</time>
      </trkpt>
      <trkpt lat="49.20999" lon="-0.03375">
        <ele>132.5</ele>
        <time>2015-09-03T11:47:36.000Z</time>
      </trkpt>
      <trkpt lat="49.21004" lon="-0.03388">
        <ele>132.4</ele>
        <time>2015-09-03T11:47:44.000Z</time>
      </trkpt>
      <trkpt lat="49.21009" lon="-0.034">
        <ele>132.3</ele>
        <time>2015-09-03T11:47:53.000Z</time>
      </trkpt>
      <trkpt lat="49.21012" lon="-0.03414">
        <ele>132.4</ele>
        <time>2015-09-03T11:48:02.000Z</time>
      </trkpt>
      <trkpt lat="49.21016" lon="-0.03427">
        <ele>132.4</ele>
        <time>2015-09-03T11:48:10.000Z</time>
      </trkpt>
      <trkpt lat="49.2102" lon="-0.03441">
        <ele>132.2</ele>
        <time>2015-09-03T11:48:18.000Z</time>
      </trkpt>
      <trkpt lat="49.21024" lon="-0.03454">
        <ele>132</ele>
        <time>2015-09-03T11:48:26.000Z</time>
      </trkpt>
      <trkpt lat="49.21027" lon="-0.03467">
        <ele>131.8</ele>
        <time>2015-09-03T11:48:34.000Z</time>
      </trkpt>
      <trkpt lat="49.21032" lon="-0.03481">
        <ele>131.8</ele>
        <time>2015-09-03T11:48:42.000Z</time>
      </trkpt>
      <trkpt lat="49.21035" lon="-0.03495">
        <ele>131.9</ele>
        <time>2015-09-03T11:48:50.000Z</time>
      </trkpt>
      <trkpt lat="49.21039" lon="-0.03507">
        <ele>131.5</ele>
        <time>2015-09-03T11:49:02.000Z</time>
      </trkpt>
      <trkpt lat="49.21037" lon="-0.03522">
        <ele>131.4</ele>
        <time>2015-09-03T11:49:10.000Z</time>
      </trkpt>
      <trkpt lat="49.21036" lon="-0.03537">
        <ele>131.3</ele>
        <time>2015-09-03T11:49:19.000Z</time>
      </trkpt>
      <trkpt lat="49.21037" lon="-0.03552">
        <ele>131.2</ele>
        <time>2015-09-03T11:49:28.000Z</time>
      </trkpt>
      <trkpt lat="49.21037" lon="-0.03566">
        <ele>131.2</ele>
        <time>2015-09-03T11:49:36.000Z</time>
      </trkpt>
      <trkpt lat="49.21035" lon="-0.0358">
        <ele>131.1</ele>
        <time>2015-09-03T11:49:44.000Z</time>
      </trkpt>
      <trkpt lat="49.21035" lon="-0.03596">
        <ele>131.1</ele>
        <time>2015-09-03T11:49:51.000Z</time>
      </trkpt>
      <trkpt lat="49.21037" lon="-0.0361">
        <ele>131.1</ele>
        <time>2015-09-03T11:49:59.000Z</time>
      </trkpt>
      <trkpt lat="49.21036" lon="-0.03625">
        <ele>131.3</ele>
        <time>2015-09-03T11:50:07.000Z</time>
      </trkpt>
      <trkpt lat="49.21035" lon="-0.03639">
        <ele>131.7</ele>
        <time>2015-09-03T11:50:15.000Z</time>
      </trkpt>
      <trkpt lat="49.21032" lon="-0.03653">
        <ele>132</ele>
        <time>2015-09-03T11:50:23.000Z</time>
      </trkpt>
      <trkpt lat="49.2103" lon="-0.03666">
        <ele>132.2</ele>
        <time>2015-09-03T11:50:30.000Z</time>
      </trkpt>
      <trkpt lat="49.21028" lon="-0.03679">
        <ele>132.4</ele>
        <time>2015-09-03T11:50:39.000Z</time>
      </trkpt>
      <trkpt lat="49.21024" lon="-0.03693">
        <ele>132.6</ele>
        <time>2015-09-03T11:50:49.000Z</time>
      </trkpt>
      <trkpt lat="49.21022" lon="-0.03707">
        <ele>132.8</ele>
        <time>2015-09-03T11:50:57.000Z</time>
      </trkpt>
      <trkpt lat="49.21019" lon="-0.03721">
        <ele>133</ele>
        <time>2015-09-03T11:51:05.000Z</time>
      </trkpt>
      <trkpt lat="49.21013" lon="-0.03735">
        <ele>133.1</ele>
        <time>2015-09-03T11:51:13.000Z</time>
      </trkpt>
      <trkpt lat="49.2101" lon="-0.03749">
        <ele>133.3</ele>
        <time>2015-09-03T11:51:21.000Z</time>
      </trkpt>
      <trkpt lat="49.21008" lon="-0.03763">
        <ele>133.5</ele>
        <time>2015-09-03T11:51:28.000Z</time>
      </trkpt>
      <trkpt lat="49.21005" lon="-0.03778">
        <ele>133.3</ele>
        <time>2015-09-03T11:51:36.000Z</time>
      </trkpt>
      <trkpt lat="49.21001" lon="-0.03791">
        <ele>133.3</ele>
        <time>2015-09-03T11:51:44.000Z</time>
      </trkpt>
      <trkpt lat="49.20998" lon="-0.03805">
        <ele>133.5</ele>
        <time>2015-09-03T11:51:53.000Z</time>
      </trkpt>
      <trkpt lat="49.20996" lon="-0.03818">
        <ele>133.6</ele>
        <time>2015-09-03T11:52:00.000Z</time>
      </trkpt>
      <trkpt lat="49.20991" lon="-0.03831">
        <ele>133.9</ele>
        <time>2015-09-03T11:52:09.000Z</time>
      </trkpt>
      <trkpt lat="49.20987" lon="-0.03845">
        <ele>134</ele>
        <time>2015-09-03T11:52:16.000Z</time>
      </trkpt>
      <trkpt lat="49.20982" lon="-0.03857">
        <ele>133.9</ele>
        <time>2015-09-03T11:52:24.000Z</time>
      </trkpt>
      <trkpt lat="49.2098" lon="-0.03871">
        <ele>134.1</ele>
        <time>2015-09-03T11:52:31.000Z</time>
      </trkpt>
      <trkpt lat="49.20977" lon="-0.03886">
        <ele>134.3</ele>
        <time>2015-09-03T11:52:39.000Z</time>
      </trkpt>
      <trkpt lat="49.20979" lon="-0.03902">
        <ele>134.4</ele>
        <time>2015-09-03T11:52:46.000Z</time>
      </trkpt>
      <trkpt lat="49.20983" lon="-0.03914">
        <ele>134.5</ele>
        <time>2015-09-03T11:52:52.000Z</time>
      </trkpt>
      <trkpt lat="49.20989" lon="-0.03926">
        <ele>134.3</ele>
        <time>2015-09-03T11:53:00.000Z</time>
      </trkpt>
      <trkpt lat="49.20996" lon="-0.03935">
        <ele>134.1</ele>
        <time>2015-09-03T11:53:08.000Z</time>
      </trkpt>
      <trkpt lat="49.21004" lon="-0.03943">
        <ele>133.9</ele>
        <time>2015-09-03T11:53:15.000Z</time>
      </trkpt>
      <trkpt lat="49.21013" lon="-0.03948">
        <ele>133.8</ele>
        <time>2015-09-03T11:53:25.000Z</time>
      </trkpt>
      <trkpt lat="49.21022" lon="-0.03955">
        <ele>133.7</ele>
        <time>2015-09-03T11:53:34.000Z</time>
      </trkpt>
      <trkpt lat="49.2103" lon="-0.03963">
        <ele>133.3</ele>
        <time>2015-09-03T11:53:44.000Z</time>
      </trkpt>
      <trkpt lat="49.21039" lon="-0.03967">
        <ele>132.5</ele>
        <time>2015-09-03T11:53:56.000Z</time>
      </trkpt>
      <trkpt lat="49.21049" lon="-0.03968">
        <ele>132.1</ele>
        <time>2015-09-03T11:54:05.000Z</time>
      </trkpt>
      <trkpt lat="49.21059" lon="-0.03966">
        <ele>131.8</ele>
        <time>2015-09-03T11:54:12.000Z</time>
      </trkpt>
      <trkpt lat="49.21069" lon="-0.03967">
        <ele>131.6</ele>
        <time>2015-09-03T11:54:19.000Z</time>
      </trkpt>
      <trkpt lat="49.21077" lon="-0.03975">
        <ele>131.3</ele>
        <time>2015-09-03T11:54:30.000Z</time>
      </trkpt>
      <trkpt lat="49.21087" lon="-0.03978">
        <ele>130.8</ele>
        <time>2015-09-03T11:54:37.000Z</time>
      </trkpt>
      <trkpt lat="49.21096" lon="-0.0398">
        <ele>130.3</ele>
        <time>2015-09-03T11:54:44.000Z</time>
      </trkpt>
      <trkpt lat="49.21105" lon="-0.03982">
        <ele>130</ele>
        <time>2015-09-03T11:54:52.000Z</time>
      </trkpt>
      <trkpt lat="49.21114" lon="-0.03985">
        <ele>129.7</ele>
        <time>2015-09-03T11:55:00.000Z</time>
      </trkpt>
      <trkpt lat="49.21124" lon="-0.03985">
        <ele>129.1</ele>
        <time>2015-09-03T11:55:09.000Z</time>
      </trkpt>
      <trkpt lat="49.21134" lon="-0.03987">
        <ele>128.7</ele>
        <time>2015-09-03T11:55:17.000Z</time>
      </trkpt>
      <trkpt lat="49.21143" lon="-0.03986">
        <ele>128.5</ele>
        <time>2015-09-03T11:55:25.000Z</time>
      </trkpt>
      <trkpt lat="49.21152" lon="-0.0399">
        <ele>128</ele>
        <time>2015-09-03T11:55:34.000Z</time>
      </trkpt>
      <trkpt lat="49.21161" lon="-0.03993">
        <ele>127.5</ele>
        <time>2015-09-03T11:55:42.000Z</time>
      </trkpt>
      <trkpt lat="49.2117" lon="-0.03998">
        <ele>127.1</ele>
        <time>2015-09-03T11:55:49.000Z</time>
      </trkpt>
      <trkpt lat="49.2118" lon="-0.04001">
        <ele>126.3</ele>
        <time>2015-09-03T11:56:00.000Z</time>
      </trkpt>
      <trkpt lat="49.21189" lon="-0.04006">
        <ele>125.5</ele>
        <time>2015-09-03T11:56:10.000Z</time>
      </trkpt>
      <trkpt lat="49.21199" lon="-0.04006">
        <ele>124.9</ele>
        <time>2015-09-03T11:56:18.000Z</time>
      </trkpt>
      <trkpt lat="49.21209" lon="-0.04004">
        <ele>124.2</ele>
        <time>2015-09-03T11:56:27.000Z</time>
      </trkpt>
      <trkpt lat="49.21219" lon="-0.04003">
        <ele>123.4</ele>
        <time>2015-09-03T11:56:40.000Z</time>
      </trkpt>
      <trkpt lat="49.21228" lon="-0.04005">
        <ele>123.4</ele>
        <time>2015-09-03T11:57:11.000Z</time>
      </trkpt>
      <trkpt lat="49.21236" lon="-0.04">
        <ele>123</ele>
        <time>2015-09-03T11:58:50.000Z</time>
      </trkpt>
      <trkpt lat="49.21245" lon="-0.03994">
        <ele>123.3</ele>
        <time>2015-09-03T11:59:05.000Z</time>
      </trkpt>
      <trkpt lat="49.21246" lon="-0.04008">
        <ele>122.9</ele>
        <time>2015-09-03T11:59:27.000Z</time>
      </trkpt>
      <trkpt lat="49.21254" lon="-0.04017">
        <ele>122.4</ele>
        <time>2015-09-03T11:59:43.000Z</time>
      </trkpt>
      <trkpt lat="49.21263" lon="-0.0402">
        <ele>121.5</ele>
        <time>2015-09-03T11:59:55.000Z</time>
      </trkpt>
      <trkpt lat="49.21272" lon="-0.04021">
        <ele>120.9</ele>
        <time>2015-09-03T12:00:07.000Z</time>
      </trkpt>
      <trkpt lat="49.21282" lon="-0.04022">
        <ele>120.4</ele>
        <time>2015-09-03T12:00:19.000Z</time>
      </trkpt>
      <trkpt lat="49.21292" lon="-0.04024">
        <ele>120.2</ele>
        <time>2015-09-03T12:00:29.000Z</time>
      </trkpt>
      <trkpt lat="49.21301" lon="-0.04026">
        <ele>119.8</ele>
        <time>2015-09-03T12:00:41.000Z</time>
      </trkpt>
      <trkpt lat="49.21308" lon="-0.04037">
        <ele>119.4</ele>
        <time>2015-09-03T12:00:54.000Z</time>
      </trkpt>
      <trkpt lat="49.2131" lon="-0.0405">
        <ele>119.2</ele>
        <time>2015-09-03T12:01:11.000Z</time>
      </trkpt>
      <trkpt lat="49.21317" lon="-0.04042">
        <ele>119.6</ele>
        <time>2015-09-03T12:01:41.000Z</time>
      </trkpt>
      <trkpt lat="49.21326" lon="-0.04036">
        <ele>119</ele>
        <time>2015-09-03T12:01:51.000Z</time>
      </trkpt>
      <trkpt lat="49.21335" lon="-0.04033">
        <ele>118.6</ele>
        <time>2015-09-03T12:02:01.000Z</time>
      </trkpt>
      <trkpt lat="49.21345" lon="-0.04032">
        <ele>118.3</ele>
        <time>2015-09-03T12:02:09.000Z</time>
      </trkpt>
      <trkpt lat="49.21354" lon="-0.04032">
        <ele>117.9</ele>
        <time>2015-09-03T12:02:21.000Z</time>
      </trkpt>
      <trkpt lat="49.21363" lon="-0.04036">
        <ele>117.7</ele>
        <time>2015-09-03T12:02:29.000Z</time>
      </trkpt>
      <trkpt lat="49.21372" lon="-0.04041">
        <ele>117.5</ele>
        <time>2015-09-03T12:02:36.000Z</time>
      </trkpt>
      <trkpt lat="49.21382" lon="-0.04043">
        <ele>116.9</ele>
        <time>2015-09-03T12:02:43.000Z</time>
      </trkpt>
      <trkpt lat="49.21391" lon="-0.04046">
        <ele>116.3</ele>
        <time>2015-09-03T12:02:50.000Z</time>
      </trkpt>
      <trkpt lat="49.214" lon="-0.04054">
        <ele>116</ele>
        <time>2015-09-03T12:02:57.000Z</time>
      </trkpt>
      <trkpt lat="49.2141" lon="-0.04055">
        <ele>115.7</ele>
        <time>2015-09-03T12:03:04.000Z</time>
      </trkpt>
      <trkpt lat="49.21419" lon="-0.04061">
        <ele>115.5</ele>
        <time>2015-09-03T12:03:12.000Z</time>
      </trkpt>
      <trkpt lat="49.21427" lon="-0.04066">
        <ele>115.3</ele>
        <time>2015-09-03T12:03:18.000Z</time>
      </trkpt>
      <trkpt lat="49.21437" lon="-0.04067">
        <ele>115.2</ele>
        <time>2015-09-03T12:03:25.000Z</time>
      </trkpt>
      <trkpt lat="49.21446" lon="-0.0407">
        <ele>115.1</ele>
        <time>2015-09-03T12:03:30.000Z</time>
      </trkpt>
      <trkpt lat="49.21455" lon="-0.04071">
        <ele>114.9</ele>
        <time>2015-09-03T12:03:36.000Z</time>
      </trkpt>
      <trkpt lat="49.21464" lon="-0.04074">
        <ele>114.8</ele>
        <time>2015-09-03T12:03:42.000Z</time>
      </trkpt>
      <trkpt lat="49.21473" lon="-0.04076">
        <ele>114.7</ele>
        <time>2015-09-03T12:03:51.000Z</time>
      </trkpt>
      <trkpt lat="49.21482" lon="-0.04077">
        <ele>114.7</ele>
        <time>2015-09-03T12:03:58.000Z</time>
      </trkpt>
      <trkpt lat="49.21492" lon="-0.04081">
        <ele>114.4</ele>
        <time>2015-09-03T12:04:08.000Z</time>
      </trkpt>
      <trkpt lat="49.21501" lon="-0.04082">
        <ele>114.5</ele>
        <time>2015-09-03T12:04:15.000Z</time>
      </trkpt>
      <trkpt lat="49.21511" lon="-0.04085">
        <ele>114.2</ele>
        <time>2015-09-03T12:04:23.000Z</time>
      </trkpt>
      <trkpt lat="49.2152" lon="-0.04087">
        <ele>114.1</ele>
        <time>2015-09-03T12:04:31.000Z</time>
      </trkpt>
      <trkpt lat="49.2153" lon="-0.04091">
        <ele>114.1</ele>
        <time>2015-09-03T12:04:38.000Z</time>
      </trkpt>
      <trkpt lat="49.21539" lon="-0.04096">
        <ele>113.9</ele>
        <time>2015-09-03T12:04:48.000Z</time>
      </trkpt>
      <trkpt lat="49.21549" lon="-0.04097">
        <ele>113.6</ele>
        <time>2015-09-03T12:04:54.000Z</time>
      </trkpt>
      <trkpt lat="49.21559" lon="-0.04098">
        <ele>113.4</ele>
        <time>2015-09-03T12:05:00.000Z</time>
      </trkpt>
      <trkpt lat="49.21568" lon="-0.04101">
        <ele>113.2</ele>
        <time>2015-09-03T12:05:07.000Z</time>
      </trkpt>
      <trkpt lat="49.21578" lon="-0.04105">
        <ele>113.1</ele>
        <time>2015-09-03T12:05:15.000Z</time>
      </trkpt>
      <trkpt lat="49.21588" lon="-0.04105">
        <ele>113.2</ele>
        <time>2015-09-03T12:05:22.000Z</time>
      </trkpt>
      <trkpt lat="49.21597" lon="-0.04106">
        <ele>112.7</ele>
        <time>2015-09-03T12:05:31.000Z</time>
      </trkpt>
      <trkpt lat="49.21606" lon="-0.0411">
        <ele>112.5</ele>
        <time>2015-09-03T12:05:40.000Z</time>
      </trkpt>
      <trkpt lat="49.21616" lon="-0.04112">
        <ele>112.4</ele>
        <time>2015-09-03T12:05:48.000Z</time>
      </trkpt>
      <trkpt lat="49.21627" lon="-0.04111">
        <ele>112.3</ele>
        <time>2015-09-03T12:05:55.000Z</time>
      </trkpt>
      <trkpt lat="49.21636" lon="-0.04109">
        <ele>112.1</ele>
        <time>2015-09-03T12:06:03.000Z</time>
      </trkpt>
      <trkpt lat="49.21646" lon="-0.0411">
        <ele>112.2</ele>
        <time>2015-09-03T12:06:09.000Z</time>
      </trkpt>
      <trkpt lat="49.21656" lon="-0.04114">
        <ele>112.2</ele>
        <time>2015-09-03T12:06:16.000Z</time>
      </trkpt>
      <trkpt lat="49.21665" lon="-0.04117">
        <ele>112.2</ele>
        <time>2015-09-03T12:06:23.000Z</time>
      </trkpt>
      <trkpt lat="49.21675" lon="-0.0412">
        <ele>112</ele>
        <time>2015-09-03T12:06:30.000Z</time>
      </trkpt>
      <trkpt lat="49.21683" lon="-0.04127">
        <ele>111.9</ele>
        <time>2015-09-03T12:06:37.000Z</time>
      </trkpt>
      <trkpt lat="49.21693" lon="-0.04131">
        <ele>111.8</ele>
        <time>2015-09-03T12:06:44.000Z</time>
      </trkpt>
      <trkpt lat="49.21701" lon="-0.04137">
        <ele>111.7</ele>
        <time>2015-09-03T12:06:52.000Z</time>
      </trkpt>
      <trkpt lat="49.21711" lon="-0.04137">
        <ele>111.6</ele>
        <time>2015-09-03T12:06:59.000Z</time>
      </trkpt>
      <trkpt lat="49.2172" lon="-0.04137">
        <ele>111.7</ele>
        <time>2015-09-03T12:07:05.000Z</time>
      </trkpt>
      <trkpt lat="49.21729" lon="-0.04137">
        <ele>111.9</ele>
        <time>2015-09-03T12:07:13.000Z</time>
      </trkpt>
      <trkpt lat="49.21738" lon="-0.0414">
        <ele>111.9</ele>
        <time>2015-09-03T12:07:20.000Z</time>
      </trkpt>
      <trkpt lat="49.21748" lon="-0.04143">
        <ele>111.5</ele>
        <time>2015-09-03T12:07:28.000Z</time>
      </trkpt>
      <trkpt lat="49.21757" lon="-0.04147">
        <ele>111.2</ele>
        <time>2015-09-03T12:07:35.000Z</time>
      </trkpt>
      <trkpt lat="49.21767" lon="-0.0415">
        <ele>111.1</ele>
        <time>2015-09-03T12:07:43.000Z</time>
      </trkpt>
      <trkpt lat="49.21776" lon="-0.04154">
        <ele>111</ele>
        <time>2015-09-03T12:07:51.000Z</time>
      </trkpt>
      <trkpt lat="49.21786" lon="-0.04157">
        <ele>110.7</ele>
        <time>2015-09-03T12:07:58.000Z</time>
      </trkpt>
      <trkpt lat="49.21795" lon="-0.0416">
        <ele>110.3</ele>
        <time>2015-09-03T12:08:04.000Z</time>
      </trkpt>
      <trkpt lat="49.21804" lon="-0.04161">
        <ele>109.9</ele>
        <time>2015-09-03T12:08:12.000Z</time>
      </trkpt>
      <trkpt lat="49.21813" lon="-0.04161">
        <ele>109.7</ele>
        <time>2015-09-03T12:08:18.000Z</time>
      </trkpt>
      <trkpt lat="49.21823" lon="-0.04163">
        <ele>109.5</ele>
        <time>2015-09-03T12:08:26.000Z</time>
      </trkpt>
      <trkpt lat="49.21832" lon="-0.04163">
        <ele>109.4</ele>
        <time>2015-09-03T12:08:33.000Z</time>
      </trkpt>
      <trkpt lat="49.21842" lon="-0.04165">
        <ele>109.2</ele>
        <time>2015-09-03T12:08:40.000Z</time>
      </trkpt>
      <trkpt lat="49.2185" lon="-0.0417">
        <ele>108.8</ele>
        <time>2015-09-03T12:08:47.000Z</time>
      </trkpt>
      <trkpt lat="49.2186" lon="-0.04176">
        <ele>108.5</ele>
        <time>2015-09-03T12:08:53.000Z</time>
      </trkpt>
      <trkpt lat="49.21869" lon="-0.04183">
        <ele>108.3</ele>
        <time>2015-09-03T12:09:01.000Z</time>
      </trkpt>
      <trkpt lat="49.21877" lon="-0.04193">
        <ele>108.3</ele>
        <time>2015-09-03T12:09:08.000Z</time>
      </trkpt>
      <trkpt lat="49.21883" lon="-0.04203">
        <ele>108.3</ele>
        <time>2015-09-03T12:09:17.000Z</time>
      </trkpt>
      <trkpt lat="49.21889" lon="-0.04214">
        <ele>108.3</ele>
        <time>2015-09-03T12:09:24.000Z</time>
      </trkpt>
      <trkpt lat="49.21894" lon="-0.04228">
        <ele>108.1</ele>
        <time>2015-09-03T12:09:31.000Z</time>
      </trkpt>
      <trkpt lat="49.21897" lon="-0.04242">
        <ele>108</ele>
        <time>2015-09-03T12:09:39.000Z</time>
      </trkpt>
      <trkpt lat="49.21901" lon="-0.04257">
        <ele>108.1</ele>
        <time>2015-09-03T12:09:46.000Z</time>
      </trkpt>
      <trkpt lat="49.21903" lon="-0.0427">
        <ele>108.3</ele>
        <time>2015-09-03T12:09:53.000Z</time>
      </trkpt>
      <trkpt lat="49.21906" lon="-0.04285">
        <ele>108.3</ele>
        <time>2015-09-03T12:10:01.000Z</time>
      </trkpt>
      <trkpt lat="49.2191" lon="-0.04298">
        <ele>108.3</ele>
        <time>2015-09-03T12:10:09.000Z</time>
      </trkpt>
      <trkpt lat="49.21914" lon="-0.04312">
        <ele>107.9</ele>
        <time>2015-09-03T12:10:18.000Z</time>
      </trkpt>
      <trkpt lat="49.21916" lon="-0.04327">
        <ele>107.8</ele>
        <time>2015-09-03T12:10:25.000Z</time>
      </trkpt>
      <trkpt lat="49.21919" lon="-0.04342">
        <ele>107.9</ele>
        <time>2015-09-03T12:10:33.000Z</time>
      </trkpt>
      <trkpt lat="49.21922" lon="-0.04355">
        <ele>108</ele>
        <time>2015-09-03T12:10:40.000Z</time>
      </trkpt>
      <trkpt lat="49.21925" lon="-0.04369">
        <ele>107.8</ele>
        <time>2015-09-03T12:10:47.000Z</time>
      </trkpt>
      <trkpt lat="49.21927" lon="-0.04383">
        <ele>107.8</ele>
        <time>2015-09-03T12:10:54.000Z</time>
      </trkpt>
      <trkpt lat="49.21929" lon="-0.04398">
        <ele>107.9</ele>
        <time>2015-09-03T12:11:04.000Z</time>
      </trkpt>
      <trkpt lat="49.21931" lon="-0.04413">
        <ele>107.9</ele>
        <time>2015-09-03T12:11:12.000Z</time>
      </trkpt>
      <trkpt lat="49.21933" lon="-0.04427">
        <ele>107.9</ele>
        <time>2015-09-03T12:11:19.000Z</time>
      </trkpt>
      <trkpt lat="49.21935" lon="-0.04441">
        <ele>107.5</ele>
        <time>2015-09-03T12:11:27.000Z</time>
      </trkpt>
      <trkpt lat="49.21938" lon="-0.04455">
        <ele>107.3</ele>
        <time>2015-09-03T12:11:33.000Z</time>
      </trkpt>
      <trkpt lat="49.21941" lon="-0.0447">
        <ele>107.1</ele>
        <time>2015-09-03T12:11:41.000Z</time>
      </trkpt>
      <trkpt lat="49.21943" lon="-0.04483">
        <ele>107</ele>
        <time>2015-09-03T12:11:49.000Z</time>
      </trkpt>
      <trkpt lat="49.21944" lon="-0.04497">
        <ele>106.9</ele>
        <time>2015-09-03T12:11:56.000Z</time>
      </trkpt>
      <trkpt lat="49.21947" lon="-0.0451">
        <ele>106.8</ele>
        <time>2015-09-03T12:12:02.000Z</time>
      </trkpt>
      <trkpt lat="49.21949" lon="-0.04526">
        <ele>106.8</ele>
        <time>2015-09-03T12:12:10.000Z</time>
      </trkpt>
      <trkpt lat="49.21954" lon="-0.04539">
        <ele>106.6</ele>
        <time>2015-09-03T12:12:25.000Z</time>
      </trkpt>
      <trkpt lat="49.21963" lon="-0.04545">
        <ele>106.1</ele>
        <time>2015-09-03T12:13:06.000Z</time>
      </trkpt>
      <trkpt lat="49.21972" lon="-0.04544">
        <ele>105.9</ele>
        <time>2015-09-03T12:13:16.000Z</time>
      </trkpt>
      <trkpt lat="49.21982" lon="-0.04539">
        <ele>105.7</ele>
        <time>2015-09-03T12:13:25.000Z</time>
      </trkpt>
      <trkpt lat="49.21991" lon="-0.04535">
        <ele>105.2</ele>
        <time>2015-09-03T12:13:33.000Z</time>
      </trkpt>
      <trkpt lat="49.22" lon="-0.04532">
        <ele>104.6</ele>
        <time>2015-09-03T12:13:40.000Z</time>
      </trkpt>
      <trkpt lat="49.22009" lon="-0.0453">
        <ele>103.7</ele>
        <time>2015-09-03T12:13:48.000Z</time>
      </trkpt>
      <trkpt lat="49.22019" lon="-0.04524">
        <ele>102.7</ele>
        <time>2015-09-03T12:13:56.000Z</time>
      </trkpt>
      <trkpt lat="49.22029" lon="-0.0452">
        <ele>102</ele>
        <time>2015-09-03T12:14:05.000Z</time>
      </trkpt>
      <trkpt lat="49.22038" lon="-0.04517">
        <ele>101</ele>
        <time>2015-09-03T12:14:13.000Z</time>
      </trkpt>
      <trkpt lat="49.22047" lon="-0.04514">
        <ele>100</ele>
        <time>2015-09-03T12:14:21.000Z</time>
      </trkpt>
      <trkpt lat="49.22056" lon="-0.0451">
        <ele>99.1</ele>
        <time>2015-09-03T12:14:29.000Z</time>
      </trkpt>
      <trkpt lat="49.22066" lon="-0.04508">
        <ele>97.8</ele>
        <time>2015-09-03T12:14:37.000Z</time>
      </trkpt>
      <trkpt lat="49.22075" lon="-0.04505">
        <ele>96.9</ele>
        <time>2015-09-03T12:14:45.000Z</time>
      </trkpt>
      <trkpt lat="49.22084" lon="-0.04504">
        <ele>95.8</ele>
        <time>2015-09-03T12:14:54.000Z</time>
      </trkpt>
      <trkpt lat="49.22094" lon="-0.04501">
        <ele>94.6</ele>
        <time>2015-09-03T12:15:04.000Z</time>
      </trkpt>
      <trkpt lat="49.22103" lon="-0.04497">
        <ele>93.2</ele>
        <time>2015-09-03T12:15:14.000Z</time>
      </trkpt>
      <trkpt lat="49.22111" lon="-0.04507">
        <ele>91.6</ele>
        <time>2015-09-03T12:15:24.000Z</time>
      </trkpt>
      <trkpt lat="49.22116" lon="-0.0452">
        <ele>90.8</ele>
        <time>2015-09-03T12:15:32.000Z</time>
      </trkpt>
      <trkpt lat="49.22123" lon="-0.0453">
        <ele>90.7</ele>
        <time>2015-09-03T12:15:39.000Z</time>
      </trkpt>
      <trkpt lat="49.2213" lon="-0.04539">
        <ele>90.6</ele>
        <time>2015-09-03T12:15:46.000Z</time>
      </trkpt>
      <trkpt lat="49.22137" lon="-0.04549">
        <ele>90.5</ele>
        <time>2015-09-03T12:15:53.000Z</time>
      </trkpt>
      <trkpt lat="49.22143" lon="-0.0456">
        <ele>90.3</ele>
        <time>2015-09-03T12:16:02.000Z</time>
      </trkpt>
      <trkpt lat="49.22149" lon="-0.04572">
        <ele>90.7</ele>
        <time>2015-09-03T12:16:12.000Z</time>
      </trkpt>
      <trkpt lat="49.22154" lon="-0.04584">
        <ele>91.3</ele>
        <time>2015-09-03T12:16:20.000Z</time>
      </trkpt>
      <trkpt lat="49.22161" lon="-0.04595">
        <ele>91.5</ele>
        <time>2015-09-03T12:16:28.000Z</time>
      </trkpt>
      <trkpt lat="49.22167" lon="-0.04607">
        <ele>91.6</ele>
        <time>2015-09-03T12:16:36.000Z</time>
      </trkpt>
      <trkpt lat="49.22172" lon="-0.04619">
        <ele>91.8</ele>
        <time>2015-09-03T12:16:44.000Z</time>
      </trkpt>
      <trkpt lat="49.22178" lon="-0.04632">
        <ele>92</ele>
        <time>2015-09-03T12:16:55.000Z</time>
      </trkpt>
      <trkpt lat="49.22182" lon="-0.04645">
        <ele>92.3</ele>
        <time>2015-09-03T12:17:03.000Z</time>
      </trkpt>
      <trkpt lat="49.22189" lon="-0.04655">
        <ele>92.4</ele>
        <time>2015-09-03T12:17:13.000Z</time>
      </trkpt>
      <trkpt lat="49.22197" lon="-0.04663">
        <ele>92.3</ele>
        <time>2015-09-03T12:17:22.000Z</time>
      </trkpt>
      <trkpt lat="49.22205" lon="-0.04671">
        <ele>92.2</ele>
        <time>2015-09-03T12:17:29.000Z</time>
      </trkpt>
      <trkpt lat="49.22213" lon="-0.04679">
        <ele>91.9</ele>
        <time>2015-09-03T12:17:36.000Z</time>
      </trkpt>
      <trkpt lat="49.22219" lon="-0.04689">
        <ele>91.6</ele>
        <time>2015-09-03T12:17:44.000Z</time>
      </trkpt>
      <trkpt lat="49.22227" lon="-0.04701">
        <ele>91.1</ele>
        <time>2015-09-03T12:17:53.000Z</time>
      </trkpt>
      <trkpt lat="49.22234" lon="-0.04711">
        <ele>90.8</ele>
        <time>2015-09-03T12:18:00.000Z</time>
      </trkpt>
      <trkpt lat="49.22241" lon="-0.0472">
        <ele>90.3</ele>
        <time>2015-09-03T12:18:08.000Z</time>
      </trkpt>
      <trkpt lat="49.22249" lon="-0.04728">
        <ele>90</ele>
        <time>2015-09-03T12:18:16.000Z</time>
      </trkpt>
      <trkpt lat="49.22255" lon="-0.0474">
        <ele>89.5</ele>
        <time>2015-09-03T12:18:24.000Z</time>
      </trkpt>
      <trkpt lat="49.22264" lon="-0.04746">
        <ele>88.9</ele>
        <time>2015-09-03T12:18:33.000Z</time>
      </trkpt>
      <trkpt lat="49.22273" lon="-0.0475">
        <ele>88.3</ele>
        <time>2015-09-03T12:18:44.000Z</time>
      </trkpt>
      <trkpt lat="49.22283" lon="-0.0475">
        <ele>87.6</ele>
        <time>2015-09-03T12:18:52.000Z</time>
      </trkpt>
      <trkpt lat="49.22292" lon="-0.0475">
        <ele>86.7</ele>
        <time>2015-09-03T12:18:59.000Z</time>
      </trkpt>
      <trkpt lat="49.22301" lon="-0.04752">
        <ele>85.4</ele>
        <time>2015-09-03T12:19:06.000Z</time>
      </trkpt>
      <trkpt lat="49.2231" lon="-0.04755">
        <ele>84.2</ele>
        <time>2015-09-03T12:19:15.000Z</time>
      </trkpt>
      <trkpt lat="49.22319" lon="-0.0476">
        <ele>83.5</ele>
        <time>2015-09-03T12:19:24.000Z</time>
      </trkpt>
      <trkpt lat="49.22329" lon="-0.0476">
        <ele>82.9</ele>
        <time>2015-09-03T12:19:32.000Z</time>
      </trkpt>
      <trkpt lat="49.22339" lon="-0.04761">
        <ele>82.5</ele>
        <time>2015-09-03T12:19:40.000Z</time>
      </trkpt>
      <trkpt lat="49.22349" lon="-0.04761">
        <ele>81.9</ele>
        <time>2015-09-03T12:19:47.000Z</time>
      </trkpt>
      <trkpt lat="49.22358" lon="-0.04759">
        <ele>81.2</ele>
        <time>2015-09-03T12:19:54.000Z</time>
      </trkpt>
      <trkpt lat="49.22367" lon="-0.04755">
        <ele>80.4</ele>
        <time>2015-09-03T12:20:02.000Z</time>
      </trkpt>
      <trkpt lat="49.22376" lon="-0.04749">
        <ele>79.3</ele>
        <time>2015-09-03T12:20:12.000Z</time>
      </trkpt>
      <trkpt lat="49.22386" lon="-0.04743">
        <ele>77.9</ele>
        <time>2015-09-03T12:20:21.000Z</time>
      </trkpt>
      <trkpt lat="49.22395" lon="-0.04738">
        <ele>76.9</ele>
        <time>2015-09-03T12:20:30.000Z</time>
      </trkpt>
      <trkpt lat="49.22404" lon="-0.04733">
        <ele>76</ele>
        <time>2015-09-03T12:20:38.000Z</time>
      </trkpt>
      <trkpt lat="49.22412" lon="-0.04726">
        <ele>75.3</ele>
        <time>2015-09-03T12:20:46.000Z</time>
      </trkpt>
      <trkpt lat="49.2242" lon="-0.04719">
        <ele>74.5</ele>
        <time>2015-09-03T12:20:54.000Z</time>
      </trkpt>
      <trkpt lat="49.2243" lon="-0.04714">
        <ele>73.7</ele>
        <time>2015-09-03T12:21:01.000Z</time>
      </trkpt>
      <trkpt lat="49.22439" lon="-0.04712">
        <ele>72.6</ele>
        <time>2015-09-03T12:21:09.000Z</time>
      </trkpt>
      <trkpt lat="49.22449" lon="-0.04711">
        <ele>71.9</ele>
        <time>2015-09-03T12:21:17.000Z</time>
      </trkpt>
      <trkpt lat="49.22458" lon="-0.04711">
        <ele>71.4</ele>
        <time>2015-09-03T12:21:24.000Z</time>
      </trkpt>
      <trkpt lat="49.22467" lon="-0.04712">
        <ele>70.7</ele>
        <time>2015-09-03T12:21:32.000Z</time>
      </trkpt>
      <trkpt lat="49.22476" lon="-0.04714">
        <ele>69.8</ele>
        <time>2015-09-03T12:21:41.000Z</time>
      </trkpt>
      <trkpt lat="49.22486" lon="-0.04717">
        <ele>69</ele>
        <time>2015-09-03T12:21:50.000Z</time>
      </trkpt>
      <trkpt lat="49.22496" lon="-0.04721">
        <ele>67.9</ele>
        <time>2015-09-03T12:22:00.000Z</time>
      </trkpt>
      <trkpt lat="49.22506" lon="-0.04724">
        <ele>67.4</ele>
        <time>2015-09-03T12:22:08.000Z</time>
      </trkpt>
      <trkpt lat="49.22515" lon="-0.04725">
        <ele>66.5</ele>
        <time>2015-09-03T12:22:15.000Z</time>
      </trkpt>
      <trkpt lat="49.22524" lon="-0.04728">
        <ele>65.4</ele>
        <time>2015-09-03T12:22:23.000Z</time>
      </trkpt>
      <trkpt lat="49.22534" lon="-0.0473">
        <ele>64.8</ele>
        <time>2015-09-03T12:22:32.000Z</time>
      </trkpt>
      <trkpt lat="49.22544" lon="-0.04733">
        <ele>64.4</ele>
        <time>2015-09-03T12:22:41.000Z</time>
      </trkpt>
      <trkpt lat="49.22554" lon="-0.04735">
        <ele>64</ele>
        <time>2015-09-03T12:22:49.000Z</time>
      </trkpt>
      <trkpt lat="49.22563" lon="-0.04738">
        <ele>63.6</ele>
        <time>2015-09-03T12:22:57.000Z</time>
      </trkpt>
      <trkpt lat="49.22572" lon="-0.04742">
        <ele>63.3</ele>
        <time>2015-09-03T12:23:04.000Z</time>
      </trkpt>
      <trkpt lat="49.22581" lon="-0.04747">
        <ele>63</ele>
        <time>2015-09-03T12:23:13.000Z</time>
      </trkpt>
      <trkpt lat="49.2259" lon="-0.04755">
        <ele>62.3</ele>
        <time>2015-09-03T12:23:22.000Z</time>
      </trkpt>
      <trkpt lat="49.22599" lon="-0.0476">
        <ele>61.5</ele>
        <time>2015-09-03T12:23:31.000Z</time>
      </trkpt>
      <trkpt lat="49.22607" lon="-0.04766">
        <ele>60.3</ele>
        <time>2015-09-03T12:23:39.000Z</time>
      </trkpt>
      <trkpt lat="49.22615" lon="-0.04774">
        <ele>59.6</ele>
        <time>2015-09-03T12:23:47.000Z</time>
      </trkpt>
      <trkpt lat="49.22623" lon="-0.0478">
        <ele>59</ele>
        <time>2015-09-03T12:23:56.000Z</time>
      </trkpt>
      <trkpt lat="49.22631" lon="-0.04789">
        <ele>57.4</ele>
        <time>2015-09-03T12:24:21.000Z</time>
      </trkpt>
      <trkpt lat="49.22638" lon="-0.04798">
        <ele>57.2</ele>
        <time>2015-09-03T12:24:29.000Z</time>
      </trkpt>
      <trkpt lat="49.22646" lon="-0.04809">
        <ele>56.5</ele>
        <time>2015-09-03T12:24:37.000Z</time>
      </trkpt>
      <trkpt lat="49.22653" lon="-0.04818">
        <ele>55.3</ele>
        <time>2015-09-03T12:24:46.000Z</time>
      </trkpt>
      <trkpt lat="49.2266" lon="-0.04828">
        <ele>54.5</ele>
        <time>2015-09-03T12:24:55.000Z</time>
      </trkpt>
      <trkpt lat="49.22666" lon="-0.04839">
        <ele>53.8</ele>
        <time>2015-09-03T12:25:02.000Z</time>
      </trkpt>
      <trkpt lat="49.22672" lon="-0.04849">
        <ele>52.9</ele>
        <time>2015-09-03T12:25:09.000Z</time>
      </trkpt>
      <trkpt lat="49.22679" lon="-0.04858">
        <ele>52</ele>
        <time>2015-09-03T12:25:17.000Z</time>
      </trkpt>
      <trkpt lat="49.22688" lon="-0.04865">
        <ele>51</ele>
        <time>2015-09-03T12:25:25.000Z</time>
      </trkpt>
      <trkpt lat="49.22697" lon="-0.0487">
        <ele>50</ele>
        <time>2015-09-03T12:25:33.000Z</time>
      </trkpt>
      <trkpt lat="49.22705" lon="-0.04876">
        <ele>49</ele>
        <time>2015-09-03T12:25:41.000Z</time>
      </trkpt>
      <trkpt lat="49.22715" lon="-0.04882">
        <ele>47.9</ele>
        <time>2015-09-03T12:25:49.000Z</time>
      </trkpt>
      <trkpt lat="49.22724" lon="-0.04886">
        <ele>46.5</ele>
        <time>2015-09-03T12:26:01.000Z</time>
      </trkpt>
      <trkpt lat="49.22722" lon="-0.04871">
        <ele>45.4</ele>
        <time>2015-09-03T12:26:13.000Z</time>
      </trkpt>
      <trkpt lat="49.2272" lon="-0.04857">
        <ele>44.6</ele>
        <time>2015-09-03T12:26:24.000Z</time>
      </trkpt>
      <trkpt lat="49.22716" lon="-0.04843">
        <ele>44.2</ele>
        <time>2015-09-03T12:26:33.000Z</time>
      </trkpt>
      <trkpt lat="49.22715" lon="-0.04829">
        <ele>43.7</ele>
        <time>2015-09-03T12:26:43.000Z</time>
      </trkpt>
      <trkpt lat="49.22713" lon="-0.04815">
        <ele>43.5</ele>
        <time>2015-09-03T12:26:51.000Z</time>
      </trkpt>
      <trkpt lat="49.22711" lon="-0.048">
        <ele>43.4</ele>
        <time>2015-09-03T12:26:59.000Z</time>
      </trkpt>
      <trkpt lat="49.22709" lon="-0.04784">
        <ele>43.2</ele>
        <time>2015-09-03T12:27:08.000Z</time>
      </trkpt>
      <trkpt lat="49.22707" lon="-0.04771">
        <ele>43.3</ele>
        <time>2015-09-03T12:27:15.000Z</time>
      </trkpt>
      <trkpt lat="49.22705" lon="-0.04755">
        <ele>43.4</ele>
        <time>2015-09-03T12:27:23.000Z</time>
      </trkpt>
      <trkpt lat="49.22705" lon="-0.0474">
        <ele>43.4</ele>
        <time>2015-09-03T12:27:32.000Z</time>
      </trkpt>
      <trkpt lat="49.22703" lon="-0.04725">
        <ele>43.3</ele>
        <time>2015-09-03T12:27:42.000Z</time>
      </trkpt>
      <trkpt lat="49.22706" lon="-0.0471">
        <ele>43.5</ele>
        <time>2015-09-03T12:27:50.000Z</time>
      </trkpt>
      <trkpt lat="49.22707" lon="-0.04696">
        <ele>43.5</ele>
        <time>2015-09-03T12:27:59.000Z</time>
      </trkpt>
      <trkpt lat="49.22706" lon="-0.04681">
        <ele>44.4</ele>
        <time>2015-09-03T12:28:08.000Z</time>
      </trkpt>
      <trkpt lat="49.22705" lon="-0.04666">
        <ele>44.7</ele>
        <time>2015-09-03T12:28:17.000Z</time>
      </trkpt>
      <trkpt lat="49.22703" lon="-0.04651">
        <ele>45.1</ele>
        <time>2015-09-03T12:28:26.000Z</time>
      </trkpt>
      <trkpt lat="49.227" lon="-0.04638">
        <ele>45.6</ele>
        <time>2015-09-03T12:28:34.000Z</time>
      </trkpt>
      <trkpt lat="49.22696" lon="-0.04624">
        <ele>46.1</ele>
        <time>2015-09-03T12:28:42.000Z</time>
      </trkpt>
      <trkpt lat="49.22695" lon="-0.04609">
        <ele>46.7</ele>
        <time>2015-09-03T12:28:51.000Z</time>
      </trkpt>
      <trkpt lat="49.22693" lon="-0.04595">
        <ele>47.4</ele>
        <time>2015-09-03T12:29:00.000Z</time>
      </trkpt>
      <trkpt lat="49.22693" lon="-0.0458">
        <ele>47.9</ele>
        <time>2015-09-03T12:29:08.000Z</time>
      </trkpt>
      <trkpt lat="49.22691" lon="-0.04565">
        <ele>48</ele>
        <time>2015-09-03T12:29:16.000Z</time>
      </trkpt>
      <trkpt lat="49.22691" lon="-0.04551">
        <ele>47.8</ele>
        <time>2015-09-03T12:29:24.000Z</time>
      </trkpt>
      <trkpt lat="49.22689" lon="-0.04537">
        <ele>47.7</ele>
        <time>2015-09-03T12:29:32.000Z</time>
      </trkpt>
      <trkpt lat="49.22688" lon="-0.04523">
        <ele>47.4</ele>
        <time>2015-09-03T12:29:40.000Z</time>
      </trkpt>
      <trkpt lat="49.22686" lon="-0.04508">
        <ele>46.5</ele>
        <time>2015-09-03T12:29:49.000Z</time>
      </trkpt>
      <trkpt lat="49.22685" lon="-0.04493">
        <ele>46.1</ele>
        <time>2015-09-03T12:29:57.000Z</time>
      </trkpt>
      <trkpt lat="49.22684" lon="-0.04478">
        <ele>45.2</ele>
        <time>2015-09-03T12:30:05.000Z</time>
      </trkpt>
      <trkpt lat="49.22685" lon="-0.04464">
        <ele>44.5</ele>
        <time>2015-09-03T12:30:14.000Z</time>
      </trkpt>
      <trkpt lat="49.22686" lon="-0.04448">
        <ele>43.3</ele>
        <time>2015-09-03T12:30:22.000Z</time>
      </trkpt>
      <trkpt lat="49.22687" lon="-0.04434">
        <ele>42.3</ele>
        <time>2015-09-03T12:30:31.000Z</time>
      </trkpt>
      <trkpt lat="49.2269" lon="-0.04419">
        <ele>41.2</ele>
        <time>2015-09-03T12:30:40.000Z</time>
      </trkpt>
      <trkpt lat="49.22691" lon="-0.04404">
        <ele>39.9</ele>
        <time>2015-09-03T12:30:49.000Z</time>
      </trkpt>
      <trkpt lat="49.22692" lon="-0.04389">
        <ele>38.9</ele>
        <time>2015-09-03T12:30:57.000Z</time>
      </trkpt>
      <trkpt lat="49.22694" lon="-0.04374">
        <ele>37.8</ele>
        <time>2015-09-03T12:31:05.000Z</time>
      </trkpt>
      <trkpt lat="49.22693" lon="-0.04359">
        <ele>36.8</ele>
        <time>2015-09-03T12:31:13.000Z</time>
      </trkpt>
      <trkpt lat="49.22697" lon="-0.04345">
        <ele>36</ele>
        <time>2015-09-03T12:31:21.000Z</time>
      </trkpt>
      <trkpt lat="49.22701" lon="-0.04332">
        <ele>35.5</ele>
        <time>2015-09-03T12:31:28.000Z</time>
      </trkpt>
      <trkpt lat="49.22706" lon="-0.0432">
        <ele>34.8</ele>
        <time>2015-09-03T12:31:35.000Z</time>
      </trkpt>
      <trkpt lat="49.22712" lon="-0.04308">
        <ele>34.3</ele>
        <time>2015-09-03T12:31:43.000Z</time>
      </trkpt>
      <trkpt lat="49.22718" lon="-0.04297">
        <ele>33.9</ele>
        <time>2015-09-03T12:31:51.000Z</time>
      </trkpt>
      <trkpt lat="49.22724" lon="-0.04286">
        <ele>33.2</ele>
        <time>2015-09-03T12:32:00.000Z</time>
      </trkpt>
      <trkpt lat="49.2273" lon="-0.04276">
        <ele>32.8</ele>
        <time>2015-09-03T12:32:08.000Z</time>
      </trkpt>
      <trkpt lat="49.22737" lon="-0.04265">
        <ele>32.3</ele>
        <time>2015-09-03T12:32:15.000Z</time>
      </trkpt>
      <trkpt lat="49.22743" lon="-0.04253">
        <ele>31.8</ele>
        <time>2015-09-03T12:32:23.000Z</time>
      </trkpt>
      <trkpt lat="49.22749" lon="-0.04243">
        <ele>31.6</ele>
        <time>2015-09-03T12:32:30.000Z</time>
      </trkpt>
      <trkpt lat="49.22756" lon="-0.04232">
        <ele>31.4</ele>
        <time>2015-09-03T12:32:38.000Z</time>
      </trkpt>
      <trkpt lat="49.22762" lon="-0.04222">
        <ele>31.2</ele>
        <time>2015-09-03T12:32:47.000Z</time>
      </trkpt>
      <trkpt lat="49.22768" lon="-0.0421">
        <ele>31.2</ele>
        <time>2015-09-03T12:32:56.000Z</time>
      </trkpt>
      <trkpt lat="49.22774" lon="-0.04199">
        <ele>31.2</ele>
        <time>2015-09-03T12:33:05.000Z</time>
      </trkpt>
      <trkpt lat="49.2278" lon="-0.04186">
        <ele>31.2</ele>
        <time>2015-09-03T12:33:13.000Z</time>
      </trkpt>
      <trkpt lat="49.22785" lon="-0.04174">
        <ele>31.3</ele>
        <time>2015-09-03T12:33:21.000Z</time>
      </trkpt>
      <trkpt lat="49.22793" lon="-0.04164">
        <ele>31.7</ele>
        <time>2015-09-03T12:33:30.000Z</time>
      </trkpt>
      <trkpt lat="49.22801" lon="-0.04156">
        <ele>32</ele>
        <time>2015-09-03T12:33:38.000Z</time>
      </trkpt>
      <trkpt lat="49.22809" lon="-0.04149">
        <ele>32.2</ele>
        <time>2015-09-03T12:33:46.000Z</time>
      </trkpt>
      <trkpt lat="49.22816" lon="-0.0414">
        <ele>32.4</ele>
        <time>2015-09-03T12:33:54.000Z</time>
      </trkpt>
      <trkpt lat="49.22823" lon="-0.0413">
        <ele>32.2</ele>
        <time>2015-09-03T12:34:02.000Z</time>
      </trkpt>
      <trkpt lat="49.2283" lon="-0.0412">
        <ele>32.5</ele>
        <time>2015-09-03T12:34:10.000Z</time>
      </trkpt>
      <trkpt lat="49.22838" lon="-0.0411">
        <ele>32.7</ele>
        <time>2015-09-03T12:34:18.000Z</time>
      </trkpt>
      <trkpt lat="49.22847" lon="-0.041">
        <ele>32.6</ele>
        <time>2015-09-03T12:34:26.000Z</time>
      </trkpt>
      <trkpt lat="49.22855" lon="-0.04092">
        <ele>32.5</ele>
        <time>2015-09-03T12:34:34.000Z</time>
      </trkpt>
      <trkpt lat="49.22862" lon="-0.04084">
        <ele>32.4</ele>
        <time>2015-09-03T12:34:41.000Z</time>
      </trkpt>
      <trkpt lat="49.2287" lon="-0.04074">
        <ele>32.2</ele>
        <time>2015-09-03T12:34:50.000Z</time>
      </trkpt>
      <trkpt lat="49.22877" lon="-0.04066">
        <ele>32.6</ele>
        <time>2015-09-03T12:34:58.000Z</time>
      </trkpt>
      <trkpt lat="49.22884" lon="-0.04057">
        <ele>31.8</ele>
        <time>2015-09-03T12:35:06.000Z</time>
      </trkpt>
      <trkpt lat="49.22892" lon="-0.04049">
        <ele>31.3</ele>
        <time>2015-09-03T12:35:14.000Z</time>
      </trkpt>
      <trkpt lat="49.229" lon="-0.04042">
        <ele>31.2</ele>
        <time>2015-09-03T12:35:22.000Z</time>
      </trkpt>
      <trkpt lat="49.22909" lon="-0.04041">
        <ele>30.9</ele>
        <time>2015-09-03T12:35:34.000Z</time>
      </trkpt>
      <trkpt lat="49.22912" lon="-0.04039">
        <ele>30.3</ele>
        <time>2015-09-03T12:35:46.000Z</time>
      </trkpt>
    </trkseg>
  </trk>
</gpx>